<?xml version='1.0' encoding='UTF-8'?><gpx version="1.1" creator="JPX - https://github.com/jenetics/jpx" xmlns="http://www.topografix.com/GPX/1/1"><trk><trkseg><trkpt lat="46.037195" lon="9.1254753"><ele>281.00000000000006</ele><time>2026-04-09T10:00:31.495Z</time></trkpt><trkpt lat="46.0371302" lon="9.1255079"><ele>281.0</ele><time>2026-04-09T10:00:36.536Z</time></trkpt><trkpt lat="46.0370676" lon="9.1254782"><ele>281.0</ele><time>2026-04-09T10:02:58.536Z</time></trkpt><trkpt lat="46.0370602" lon="9.1255741"><ele>281.0</ele><time>2026-04-09T10:03:08.535Z</time></trkpt><trkpt lat="46.0371418" lon="9.1255882"><ele>281.0</ele><time>2026-04-09T10:03:11.535Z</time></trkpt><trkpt lat="46.0372056" lon="9.1255932"><ele>281.00000000000006</ele><time>2026-04-09T10:03:14.536Z</time></trkpt><trkpt lat="46.0372809" lon="9.1255777"><ele>281.0</ele><time>2026-04-09T10:03:17.534Z</time></trkpt><trkpt lat="46.0373567" lon="9.1255533"><ele>281.00000000000006</ele><time>2026-04-09T10:03:21.535Z</time></trkpt><trkpt lat="46.0374203" lon="9.1255122"><ele>281.0</ele><time>2026-04-09T10:03:43.535Z</time></trkpt><trkpt lat="46.0374822" lon="9.1254492"><ele>281.0</ele><time>2026-04-09T10:03:45.535Z</time></trkpt><trkpt lat="46.0375199" lon="9.125376"><ele>281.0</ele><time>2026-04-09T10:03:46.536Z</time></trkpt><trkpt lat="46.0375522" lon="9.1252888"><ele>281.0</ele><time>2026-04-09T10:03:47.535Z</time></trkpt><trkpt lat="46.0375872" lon="9.1251963"><ele>281.00000000000006</ele><time>2026-04-09T10:03:48.535Z</time></trkpt><trkpt lat="46.0376316" lon="9.125079"><ele>281.0</ele><time>2026-04-09T10:03:49.535Z</time></trkpt><trkpt lat="46.0376769" lon="9.124976"><ele>282.0</ele><time>2026-04-09T10:03:50.536Z</time></trkpt><trkpt lat="46.0377231" lon="9.1248635"><ele>283.0</ele><time>2026-04-09T10:03:51.535Z</time></trkpt><trkpt lat="46.0377697" lon="9.1247453"><ele>284.0</ele><time>2026-04-09T10:03:52.533Z</time></trkpt><trkpt lat="46.0378192" lon="9.1246245"><ele>285.0</ele><time>2026-04-09T10:03:53.534Z</time></trkpt><trkpt lat="46.0378735" lon="9.1245098"><ele>286.0</ele><time>2026-04-09T10:03:54.534Z</time></trkpt><trkpt lat="46.0379307" lon="9.1244037"><ele>286.0</ele><time>2026-04-09T10:03:55.534Z</time></trkpt><trkpt lat="46.0379914" lon="9.1243179"><ele>286.0</ele><time>2026-04-09T10:03:56.534Z</time></trkpt><trkpt lat="46.0380586" lon="9.1242422"><ele>286.0</ele><time>2026-04-09T10:03:57.534Z</time></trkpt><trkpt lat="46.0381313" lon="9.1241867"><ele>286.0</ele><time>2026-04-09T10:03:58.534Z</time></trkpt><trkpt lat="46.0382155" lon="9.124155"><ele>286.0</ele><time>2026-04-09T10:03:59.534Z</time></trkpt><trkpt lat="46.0383061" lon="9.1241366"><ele>286.0</ele><time>2026-04-09T10:04:00.534Z</time></trkpt><trkpt lat="46.0384003" lon="9.1241107"><ele>286.0</ele><time>2026-04-09T10:04:01.535Z</time></trkpt><trkpt lat="46.0384978" lon="9.1240821"><ele>286.0</ele><time>2026-04-09T10:04:02.535Z</time></trkpt><trkpt lat="46.0385964" lon="9.124048"><ele>286.0</ele><time>2026-04-09T10:04:03.535Z</time></trkpt><trkpt lat="46.0386972" lon="9.1239969"><ele>286.0</ele><time>2026-04-09T10:04:04.535Z</time></trkpt><trkpt lat="46.0387931" lon="9.1239462"><ele>286.0</ele><time>2026-04-09T10:04:05.534Z</time></trkpt><trkpt lat="46.0388779" lon="9.1239114"><ele>286.0</ele><time>2026-04-09T10:04:06.534Z</time></trkpt><trkpt lat="46.0389617" lon="9.1239114"><ele>286.0</ele><time>2026-04-09T10:04:07.534Z</time></trkpt><trkpt lat="46.0390289" lon="9.1239596"><ele>286.0</ele><time>2026-04-09T10:04:08.535Z</time></trkpt><trkpt lat="46.0390757" lon="9.124042"><ele>286.0</ele><time>2026-04-09T10:04:09.535Z</time></trkpt><trkpt lat="46.0391049" lon="9.124156"><ele>286.0</ele><time>2026-04-09T10:04:10.535Z</time></trkpt><trkpt lat="46.0391142" lon="9.1242808"><ele>286.0</ele><time>2026-04-09T10:04:11.534Z</time></trkpt><trkpt lat="46.0391077" lon="9.1244186"><ele>286.0</ele><time>2026-04-09T10:04:12.535Z</time></trkpt><trkpt lat="46.0390813" lon="9.1245597"><ele>286.0</ele><time>2026-04-09T10:04:13.535Z</time></trkpt><trkpt lat="46.0390334" lon="9.1246899"><ele>286.0</ele><time>2026-04-09T10:04:14.534Z</time></trkpt><trkpt lat="46.038988" lon="9.1248053"><ele>286.0</ele><time>2026-04-09T10:04:15.534Z</time></trkpt><trkpt lat="46.0389684" lon="9.1249242"><ele>286.0</ele><time>2026-04-09T10:04:16.535Z</time></trkpt><trkpt lat="46.0389841" lon="9.1250423"><ele>286.0</ele><time>2026-04-09T10:04:17.535Z</time></trkpt><trkpt lat="46.0390296" lon="9.125143"><ele>286.0</ele><time>2026-04-09T10:04:18.534Z</time></trkpt><trkpt lat="46.0391014" lon="9.1252318"><ele>286.0</ele><time>2026-04-09T10:04:19.534Z</time></trkpt><trkpt lat="46.0391922" lon="9.1253027"><ele>286.0</ele><time>2026-04-09T10:04:20.535Z</time></trkpt><trkpt lat="46.0392942" lon="9.1253496"><ele>286.0</ele><time>2026-04-09T10:04:21.535Z</time></trkpt><trkpt lat="46.0394046" lon="9.1253914"><ele>288.2</ele><time>2026-04-09T10:04:22.535Z</time></trkpt><trkpt lat="46.0395052" lon="9.125447"><ele>290.40000000000003</ele><time>2026-04-09T10:04:23.535Z</time></trkpt><trkpt lat="46.0395936" lon="9.1255324"><ele>292.6</ele><time>2026-04-09T10:04:24.534Z</time></trkpt><trkpt lat="46.0396714" lon="9.1256482"><ele>294.8</ele><time>2026-04-09T10:04:25.534Z</time></trkpt><trkpt lat="46.0397433" lon="9.1257756"><ele>297.0</ele><time>2026-04-09T10:04:26.535Z</time></trkpt><trkpt lat="46.039822" lon="9.1259085"><ele>297.0</ele><time>2026-04-09T10:04:27.534Z</time></trkpt><trkpt lat="46.0398953" lon="9.1260599"><ele>297.0</ele><time>2026-04-09T10:04:28.535Z</time></trkpt><trkpt lat="46.0399754" lon="9.1262261"><ele>297.0</ele><time>2026-04-09T10:04:29.534Z</time></trkpt><trkpt lat="46.0400516" lon="9.1263879"><ele>297.0</ele><time>2026-04-09T10:04:30.534Z</time></trkpt><trkpt lat="46.0401272" lon="9.1265548"><ele>301.0</ele><time>2026-04-09T10:04:31.535Z</time></trkpt><trkpt lat="46.040205" lon="9.1267254"><ele>305.0</ele><time>2026-04-09T10:04:32.533Z</time></trkpt><trkpt lat="46.0402833" lon="9.1268979"><ele>309.0</ele><time>2026-04-09T10:04:33.535Z</time></trkpt><trkpt lat="46.0403626" lon="9.1270752"><ele>313.0</ele><time>2026-04-09T10:04:34.534Z</time></trkpt><trkpt lat="46.0404422" lon="9.127257"><ele>310.5</ele><time>2026-04-09T10:04:35.534Z</time></trkpt><trkpt lat="46.0405171" lon="9.1274396"><ele>308.0</ele><time>2026-04-09T10:04:36.535Z</time></trkpt><trkpt lat="46.040581" lon="9.1276246"><ele>305.5</ele><time>2026-04-09T10:04:37.535Z</time></trkpt><trkpt lat="46.0406395" lon="9.1278066"><ele>303.0</ele><time>2026-04-09T10:04:38.534Z</time></trkpt><trkpt lat="46.0407058" lon="9.1279821"><ele>303.0</ele><time>2026-04-09T10:04:39.535Z</time></trkpt><trkpt lat="46.0407805" lon="9.1281467"><ele>303.0</ele><time>2026-04-09T10:04:40.534Z</time></trkpt><trkpt lat="46.0408599" lon="9.1283121"><ele>303.0</ele><time>2026-04-09T10:04:41.535Z</time></trkpt><trkpt lat="46.0409404" lon="9.1284768"><ele>303.0</ele><time>2026-04-09T10:04:42.534Z</time></trkpt><trkpt lat="46.0410141" lon="9.1286492"><ele>308.5</ele><time>2026-04-09T10:04:43.535Z</time></trkpt><trkpt lat="46.0410808" lon="9.1288322"><ele>314.0</ele><time>2026-04-09T10:04:44.534Z</time></trkpt><trkpt lat="46.0411427" lon="9.1290131"><ele>319.5</ele><time>2026-04-09T10:04:45.534Z</time></trkpt><trkpt lat="46.0412014" lon="9.129201"><ele>325.0</ele><time>2026-04-09T10:04:46.534Z</time></trkpt><trkpt lat="46.0412562" lon="9.129393"><ele>325.0</ele><time>2026-04-09T10:04:47.534Z</time></trkpt><trkpt lat="46.0413034" lon="9.1295786"><ele>325.0</ele><time>2026-04-09T10:04:48.534Z</time></trkpt><trkpt lat="46.0413417" lon="9.1297583"><ele>325.0</ele><time>2026-04-09T10:04:49.534Z</time></trkpt><trkpt lat="46.0413826" lon="9.1299305"><ele>325.0</ele><time>2026-04-09T10:04:50.535Z</time></trkpt><trkpt lat="46.0414332" lon="9.1300915"><ele>325.0</ele><time>2026-04-09T10:04:51.535Z</time></trkpt><trkpt lat="46.0414897" lon="9.1302532"><ele>325.0</ele><time>2026-04-09T10:04:52.535Z</time></trkpt><trkpt lat="46.0415525" lon="9.1304146"><ele>325.0</ele><time>2026-04-09T10:04:53.535Z</time></trkpt><trkpt lat="46.0416131" lon="9.1305786"><ele>325.0</ele><time>2026-04-09T10:04:54.534Z</time></trkpt><trkpt lat="46.0416694" lon="9.1307446"><ele>331.5</ele><time>2026-04-09T10:04:55.534Z</time></trkpt><trkpt lat="46.0417146" lon="9.1309262"><ele>338.0</ele><time>2026-04-09T10:04:56.535Z</time></trkpt><trkpt lat="46.0417473" lon="9.1311146"><ele>344.5</ele><time>2026-04-09T10:04:57.534Z</time></trkpt><trkpt lat="46.0417766" lon="9.1313051"><ele>351.0</ele><time>2026-04-09T10:04:58.535Z</time></trkpt><trkpt lat="46.0418024" lon="9.131503"><ele>350.0</ele><time>2026-04-09T10:04:59.533Z</time></trkpt><trkpt lat="46.0418282" lon="9.1317032"><ele>349.0</ele><time>2026-04-09T10:05:00.535Z</time></trkpt><trkpt lat="46.0418557" lon="9.1319024"><ele>348.0</ele><time>2026-04-09T10:05:01.535Z</time></trkpt><trkpt lat="46.0418857" lon="9.1320971"><ele>347.0</ele><time>2026-04-09T10:05:02.534Z</time></trkpt><trkpt lat="46.0419076" lon="9.1322782"><ele>346.25</ele><time>2026-04-09T10:05:03.534Z</time></trkpt><trkpt lat="46.0419152" lon="9.1324445"><ele>345.5</ele><time>2026-04-09T10:05:04.534Z</time></trkpt><trkpt lat="46.0419011" lon="9.1326132"><ele>344.75</ele><time>2026-04-09T10:05:05.534Z</time></trkpt><trkpt lat="46.0418607" lon="9.1327701"><ele>344.0</ele><time>2026-04-09T10:05:06.534Z</time></trkpt><trkpt lat="46.0418106" lon="9.1329225"><ele>344.0</ele><time>2026-04-09T10:05:07.535Z</time></trkpt><trkpt lat="46.0417778" lon="9.1330815"><ele>344.0</ele><time>2026-04-09T10:05:08.534Z</time></trkpt><trkpt lat="46.0417807" lon="9.1332551"><ele>344.0</ele><time>2026-04-09T10:05:09.534Z</time></trkpt><trkpt lat="46.0418013" lon="9.1334229"><ele>344.0</ele><time>2026-04-09T10:05:10.535Z</time></trkpt><trkpt lat="46.041836" lon="9.1335873"><ele>344.5</ele><time>2026-04-09T10:05:11.534Z</time></trkpt><trkpt lat="46.0418963" lon="9.1337346"><ele>345.0</ele><time>2026-04-09T10:05:12.534Z</time></trkpt><trkpt lat="46.0419654" lon="9.1338748"><ele>345.5</ele><time>2026-04-09T10:05:13.535Z</time></trkpt><trkpt lat="46.0420322" lon="9.1340112"><ele>346.0</ele><time>2026-04-09T10:05:14.534Z</time></trkpt><trkpt lat="46.0420927" lon="9.1341259"><ele>346.0</ele><time>2026-04-09T10:05:15.534Z</time></trkpt><trkpt lat="46.0421548" lon="9.1342001"><ele>346.0</ele><time>2026-04-09T10:05:16.535Z</time></trkpt><trkpt lat="46.0422224" lon="9.1342256"><ele>346.0</ele><time>2026-04-09T10:05:17.535Z</time></trkpt><trkpt lat="46.0422838" lon="9.1341957"><ele>346.0</ele><time>2026-04-09T10:05:18.535Z</time></trkpt><trkpt lat="46.0423205" lon="9.1341098"><ele>346.0</ele><time>2026-04-09T10:05:19.534Z</time></trkpt><trkpt lat="46.0423188" lon="9.1340002"><ele>346.0</ele><time>2026-04-09T10:05:20.53Z</time></trkpt><trkpt lat="46.0422781" lon="9.1338955"><ele>346.0</ele><time>2026-04-09T10:05:21.534Z</time></trkpt><trkpt lat="46.0422112" lon="9.1337992"><ele>346.0</ele><time>2026-04-09T10:05:22.535Z</time></trkpt><trkpt lat="46.0421328" lon="9.1337056"><ele>346.0</ele><time>2026-04-09T10:05:23.534Z</time></trkpt><trkpt lat="46.0420719" lon="9.1336109"><ele>346.0</ele><time>2026-04-09T10:05:24.534Z</time></trkpt><trkpt lat="46.0420511" lon="9.1335142"><ele>346.0</ele><time>2026-04-09T10:05:25.534Z</time></trkpt><trkpt lat="46.0420649" lon="9.1334172"><ele>346.0</ele><time>2026-04-09T10:05:26.535Z</time></trkpt><trkpt lat="46.0421154" lon="9.1333438"><ele>346.0</ele><time>2026-04-09T10:05:27.535Z</time></trkpt><trkpt lat="46.0421858" lon="9.1332999"><ele>346.0</ele><time>2026-04-09T10:05:28.535Z</time></trkpt><trkpt lat="46.0422648" lon="9.1332583"><ele>346.0</ele><time>2026-04-09T10:05:29.534Z</time></trkpt><trkpt lat="46.0423379" lon="9.1331938"><ele>346.0</ele><time>2026-04-09T10:05:30.533Z</time></trkpt><trkpt lat="46.0423892" lon="9.1330914"><ele>346.0</ele><time>2026-04-09T10:05:31.534Z</time></trkpt><trkpt lat="46.042418" lon="9.1329609"><ele>346.0</ele><time>2026-04-09T10:05:32.534Z</time></trkpt><trkpt lat="46.0424308" lon="9.1328162"><ele>346.25</ele><time>2026-04-09T10:05:33.535Z</time></trkpt><trkpt lat="46.0424351" lon="9.1326584"><ele>346.5</ele><time>2026-04-09T10:05:34.534Z</time></trkpt><trkpt lat="46.0424282" lon="9.1324905"><ele>346.75</ele><time>2026-04-09T10:05:35.535Z</time></trkpt><trkpt lat="46.0424107" lon="9.1323186"><ele>347.0</ele><time>2026-04-09T10:05:36.534Z</time></trkpt><trkpt lat="46.0423884" lon="9.1321435"><ele>347.0</ele><time>2026-04-09T10:05:37.534Z</time></trkpt><trkpt lat="46.0423617" lon="9.1319662"><ele>347.0</ele><time>2026-04-09T10:05:38.535Z</time></trkpt><trkpt lat="46.0423372" lon="9.1317827"><ele>347.0</ele><time>2026-04-09T10:05:39.534Z</time></trkpt><trkpt lat="46.0423161" lon="9.131602"><ele>347.0</ele><time>2026-04-09T10:05:40.534Z</time></trkpt><trkpt lat="46.0423049" lon="9.1314326"><ele>347.8</ele><time>2026-04-09T10:05:41.533Z</time></trkpt><trkpt lat="46.0423056" lon="9.1312864"><ele>348.6</ele><time>2026-04-09T10:05:42.535Z</time></trkpt><trkpt lat="46.0423248" lon="9.1311779"><ele>349.40000000000003</ele><time>2026-04-09T10:05:43.534Z</time></trkpt><trkpt lat="46.0424134" lon="9.1311137"><ele>350.20000000000005</ele><time>2026-04-09T10:05:45.534Z</time></trkpt><trkpt lat="46.0424563" lon="9.131255"><ele>351.0</ele><time>2026-04-09T10:05:47.533Z</time></trkpt><trkpt lat="46.0424481" lon="9.1313627"><ele>351.0</ele><time>2026-04-09T10:05:48.535Z</time></trkpt><trkpt lat="46.0424481" lon="9.1314829"><ele>351.0</ele><time>2026-04-09T10:05:49.534Z</time></trkpt><trkpt lat="46.0424716" lon="9.1316256"><ele>351.0</ele><time>2026-04-09T10:05:50.534Z</time></trkpt><trkpt lat="46.0425089" lon="9.1317721"><ele>351.0</ele><time>2026-04-09T10:05:51.535Z</time></trkpt><trkpt lat="46.0425553" lon="9.1319283"><ele>351.0</ele><time>2026-04-09T10:05:52.533Z</time></trkpt><trkpt lat="46.0426057" lon="9.1320922"><ele>359.25</ele><time>2026-04-09T10:05:53.534Z</time></trkpt><trkpt lat="46.0426545" lon="9.1322694"><ele>367.5</ele><time>2026-04-09T10:05:54.534Z</time></trkpt><trkpt lat="46.0427039" lon="9.1324336"><ele>375.75</ele><time>2026-04-09T10:05:55.534Z</time></trkpt><trkpt lat="46.0427579" lon="9.1325981"><ele>384.0</ele><time>2026-04-09T10:05:56.534Z</time></trkpt><trkpt lat="46.0428218" lon="9.1327563"><ele>384.0</ele><time>2026-04-09T10:05:57.534Z</time></trkpt><trkpt lat="46.0428979" lon="9.1329073"><ele>384.0</ele><time>2026-04-09T10:05:58.533Z</time></trkpt><trkpt lat="46.0429776" lon="9.1330526"><ele>384.0</ele><time>2026-04-09T10:05:59.534Z</time></trkpt><trkpt lat="46.0430608" lon="9.1331872"><ele>384.0</ele><time>2026-04-09T10:06:00.533Z</time></trkpt><trkpt lat="46.043127" lon="9.1333189"><ele>383.2</ele><time>2026-04-09T10:06:01.533Z</time></trkpt><trkpt lat="46.0431665" lon="9.1334529"><ele>382.4</ele><time>2026-04-09T10:06:02.532Z</time></trkpt><trkpt lat="46.0431918" lon="9.1336015"><ele>381.6</ele><time>2026-04-09T10:06:03.532Z</time></trkpt><trkpt lat="46.0432181" lon="9.1337521"><ele>380.8</ele><time>2026-04-09T10:06:04.534Z</time></trkpt><trkpt lat="46.0432539" lon="9.1339072"><ele>380.0</ele><time>2026-04-09T10:06:05.534Z</time></trkpt><trkpt lat="46.043306" lon="9.1340587"><ele>387.5</ele><time>2026-04-09T10:06:06.533Z</time></trkpt><trkpt lat="46.043376" lon="9.1342087"><ele>395.0</ele><time>2026-04-09T10:06:07.533Z</time></trkpt><trkpt lat="46.0434538" lon="9.1343574"><ele>402.5</ele><time>2026-04-09T10:06:08.533Z</time></trkpt><trkpt lat="46.0435302" lon="9.134509"><ele>410.0</ele><time>2026-04-09T10:06:09.534Z</time></trkpt><trkpt lat="46.0436039" lon="9.1346525"><ele>410.0</ele><time>2026-04-09T10:06:10.533Z</time></trkpt><trkpt lat="46.0436792" lon="9.1347838"><ele>410.0</ele><time>2026-04-09T10:06:11.533Z</time></trkpt><trkpt lat="46.0437646" lon="9.1348917"><ele>410.0</ele><time>2026-04-09T10:06:12.533Z</time></trkpt><trkpt lat="46.0438663" lon="9.134971"><ele>410.0</ele><time>2026-04-09T10:06:13.533Z</time></trkpt><trkpt lat="46.0439712" lon="9.1350366"><ele>411.0</ele><time>2026-04-09T10:06:14.533Z</time></trkpt><trkpt lat="46.0440761" lon="9.135095"><ele>412.0</ele><time>2026-04-09T10:06:15.533Z</time></trkpt><trkpt lat="46.0441711" lon="9.1351267"><ele>413.0</ele><time>2026-04-09T10:06:16.533Z</time></trkpt><trkpt lat="46.0442644" lon="9.1351394"><ele>414.0</ele><time>2026-04-09T10:06:17.533Z</time></trkpt><trkpt lat="46.0443542" lon="9.1351502"><ele>415.0</ele><time>2026-04-09T10:06:18.534Z</time></trkpt><trkpt lat="46.0444322" lon="9.135183"><ele>417.00000000000006</ele><time>2026-04-09T10:06:19.533Z</time></trkpt><trkpt lat="46.0444908" lon="9.1352551"><ele>419.0</ele><time>2026-04-09T10:06:20.534Z</time></trkpt><trkpt lat="46.0445335" lon="9.1353624"><ele>421.0</ele><time>2026-04-09T10:06:21.533Z</time></trkpt><trkpt lat="46.0445659" lon="9.1354816"><ele>423.0</ele><time>2026-04-09T10:06:22.533Z</time></trkpt><trkpt lat="46.0445794" lon="9.1355912"><ele>425.00000000000006</ele><time>2026-04-09T10:06:23.533Z</time></trkpt><trkpt lat="46.0445966" lon="9.1356828"><ele>427.0</ele><time>2026-04-09T10:06:24.533Z</time></trkpt><trkpt lat="46.0446456" lon="9.1357434"><ele>427.0</ele><time>2026-04-09T10:06:25.533Z</time></trkpt><trkpt lat="46.0447119" lon="9.1357545"><ele>427.0</ele><time>2026-04-09T10:06:26.533Z</time></trkpt><trkpt lat="46.0447693" lon="9.1357007"><ele>427.0</ele><time>2026-04-09T10:06:27.533Z</time></trkpt><trkpt lat="46.0447904" lon="9.1356087"><ele>427.0</ele><time>2026-04-09T10:06:28.533Z</time></trkpt><trkpt lat="46.0447653" lon="9.135514"><ele>427.0</ele><time>2026-04-09T10:06:29.533Z</time></trkpt><trkpt lat="46.0447119" lon="9.13544"><ele>427.0</ele><time>2026-04-09T10:06:30.533Z</time></trkpt><trkpt lat="46.0446529" lon="9.1353443"><ele>427.0</ele><time>2026-04-09T10:06:31.534Z</time></trkpt><trkpt lat="46.0446028" lon="9.1352205"><ele>427.0</ele><time>2026-04-09T10:06:32.533Z</time></trkpt><trkpt lat="46.0445477" lon="9.1350987"><ele>427.00000000000006</ele><time>2026-04-09T10:06:33.532Z</time></trkpt><trkpt lat="46.0444691" lon="9.1349944"><ele>427.00000000000006</ele><time>2026-04-09T10:06:34.533Z</time></trkpt><trkpt lat="46.0443731" lon="9.1349196"><ele>427.0</ele><time>2026-04-09T10:06:35.533Z</time></trkpt><trkpt lat="46.0442757" lon="9.1348707"><ele>427.0</ele><time>2026-04-09T10:06:36.532Z</time></trkpt><trkpt lat="46.0441799" lon="9.1348229"><ele>423.6</ele><time>2026-04-09T10:06:37.532Z</time></trkpt><trkpt lat="46.0441082" lon="9.1347547"><ele>420.20000000000005</ele><time>2026-04-09T10:06:38.533Z</time></trkpt><trkpt lat="46.0440561" lon="9.1346508"><ele>416.8</ele><time>2026-04-09T10:06:39.533Z</time></trkpt><trkpt lat="46.0440215" lon="9.1345255"><ele>413.4</ele><time>2026-04-09T10:06:40.533Z</time></trkpt><trkpt lat="46.0440051" lon="9.1343846"><ele>410.0</ele><time>2026-04-09T10:06:41.532Z</time></trkpt><trkpt lat="46.0440002" lon="9.1342366"><ele>410.0</ele><time>2026-04-09T10:06:42.533Z</time></trkpt><trkpt lat="46.0439973" lon="9.1340789"><ele>410.0</ele><time>2026-04-09T10:06:43.533Z</time></trkpt><trkpt lat="46.0439877" lon="9.1339277"><ele>410.0</ele><time>2026-04-09T10:06:44.533Z</time></trkpt><trkpt lat="46.0439818" lon="9.1337979"><ele>410.0</ele><time>2026-04-09T10:06:45.534Z</time></trkpt><trkpt lat="46.0439938" lon="9.133692"><ele>410.0</ele><time>2026-04-09T10:06:46.533Z</time></trkpt><trkpt lat="46.0440696" lon="9.1336196"><ele>415.4</ele><time>2026-04-09T10:06:48.532Z</time></trkpt><trkpt lat="46.0441546" lon="9.1337364"><ele>420.8</ele><time>2026-04-09T10:06:50.533Z</time></trkpt><trkpt lat="46.0442002" lon="9.1338414"><ele>426.20000000000005</ele><time>2026-04-09T10:06:51.533Z</time></trkpt><trkpt lat="46.0442567" lon="9.1339623"><ele>431.6</ele><time>2026-04-09T10:06:52.533Z</time></trkpt><trkpt lat="46.0443151" lon="9.1340969"><ele>437.0</ele><time>2026-04-09T10:06:53.534Z</time></trkpt><trkpt lat="46.044382" lon="9.1342479"><ele>437.0</ele><time>2026-04-09T10:06:54.534Z</time></trkpt><trkpt lat="46.0444532" lon="9.1344014"><ele>437.0</ele><time>2026-04-09T10:06:55.533Z</time></trkpt><trkpt lat="46.0445255" lon="9.134548"><ele>437.0</ele><time>2026-04-09T10:06:56.533Z</time></trkpt><trkpt lat="46.0446067" lon="9.1346981"><ele>437.0</ele><time>2026-04-09T10:06:57.533Z</time></trkpt><trkpt lat="46.0446953" lon="9.134847"><ele>434.5</ele><time>2026-04-09T10:06:58.534Z</time></trkpt><trkpt lat="46.0447883" lon="9.1349994"><ele>432.0</ele><time>2026-04-09T10:06:59.533Z</time></trkpt><trkpt lat="46.0448866" lon="9.1351553"><ele>429.5</ele><time>2026-04-09T10:07:00.534Z</time></trkpt><trkpt lat="46.0449894" lon="9.1353119"><ele>427.0</ele><time>2026-04-09T10:07:01.533Z</time></trkpt><trkpt lat="46.0450965" lon="9.1354697"><ele>430.6666666666667</ele><time>2026-04-09T10:07:02.533Z</time></trkpt><trkpt lat="46.0452031" lon="9.1356251"><ele>434.33333333333337</ele><time>2026-04-09T10:07:03.533Z</time></trkpt><trkpt lat="46.0453123" lon="9.1357781"><ele>438.0</ele><time>2026-04-09T10:07:04.533Z</time></trkpt><trkpt lat="46.0454234" lon="9.1359385"><ele>438.0</ele><time>2026-04-09T10:07:05.533Z</time></trkpt><trkpt lat="46.0455304" lon="9.1360916"><ele>438.0</ele><time>2026-04-09T10:07:06.533Z</time></trkpt><trkpt lat="46.0456404" lon="9.1362402"><ele>438.0</ele><time>2026-04-09T10:07:07.533Z</time></trkpt><trkpt lat="46.045752" lon="9.1363672"><ele>438.0</ele><time>2026-04-09T10:07:08.534Z</time></trkpt><trkpt lat="46.045859" lon="9.1364814"><ele>441.75</ele><time>2026-04-09T10:07:09.534Z</time></trkpt><trkpt lat="46.0459507" lon="9.1366056"><ele>445.5</ele><time>2026-04-09T10:07:10.533Z</time></trkpt><trkpt lat="46.0460214" lon="9.1367473"><ele>449.25</ele><time>2026-04-09T10:07:11.533Z</time></trkpt><trkpt lat="46.0460775" lon="9.1369017"><ele>453.0</ele><time>2026-04-09T10:07:12.534Z</time></trkpt><trkpt lat="46.0461213" lon="9.1370603"><ele>453.0</ele><time>2026-04-09T10:07:13.533Z</time></trkpt><trkpt lat="46.0461549" lon="9.1372289"><ele>453.0</ele><time>2026-04-09T10:07:14.533Z</time></trkpt><trkpt lat="46.0461864" lon="9.1374019"><ele>453.0</ele><time>2026-04-09T10:07:15.533Z</time></trkpt><trkpt lat="46.0462083" lon="9.1375812"><ele>453.0</ele><time>2026-04-09T10:07:16.533Z</time></trkpt><trkpt lat="46.0462236" lon="9.1377608"><ele>452.79999999999995</ele><time>2026-04-09T10:07:17.534Z</time></trkpt><trkpt lat="46.046235" lon="9.1379393"><ele>452.59999999999997</ele><time>2026-04-09T10:07:18.533Z</time></trkpt><trkpt lat="46.046247" lon="9.1381119"><ele>452.40000000000003</ele><time>2026-04-09T10:07:19.533Z</time></trkpt><trkpt lat="46.0462597" lon="9.1382703"><ele>452.20000000000005</ele><time>2026-04-09T10:07:20.534Z</time></trkpt><trkpt lat="46.0462786" lon="9.1383999"><ele>452.0</ele><time>2026-04-09T10:07:21.533Z</time></trkpt><trkpt lat="46.0463138" lon="9.1384854"><ele>453.49999999999994</ele><time>2026-04-09T10:07:22.533Z</time></trkpt><trkpt lat="46.0464258" lon="9.1385178"><ele>455.0</ele><time>2026-04-09T10:07:24.533Z</time></trkpt><trkpt lat="46.0464867" lon="9.1384824"><ele>456.5</ele><time>2026-04-09T10:07:25.533Z</time></trkpt><trkpt lat="46.0465479" lon="9.1384415"><ele>458.0</ele><time>2026-04-09T10:07:26.533Z</time></trkpt><trkpt lat="46.0466143" lon="9.1384067"><ele>459.49999999999994</ele><time>2026-04-09T10:07:27.533Z</time></trkpt><trkpt lat="46.0466789" lon="9.1383746"><ele>461.0</ele><time>2026-04-09T10:07:28.533Z</time></trkpt><trkpt lat="46.0467813" lon="9.1383343"><ele>462.8333333333333</ele><time>2026-04-09T10:07:30.533Z</time></trkpt><trkpt lat="46.0468509" lon="9.1383139"><ele>464.66666666666663</ele><time>2026-04-09T10:07:32.533Z</time></trkpt><trkpt lat="46.0469058" lon="9.1382527"><ele>466.5</ele><time>2026-04-09T10:13:35.531Z</time></trkpt><trkpt lat="46.0469682" lon="9.1382272"><ele>468.33333333333337</ele><time>2026-04-09T10:13:37.53Z</time></trkpt><trkpt lat="46.0470775" lon="9.1381645"><ele>470.1666666666667</ele><time>2026-04-09T10:13:39.53Z</time></trkpt><trkpt lat="46.0471179" lon="9.1380861"><ele>472.0</ele><time>2026-04-09T10:13:40.53Z</time></trkpt><trkpt lat="46.0471401" lon="9.1379218"><ele>472.1666666666667</ele><time>2026-04-09T10:13:42.53Z</time></trkpt><trkpt lat="46.0471227" lon="9.13782"><ele>472.33333333333337</ele><time>2026-04-09T10:13:43.531Z</time></trkpt><trkpt lat="46.0471009" lon="9.1377081"><ele>472.5</ele><time>2026-04-09T10:13:44.53Z</time></trkpt><trkpt lat="46.0470787" lon="9.1375956"><ele>472.66666666666663</ele><time>2026-04-09T10:13:45.53Z</time></trkpt><trkpt lat="46.0470618" lon="9.1374782"><ele>472.8333333333333</ele><time>2026-04-09T10:13:46.531Z</time></trkpt><trkpt lat="46.0470463" lon="9.1373538"><ele>473.0</ele><time>2026-04-09T10:13:47.529Z</time></trkpt><trkpt lat="46.0470304" lon="9.1372279"><ele>473.59999999999997</ele><time>2026-04-09T10:13:48.531Z</time></trkpt><trkpt lat="46.0470097" lon="9.1370997"><ele>474.19999999999993</ele><time>2026-04-09T10:13:49.53Z</time></trkpt><trkpt lat="46.0469832" lon="9.136979"><ele>474.8</ele><time>2026-04-09T10:13:50.531Z</time></trkpt><trkpt lat="46.0469633" lon="9.1368698"><ele>475.4</ele><time>2026-04-09T10:13:51.53Z</time></trkpt><trkpt lat="46.0469987" lon="9.1366989"><ele>476.0</ele><time>2026-04-09T10:13:53.531Z</time></trkpt><trkpt lat="46.0470565" lon="9.1366434"><ele>475.99999999999994</ele><time>2026-04-09T10:13:54.53Z</time></trkpt><trkpt lat="46.047126" lon="9.1366164"><ele>476.0</ele><time>2026-04-09T10:13:55.53Z</time></trkpt><trkpt lat="46.0472064" lon="9.1366052"><ele>476.0</ele><time>2026-04-09T10:13:56.53Z</time></trkpt><trkpt lat="46.0472896" lon="9.1365803"><ele>476.0</ele><time>2026-04-09T10:13:57.53Z</time></trkpt><trkpt lat="46.0473688" lon="9.1365597"><ele>475.99999999999994</ele><time>2026-04-09T10:13:58.53Z</time></trkpt><trkpt lat="46.0474323" lon="9.1365251"><ele>476.0</ele><time>2026-04-09T10:13:59.529Z</time></trkpt><trkpt lat="46.0474771" lon="9.1364538"><ele>477.66666666666663</ele><time>2026-04-09T10:14:00.53Z</time></trkpt><trkpt lat="46.0474957" lon="9.1363604"><ele>479.3333333333333</ele><time>2026-04-09T10:14:01.529Z</time></trkpt><trkpt lat="46.0474823" lon="9.1362597"><ele>481.0</ele><time>2026-04-09T10:14:02.529Z</time></trkpt><trkpt lat="46.0474457" lon="9.1361554"><ele>482.66666666666663</ele><time>2026-04-09T10:14:03.528Z</time></trkpt><trkpt lat="46.0473985" lon="9.1360478"><ele>484.3333333333333</ele><time>2026-04-09T10:14:04.53Z</time></trkpt><trkpt lat="46.0473478" lon="9.1359357"><ele>486.0</ele><time>2026-04-09T10:14:05.528Z</time></trkpt><trkpt lat="46.0472952" lon="9.1358229"><ele>487.5</ele><time>2026-04-09T10:14:06.529Z</time></trkpt><trkpt lat="46.0472424" lon="9.1357084"><ele>489.0</ele><time>2026-04-09T10:14:07.529Z</time></trkpt><trkpt lat="46.0471933" lon="9.1355905"><ele>490.5</ele><time>2026-04-09T10:14:08.53Z</time></trkpt><trkpt lat="46.0471571" lon="9.1354787"><ele>492.0</ele><time>2026-04-09T10:14:09.53Z</time></trkpt><trkpt lat="46.0471435" lon="9.1353623"><ele>493.5</ele><time>2026-04-09T10:14:10.529Z</time></trkpt><trkpt lat="46.047147" lon="9.1352492"><ele>495.0</ele><time>2026-04-09T10:14:11.529Z</time></trkpt><trkpt lat="46.0471347" lon="9.1351404"><ele>495.0</ele><time>2026-04-09T10:14:12.53Z</time></trkpt><trkpt lat="46.0470902" lon="9.135046"><ele>495.0</ele><time>2026-04-09T10:14:13.529Z</time></trkpt><trkpt lat="46.0470296" lon="9.1349799"><ele>495.0</ele><time>2026-04-09T10:14:14.53Z</time></trkpt><trkpt lat="46.0469643" lon="9.1349142"><ele>495.0</ele><time>2026-04-09T10:14:15.53Z</time></trkpt><trkpt lat="46.0469037" lon="9.1348333"><ele>495.0</ele><time>2026-04-09T10:14:16.528Z</time></trkpt><trkpt lat="46.0468481" lon="9.1347398"><ele>495.0</ele><time>2026-04-09T10:14:17.53Z</time></trkpt><trkpt lat="46.0467956" lon="9.1346426"><ele>496.3333333333333</ele><time>2026-04-09T10:14:18.529Z</time></trkpt><trkpt lat="46.0467623" lon="9.1345541"><ele>497.66666666666663</ele><time>2026-04-09T10:14:19.529Z</time></trkpt><trkpt lat="46.0467864" lon="9.1344256"><ele>499.0</ele><time>2026-04-09T10:14:21.53Z</time></trkpt><trkpt lat="46.0468697" lon="9.1344471"><ele>500.3333333333333</ele><time>2026-04-09T10:14:23.529Z</time></trkpt><trkpt lat="46.0468991" lon="9.1345299"><ele>501.66666666666663</ele><time>2026-04-09T10:14:24.528Z</time></trkpt><trkpt lat="46.0469237" lon="9.1346325"><ele>503.0</ele><time>2026-04-09T10:14:25.529Z</time></trkpt><trkpt lat="46.0469722" lon="9.1347041"><ele>502.99999999999994</ele><time>2026-04-09T10:14:26.529Z</time></trkpt><trkpt lat="46.0470381" lon="9.1347371"><ele>503.0</ele><time>2026-04-09T10:14:27.53Z</time></trkpt><trkpt lat="46.0471164" lon="9.1347288"><ele>503.0</ele><time>2026-04-09T10:14:28.529Z</time></trkpt><trkpt lat="46.0472002" lon="9.1347091"><ele>503.0</ele><time>2026-04-09T10:14:29.529Z</time></trkpt><trkpt lat="46.0472855" lon="9.134685"><ele>502.99999999999994</ele><time>2026-04-09T10:14:30.529Z</time></trkpt><trkpt lat="46.0473747" lon="9.1346804"><ele>503.0</ele><time>2026-04-09T10:14:31.53Z</time></trkpt><trkpt lat="46.0474573" lon="9.134714"><ele>504.99999999999994</ele><time>2026-04-09T10:14:32.53Z</time></trkpt><trkpt lat="46.0475231" lon="9.1347863"><ele>507.0</ele><time>2026-04-09T10:14:33.53Z</time></trkpt><trkpt lat="46.0475702" lon="9.1348843"><ele>509.0</ele><time>2026-04-09T10:14:34.529Z</time></trkpt><trkpt lat="46.0476135" lon="9.1349854"><ele>511.0</ele><time>2026-04-09T10:14:35.53Z</time></trkpt><trkpt lat="46.0476619" lon="9.135091"><ele>513.0</ele><time>2026-04-09T10:14:36.529Z</time></trkpt><trkpt lat="46.0477125" lon="9.1351921"><ele>515.0</ele><time>2026-04-09T10:14:37.53Z</time></trkpt><trkpt lat="46.0477711" lon="9.1352875"><ele>515.0</ele><time>2026-04-09T10:14:38.53Z</time></trkpt><trkpt lat="46.0478443" lon="9.1353601"><ele>515.0</ele><time>2026-04-09T10:14:39.53Z</time></trkpt><trkpt lat="46.0479249" lon="9.135425"><ele>515.0</ele><time>2026-04-09T10:14:40.529Z</time></trkpt><trkpt lat="46.0480099" lon="9.1354918"><ele>515.0</ele><time>2026-04-09T10:14:41.529Z</time></trkpt><trkpt lat="46.0480975" lon="9.1355612"><ele>515.0</ele><time>2026-04-09T10:14:42.528Z</time></trkpt><trkpt lat="46.048191" lon="9.1356224"><ele>515.0</ele><time>2026-04-09T10:14:43.53Z</time></trkpt><trkpt lat="46.0482877" lon="9.1356799"><ele>515.0</ele><time>2026-04-09T10:14:44.528Z</time></trkpt><trkpt lat="46.0483773" lon="9.1357497"><ele>515.0</ele><time>2026-04-09T10:14:45.529Z</time></trkpt><trkpt lat="46.0484522" lon="9.1358431"><ele>515.0</ele><time>2026-04-09T10:14:46.529Z</time></trkpt><trkpt lat="46.0485259" lon="9.1359313"><ele>515.0</ele><time>2026-04-09T10:14:47.529Z</time></trkpt><trkpt lat="46.0486086" lon="9.1359925"><ele>517.2</ele><time>2026-04-09T10:14:48.529Z</time></trkpt><trkpt lat="46.0486991" lon="9.136018"><ele>519.4</ele><time>2026-04-09T10:14:49.529Z</time></trkpt><trkpt lat="46.0487929" lon="9.1360328"><ele>521.6</ele><time>2026-04-09T10:14:50.53Z</time></trkpt><trkpt lat="46.0488856" lon="9.1360736"><ele>523.8</ele><time>2026-04-09T10:14:51.529Z</time></trkpt><trkpt lat="46.0489642" lon="9.1361457"><ele>526.0</ele><time>2026-04-09T10:14:52.529Z</time></trkpt><trkpt lat="46.0490317" lon="9.1362407"><ele>526.0</ele><time>2026-04-09T10:14:53.529Z</time></trkpt><trkpt lat="46.0490822" lon="9.1363582"><ele>526.0</ele><time>2026-04-09T10:14:54.529Z</time></trkpt><trkpt lat="46.0491375" lon="9.1364737"><ele>526.0</ele><time>2026-04-09T10:14:55.529Z</time></trkpt><trkpt lat="46.0491961" lon="9.1365932"><ele>526.0</ele><time>2026-04-09T10:14:56.53Z</time></trkpt><trkpt lat="46.0492554" lon="9.1367088"><ele>526.0</ele><time>2026-04-09T10:14:57.53Z</time></trkpt><trkpt lat="46.049317" lon="9.1368267"><ele>528.4</ele><time>2026-04-09T10:14:58.53Z</time></trkpt><trkpt lat="46.0493815" lon="9.1369444"><ele>530.8</ele><time>2026-04-09T10:14:59.529Z</time></trkpt><trkpt lat="46.0494449" lon="9.1370701"><ele>533.1999999999999</ele><time>2026-04-09T10:15:00.529Z</time></trkpt><trkpt lat="46.0495028" lon="9.1371876"><ele>535.6</ele><time>2026-04-09T10:15:01.529Z</time></trkpt><trkpt lat="46.0495577" lon="9.1373061"><ele>538.0</ele><time>2026-04-09T10:15:02.529Z</time></trkpt><trkpt lat="46.0496004" lon="9.137425"><ele>538.0</ele><time>2026-04-09T10:15:03.529Z</time></trkpt><trkpt lat="46.0496273" lon="9.1375487"><ele>538.0</ele><time>2026-04-09T10:15:04.529Z</time></trkpt><trkpt lat="46.0496376" lon="9.1376726"><ele>538.0</ele><time>2026-04-09T10:15:05.529Z</time></trkpt><trkpt lat="46.0496448" lon="9.1377926"><ele>538.0</ele><time>2026-04-09T10:15:06.529Z</time></trkpt><trkpt lat="46.0496521" lon="9.1379005"><ele>538.0</ele><time>2026-04-09T10:15:07.529Z</time></trkpt><trkpt lat="46.0496661" lon="9.1379913"><ele>538.0</ele><time>2026-04-09T10:15:08.529Z</time></trkpt><trkpt lat="46.049697" lon="9.1380819"><ele>538.0</ele><time>2026-04-09T10:15:09.529Z</time></trkpt><trkpt lat="46.0497333" lon="9.1381775"><ele>538.0</ele><time>2026-04-09T10:15:10.529Z</time></trkpt><trkpt lat="46.0497668" lon="9.1382761"><ele>538.0</ele><time>2026-04-09T10:15:11.529Z</time></trkpt><trkpt lat="46.0497958" lon="9.1383876"><ele>538.0</ele><time>2026-04-09T10:15:12.529Z</time></trkpt><trkpt lat="46.0498216" lon="9.138508"><ele>538.0</ele><time>2026-04-09T10:15:13.529Z</time></trkpt><trkpt lat="46.0498582" lon="9.1386275"><ele>538.0</ele><time>2026-04-09T10:15:14.528Z</time></trkpt><trkpt lat="46.0499031" lon="9.138741"><ele>537.4</ele><time>2026-04-09T10:15:15.53Z</time></trkpt><trkpt lat="46.049936" lon="9.1388477"><ele>536.8</ele><time>2026-04-09T10:15:16.53Z</time></trkpt><trkpt lat="46.0499658" lon="9.1389434"><ele>536.2</ele><time>2026-04-09T10:15:17.53Z</time></trkpt><trkpt lat="46.0500384" lon="9.1390449"><ele>535.6</ele><time>2026-04-09T10:15:19.529Z</time></trkpt><trkpt lat="46.0500924" lon="9.1389407"><ele>535.0</ele><time>2026-04-09T10:15:22.53Z</time></trkpt><trkpt lat="46.050075" lon="9.1387639"><ele>540.3333333333334</ele><time>2026-04-09T10:15:24.529Z</time></trkpt><trkpt lat="46.0500737" lon="9.1386518"><ele>545.6666666666667</ele><time>2026-04-09T10:15:25.529Z</time></trkpt><trkpt lat="46.0500749" lon="9.138538"><ele>551.0</ele><time>2026-04-09T10:15:26.53Z</time></trkpt><trkpt lat="46.0500818" lon="9.1384279"><ele>556.3333333333334</ele><time>2026-04-09T10:15:27.529Z</time></trkpt><trkpt lat="46.0500867" lon="9.1383052"><ele>561.6666666666666</ele><time>2026-04-09T10:15:28.529Z</time></trkpt><trkpt lat="46.0500902" lon="9.1381757"><ele>567.0</ele><time>2026-04-09T10:15:29.53Z</time></trkpt><trkpt lat="46.0500988" lon="9.1380396"><ele>568.4</ele><time>2026-04-09T10:15:30.529Z</time></trkpt><trkpt lat="46.0501075" lon="9.1378986"><ele>569.8000000000001</ele><time>2026-04-09T10:15:31.529Z</time></trkpt><trkpt lat="46.0501146" lon="9.1377537"><ele>571.2</ele><time>2026-04-09T10:15:32.53Z</time></trkpt><trkpt lat="46.0501163" lon="9.137606"><ele>572.6</ele><time>2026-04-09T10:15:33.529Z</time></trkpt><trkpt lat="46.0501125" lon="9.1374551"><ele>574.0</ele><time>2026-04-09T10:15:34.528Z</time></trkpt><trkpt lat="46.0501024" lon="9.1373037"><ele>576.0</ele><time>2026-04-09T10:15:35.528Z</time></trkpt><trkpt lat="46.0500946" lon="9.137151"><ele>578.0</ele><time>2026-04-09T10:15:36.529Z</time></trkpt><trkpt lat="46.0500873" lon="9.1369946"><ele>580.0</ele><time>2026-04-09T10:15:37.529Z</time></trkpt><trkpt lat="46.0500734" lon="9.1368454"><ele>582.0</ele><time>2026-04-09T10:15:38.528Z</time></trkpt><trkpt lat="46.0500399" lon="9.1367106"><ele>584.0</ele><time>2026-04-09T10:15:39.529Z</time></trkpt><trkpt lat="46.0499989" lon="9.1365872"><ele>586.1666666666666</ele><time>2026-04-09T10:15:40.53Z</time></trkpt><trkpt lat="46.0499721" lon="9.1364651"><ele>588.3333333333333</ele><time>2026-04-09T10:15:41.529Z</time></trkpt><trkpt lat="46.0499704" lon="9.1363426"><ele>590.5</ele><time>2026-04-09T10:15:42.53Z</time></trkpt><trkpt lat="46.0499766" lon="9.1362217"><ele>592.6666666666666</ele><time>2026-04-09T10:15:43.53Z</time></trkpt><trkpt lat="46.0499739" lon="9.1361069"><ele>594.8333333333334</ele><time>2026-04-09T10:15:44.529Z</time></trkpt><trkpt lat="46.0499438" lon="9.1359984"><ele>597.0</ele><time>2026-04-09T10:15:45.53Z</time></trkpt><trkpt lat="46.049898" lon="9.1359003"><ele>592.8333333333334</ele><time>2026-04-09T10:15:46.529Z</time></trkpt><trkpt lat="46.0498522" lon="9.135806"><ele>588.6666666666666</ele><time>2026-04-09T10:15:47.529Z</time></trkpt><trkpt lat="46.0498139" lon="9.1356985"><ele>584.5</ele><time>2026-04-09T10:15:48.529Z</time></trkpt><trkpt lat="46.0497912" lon="9.1355822"><ele>580.3333333333333</ele><time>2026-04-09T10:15:49.53Z</time></trkpt><trkpt lat="46.0497864" lon="9.1354639"><ele>576.1666666666666</ele><time>2026-04-09T10:15:50.53Z</time></trkpt><trkpt lat="46.0497929" lon="9.1353446"><ele>572.0</ele><time>2026-04-09T10:15:51.529Z</time></trkpt><trkpt lat="46.049819" lon="9.1352379"><ele>572.0</ele><time>2026-04-09T10:15:52.53Z</time></trkpt><trkpt lat="46.0498576" lon="9.1351367"><ele>572.0</ele><time>2026-04-09T10:15:53.529Z</time></trkpt><trkpt lat="46.0498861" lon="9.135045"><ele>572.0</ele><time>2026-04-09T10:15:54.529Z</time></trkpt><trkpt lat="46.0499256" lon="9.134879"><ele>572.0</ele><time>2026-04-09T10:15:56.53Z</time></trkpt><trkpt lat="46.0499675" lon="9.1347096"><ele>572.0</ele><time>2026-04-09T10:15:58.528Z</time></trkpt><trkpt lat="46.0500058" lon="9.1345699"><ele>579.8333333333333</ele><time>2026-04-09T10:16:00.528Z</time></trkpt><trkpt lat="46.0500343" lon="9.1344636"><ele>587.6666666666666</ele><time>2026-04-09T10:16:02.528Z</time></trkpt><trkpt lat="46.0500769" lon="9.1343788"><ele>595.5</ele><time>2026-04-09T10:16:04.528Z</time></trkpt><trkpt lat="46.0501173" lon="9.1343049"><ele>603.3333333333334</ele><time>2026-04-09T10:21:15.526Z</time></trkpt><trkpt lat="46.0501425" lon="9.1341829"><ele>611.1666666666667</ele><time>2026-04-09T10:21:17.527Z</time></trkpt><trkpt lat="46.0501765" lon="9.1340447"><ele>619.0</ele><time>2026-04-09T10:21:19.526Z</time></trkpt><trkpt lat="46.0501804" lon="9.1339158"><ele>620.4</ele><time>2026-04-09T10:21:21.525Z</time></trkpt><trkpt lat="46.050106" lon="9.1338821"><ele>621.8</ele><time>2026-04-09T10:21:25.526Z</time></trkpt><trkpt lat="46.0500001" lon="9.1338715"><ele>623.2</ele><time>2026-04-09T10:21:27.527Z</time></trkpt><trkpt lat="46.0499106" lon="9.1339337"><ele>624.6</ele><time>2026-04-09T10:21:28.527Z</time></trkpt><trkpt lat="46.0498052" lon="9.1339502"><ele>626.0</ele><time>2026-04-09T10:21:30.527Z</time></trkpt><trkpt lat="46.0497416" lon="9.1338758"><ele>623.0</ele><time>2026-04-09T10:21:32.526Z</time></trkpt><trkpt lat="46.04969" lon="9.1337297"><ele>620.0</ele><time>2026-04-09T10:21:34.526Z</time></trkpt><trkpt lat="46.0496401" lon="9.1335495"><ele>617.0</ele><time>2026-04-09T10:21:36.526Z</time></trkpt><trkpt lat="46.049617" lon="9.1334462"><ele>614.0</ele><time>2026-04-09T10:21:37.527Z</time></trkpt><trkpt lat="46.0495923" lon="9.1333357"><ele>611.0</ele><time>2026-04-09T10:21:38.526Z</time></trkpt><trkpt lat="46.0495677" lon="9.1332111"><ele>611.0</ele><time>2026-04-09T10:21:39.525Z</time></trkpt><trkpt lat="46.0495473" lon="9.1330879"><ele>611.0</ele><time>2026-04-09T10:21:40.526Z</time></trkpt><trkpt lat="46.0495286" lon="9.1329602"><ele>611.0</ele><time>2026-04-09T10:21:41.526Z</time></trkpt><trkpt lat="46.0495206" lon="9.1328204"><ele>611.0</ele><time>2026-04-09T10:21:42.526Z</time></trkpt><trkpt lat="46.0495182" lon="9.1326781"><ele>611.0</ele><time>2026-04-09T10:21:43.525Z</time></trkpt><trkpt lat="46.0495167" lon="9.1325297"><ele>613.6666666666666</ele><time>2026-04-09T10:21:44.525Z</time></trkpt><trkpt lat="46.0495126" lon="9.1323895"><ele>616.3333333333333</ele><time>2026-04-09T10:21:45.525Z</time></trkpt><trkpt lat="46.0495055" lon="9.1322584"><ele>619.0</ele><time>2026-04-09T10:21:46.525Z</time></trkpt><trkpt lat="46.0494935" lon="9.1321415"><ele>621.6666666666666</ele><time>2026-04-09T10:21:47.525Z</time></trkpt><trkpt lat="46.0494644" lon="9.1320332"><ele>624.3333333333334</ele><time>2026-04-09T10:21:48.526Z</time></trkpt><trkpt lat="46.0494194" lon="9.1319365"><ele>627.0</ele><time>2026-04-09T10:21:49.525Z</time></trkpt><trkpt lat="46.0493704" lon="9.1318502"><ele>627.0</ele><time>2026-04-09T10:21:50.525Z</time></trkpt><trkpt lat="46.049337" lon="9.13175"><ele>627.0</ele><time>2026-04-09T10:21:51.526Z</time></trkpt><trkpt lat="46.049329" lon="9.1316469"><ele>627.0</ele><time>2026-04-09T10:21:52.526Z</time></trkpt><trkpt lat="46.0493442" lon="9.1315465"><ele>627.0</ele><time>2026-04-09T10:21:53.525Z</time></trkpt><trkpt lat="46.0493738" lon="9.1314385"><ele>627.0</ele><time>2026-04-09T10:21:54.524Z</time></trkpt><trkpt lat="46.0494096" lon="9.1313238"><ele>627.0</ele><time>2026-04-09T10:21:55.525Z</time></trkpt><trkpt lat="46.0494195" lon="9.1312"><ele>629.4</ele><time>2026-04-09T10:21:56.526Z</time></trkpt><trkpt lat="46.0494067" lon="9.1310812"><ele>631.8000000000001</ele><time>2026-04-09T10:21:57.526Z</time></trkpt><trkpt lat="46.0493798" lon="9.1309639"><ele>634.2</ele><time>2026-04-09T10:21:58.525Z</time></trkpt><trkpt lat="46.0493461" lon="9.1308292"><ele>636.6</ele><time>2026-04-09T10:21:59.525Z</time></trkpt><trkpt lat="46.0493091" lon="9.1306979"><ele>639.0</ele><time>2026-04-09T10:22:00.524Z</time></trkpt><trkpt lat="46.0492716" lon="9.1305624"><ele>641.0</ele><time>2026-04-09T10:22:01.525Z</time></trkpt><trkpt lat="46.0492441" lon="9.1304281"><ele>643.0</ele><time>2026-04-09T10:22:02.525Z</time></trkpt><trkpt lat="46.0492346" lon="9.1302967"><ele>645.0</ele><time>2026-04-09T10:22:03.526Z</time></trkpt><trkpt lat="46.0492363" lon="9.1301667"><ele>647.0</ele><time>2026-04-09T10:22:04.526Z</time></trkpt><trkpt lat="46.0492424" lon="9.130035"><ele>649.0</ele><time>2026-04-09T10:22:05.526Z</time></trkpt><trkpt lat="46.0492427" lon="9.1298952"><ele>650.6</ele><time>2026-04-09T10:22:06.525Z</time></trkpt><trkpt lat="46.0492131" lon="9.1297546"><ele>652.2</ele><time>2026-04-09T10:22:07.526Z</time></trkpt><trkpt lat="46.049193" lon="9.129611"><ele>653.8000000000001</ele><time>2026-04-09T10:22:08.525Z</time></trkpt><trkpt lat="46.0491758" lon="9.1294614"><ele>655.4000000000001</ele><time>2026-04-09T10:22:09.525Z</time></trkpt><trkpt lat="46.0491711" lon="9.1293131"><ele>657.0</ele><time>2026-04-09T10:22:10.525Z</time></trkpt><trkpt lat="46.0491628" lon="9.1291573"><ele>661.0</ele><time>2026-04-09T10:22:11.525Z</time></trkpt><trkpt lat="46.0491423" lon="9.1290031"><ele>665.0</ele><time>2026-04-09T10:22:12.525Z</time></trkpt><trkpt lat="46.0491183" lon="9.1288463"><ele>669.0</ele><time>2026-04-09T10:22:13.525Z</time></trkpt><trkpt lat="46.0490964" lon="9.1286825"><ele>673.0</ele><time>2026-04-09T10:22:14.525Z</time></trkpt><trkpt lat="46.0490838" lon="9.1285141"><ele>669.4</ele><time>2026-04-09T10:22:15.525Z</time></trkpt><trkpt lat="46.0490704" lon="9.1283525"><ele>665.8</ele><time>2026-04-09T10:22:16.525Z</time></trkpt><trkpt lat="46.0490845" lon="9.128193"><ele>662.2</ele><time>2026-04-09T10:22:17.525Z</time></trkpt><trkpt lat="46.0490832" lon="9.1280347"><ele>658.6</ele><time>2026-04-09T10:22:18.524Z</time></trkpt><trkpt lat="46.0490603" lon="9.1278832"><ele>655.0</ele><time>2026-04-09T10:22:19.524Z</time></trkpt><trkpt lat="46.0490193" lon="9.1277286"><ele>655.0</ele><time>2026-04-09T10:22:20.526Z</time></trkpt><trkpt lat="46.0489725" lon="9.1275765"><ele>655.0</ele><time>2026-04-09T10:22:21.524Z</time></trkpt><trkpt lat="46.0489144" lon="9.1274233"><ele>655.0</ele><time>2026-04-09T10:22:22.525Z</time></trkpt><trkpt lat="46.0488546" lon="9.1272775"><ele>655.0</ele><time>2026-04-09T10:22:23.526Z</time></trkpt><trkpt lat="46.0487862" lon="9.1271469"><ele>660.5</ele><time>2026-04-09T10:22:24.525Z</time></trkpt><trkpt lat="46.0487111" lon="9.1270211"><ele>666.0</ele><time>2026-04-09T10:22:25.526Z</time></trkpt><trkpt lat="46.0486291" lon="9.126909"><ele>671.5</ele><time>2026-04-09T10:22:26.526Z</time></trkpt><trkpt lat="46.0485389" lon="9.1268003"><ele>677.0</ele><time>2026-04-09T10:22:27.525Z</time></trkpt><trkpt lat="46.0484489" lon="9.1266812"><ele>677.25</ele><time>2026-04-09T10:22:28.525Z</time></trkpt><trkpt lat="46.0483639" lon="9.1265492"><ele>677.5</ele><time>2026-04-09T10:22:29.525Z</time></trkpt><trkpt lat="46.0482878" lon="9.1264089"><ele>677.75</ele><time>2026-04-09T10:22:30.526Z</time></trkpt><trkpt lat="46.048217" lon="9.1262639"><ele>678.0</ele><time>2026-04-09T10:22:31.524Z</time></trkpt><trkpt lat="46.0481449" lon="9.126121"><ele>678.0</ele><time>2026-04-09T10:22:32.525Z</time></trkpt><trkpt lat="46.0480679" lon="9.1259803"><ele>678.0</ele><time>2026-04-09T10:22:33.525Z</time></trkpt><trkpt lat="46.0479883" lon="9.1258492"><ele>678.0</ele><time>2026-04-09T10:22:34.526Z</time></trkpt><trkpt lat="46.0479029" lon="9.1257311"><ele>678.0</ele><time>2026-04-09T10:22:35.526Z</time></trkpt><trkpt lat="46.0478094" lon="9.1256233"><ele>682.8</ele><time>2026-04-09T10:22:36.525Z</time></trkpt><trkpt lat="46.0477221" lon="9.125523"><ele>687.5999999999999</ele><time>2026-04-09T10:22:37.526Z</time></trkpt><trkpt lat="46.0476518" lon="9.1254276"><ele>692.4000000000001</ele><time>2026-04-09T10:22:38.525Z</time></trkpt><trkpt lat="46.047596" lon="9.1253222"><ele>697.2</ele><time>2026-04-09T10:22:39.526Z</time></trkpt><trkpt lat="46.0475441" lon="9.1252108"><ele>702.0</ele><time>2026-04-09T10:22:40.526Z</time></trkpt><trkpt lat="46.0474918" lon="9.125087"><ele>695.6</ele><time>2026-04-09T10:22:41.524Z</time></trkpt><trkpt lat="46.0474363" lon="9.1249581"><ele>689.2</ele><time>2026-04-09T10:22:42.525Z</time></trkpt><trkpt lat="46.0473764" lon="9.1248227"><ele>682.8</ele><time>2026-04-09T10:22:43.525Z</time></trkpt><trkpt lat="46.0473209" lon="9.1246833"><ele>676.4</ele><time>2026-04-09T10:22:44.525Z</time></trkpt><trkpt lat="46.0472648" lon="9.1245319"><ele>670.0</ele><time>2026-04-09T10:22:45.525Z</time></trkpt><trkpt lat="46.0472175" lon="9.124371"><ele>670.0</ele><time>2026-04-09T10:22:46.525Z</time></trkpt><trkpt lat="46.0471773" lon="9.1242059"><ele>670.0</ele><time>2026-04-09T10:22:47.526Z</time></trkpt><trkpt lat="46.0471417" lon="9.1240425"><ele>670.0</ele><time>2026-04-09T10:22:48.525Z</time></trkpt><trkpt lat="46.047107" lon="9.1238812"><ele>670.0</ele><time>2026-04-09T10:22:49.526Z</time></trkpt><trkpt lat="46.0470665" lon="9.1237296"><ele>674.2</ele><time>2026-04-09T10:22:50.525Z</time></trkpt><trkpt lat="46.0470297" lon="9.123586"><ele>678.4</ele><time>2026-04-09T10:22:51.526Z</time></trkpt><trkpt lat="46.0470069" lon="9.1234441"><ele>682.5999999999999</ele><time>2026-04-09T10:22:52.525Z</time></trkpt><trkpt lat="46.0469997" lon="9.1233026"><ele>686.8</ele><time>2026-04-09T10:22:53.525Z</time></trkpt><trkpt lat="46.0470105" lon="9.1231646"><ele>691.0</ele><time>2026-04-09T10:22:54.524Z</time></trkpt><trkpt lat="46.0470288" lon="9.1230212"><ele>692.0</ele><time>2026-04-09T10:22:55.525Z</time></trkpt><trkpt lat="46.047058" lon="9.1228688"><ele>693.0</ele><time>2026-04-09T10:22:56.526Z</time></trkpt><trkpt lat="46.0471027" lon="9.122713"><ele>694.0</ele><time>2026-04-09T10:22:57.524Z</time></trkpt><trkpt lat="46.0471543" lon="9.1225505"><ele>695.0</ele><time>2026-04-09T10:22:58.526Z</time></trkpt><trkpt lat="46.0472109" lon="9.1223808"><ele>695.0</ele><time>2026-04-09T10:22:59.526Z</time></trkpt><trkpt lat="46.0472633" lon="9.1222197"><ele>695.0</ele><time>2026-04-09T10:23:00.525Z</time></trkpt><trkpt lat="46.0473173" lon="9.1220543"><ele>695.0</ele><time>2026-04-09T10:23:01.526Z</time></trkpt><trkpt lat="46.0473685" lon="9.1218876"><ele>695.0</ele><time>2026-04-09T10:23:02.526Z</time></trkpt><trkpt lat="46.0474139" lon="9.1217213"><ele>692.4</ele><time>2026-04-09T10:23:03.525Z</time></trkpt><trkpt lat="46.0474531" lon="9.1215638"><ele>689.8</ele><time>2026-04-09T10:23:04.525Z</time></trkpt><trkpt lat="46.0474868" lon="9.1214098"><ele>687.2</ele><time>2026-04-09T10:23:05.525Z</time></trkpt><trkpt lat="46.0475241" lon="9.1212619"><ele>684.6</ele><time>2026-04-09T10:23:06.524Z</time></trkpt><trkpt lat="46.0475669" lon="9.1211217"><ele>682.0</ele><time>2026-04-09T10:23:07.525Z</time></trkpt><trkpt lat="46.0476025" lon="9.1209725"><ele>684.5</ele><time>2026-04-09T10:23:08.525Z</time></trkpt><trkpt lat="46.0476486" lon="9.1208253"><ele>687.0</ele><time>2026-04-09T10:23:09.525Z</time></trkpt><trkpt lat="46.0477103" lon="9.1206853"><ele>689.5</ele><time>2026-04-09T10:23:10.525Z</time></trkpt><trkpt lat="46.0477812" lon="9.1205518"><ele>692.0</ele><time>2026-04-09T10:23:11.526Z</time></trkpt><trkpt lat="46.0478546" lon="9.1204185"><ele>692.0</ele><time>2026-04-09T10:23:12.525Z</time></trkpt><trkpt lat="46.0479276" lon="9.1202846"><ele>692.0</ele><time>2026-04-09T10:23:13.525Z</time></trkpt><trkpt lat="46.0480011" lon="9.1201494"><ele>692.0</ele><time>2026-04-09T10:23:14.525Z</time></trkpt><trkpt lat="46.0480709" lon="9.1200214"><ele>692.0</ele><time>2026-04-09T10:23:15.526Z</time></trkpt><trkpt lat="46.0481306" lon="9.1199094"><ele>692.0</ele><time>2026-04-09T10:23:16.525Z</time></trkpt><trkpt lat="46.0481873" lon="9.1198271"><ele>695.6666666666666</ele><time>2026-04-09T10:23:17.525Z</time></trkpt><trkpt lat="46.0482496" lon="9.119772"><ele>699.3333333333333</ele><time>2026-04-09T10:23:18.525Z</time></trkpt><trkpt lat="46.048324" lon="9.1197489"><ele>703.0</ele><time>2026-04-09T10:23:19.524Z</time></trkpt><trkpt lat="46.048401" lon="9.1197354"><ele>706.6666666666666</ele><time>2026-04-09T10:23:20.525Z</time></trkpt><trkpt lat="46.0484747" lon="9.1196855"><ele>710.3333333333334</ele><time>2026-04-09T10:23:21.526Z</time></trkpt><trkpt lat="46.0485406" lon="9.1196024"><ele>714.0</ele><time>2026-04-09T10:23:22.525Z</time></trkpt><trkpt lat="46.0486073" lon="9.1195115"><ele>714.0</ele><time>2026-04-09T10:23:23.525Z</time></trkpt><trkpt lat="46.0486829" lon="9.1194078"><ele>714.0</ele><time>2026-04-09T10:23:24.525Z</time></trkpt><trkpt lat="46.0487621" lon="9.1192959"><ele>714.0</ele><time>2026-04-09T10:23:25.525Z</time></trkpt><trkpt lat="46.0488404" lon="9.1191755"><ele>714.0</ele><time>2026-04-09T10:23:26.525Z</time></trkpt><trkpt lat="46.0489162" lon="9.1190518"><ele>714.0</ele><time>2026-04-09T10:23:27.525Z</time></trkpt><trkpt lat="46.0489977" lon="9.118929"><ele>717.0</ele><time>2026-04-09T10:23:28.525Z</time></trkpt><trkpt lat="46.049084" lon="9.1188192"><ele>720.0</ele><time>2026-04-09T10:23:29.526Z</time></trkpt><trkpt lat="46.0491723" lon="9.1187176"><ele>723.0</ele><time>2026-04-09T10:23:30.525Z</time></trkpt><trkpt lat="46.0492495" lon="9.1186192"><ele>726.0</ele><time>2026-04-09T10:23:31.525Z</time></trkpt><trkpt lat="46.0493157" lon="9.1185126"><ele>729.0</ele><time>2026-04-09T10:23:32.525Z</time></trkpt><trkpt lat="46.0493644" lon="9.1184161"><ele>729.0</ele><time>2026-04-09T10:23:33.524Z</time></trkpt><trkpt lat="46.0494147" lon="9.1183477"><ele>729.0</ele><time>2026-04-09T10:23:34.524Z</time></trkpt><trkpt lat="46.0494814" lon="9.1183088"><ele>729.0</ele><time>2026-04-09T10:23:35.523Z</time></trkpt><trkpt lat="46.0495595" lon="9.1182958"><ele>729.0</ele><time>2026-04-09T10:23:36.525Z</time></trkpt><trkpt lat="46.0496475" lon="9.1182986"><ele>729.0</ele><time>2026-04-09T10:23:37.525Z</time></trkpt><trkpt lat="46.0497446" lon="9.1183105"><ele>729.0</ele><time>2026-04-09T10:23:38.525Z</time></trkpt><trkpt lat="46.0498471" lon="9.1183104"><ele>729.0</ele><time>2026-04-09T10:23:39.525Z</time></trkpt><trkpt lat="46.0499551" lon="9.1182898"><ele>729.0</ele><time>2026-04-09T10:23:40.525Z</time></trkpt><trkpt lat="46.0500615" lon="9.118255"><ele>729.0</ele><time>2026-04-09T10:23:41.524Z</time></trkpt><trkpt lat="46.0501759" lon="9.1182196"><ele>729.0</ele><time>2026-04-09T10:23:42.525Z</time></trkpt><trkpt lat="46.0502868" lon="9.1181788"><ele>729.0</ele><time>2026-04-09T10:23:43.523Z</time></trkpt><trkpt lat="46.0504018" lon="9.1181447"><ele>728.6</ele><time>2026-04-09T10:23:44.524Z</time></trkpt><trkpt lat="46.0505224" lon="9.1181288"><ele>728.2</ele><time>2026-04-09T10:23:45.524Z</time></trkpt><trkpt lat="46.0506312" lon="9.1181251"><ele>727.8000000000001</ele><time>2026-04-09T10:23:46.525Z</time></trkpt><trkpt lat="46.0507317" lon="9.118111"><ele>727.4000000000001</ele><time>2026-04-09T10:23:47.525Z</time></trkpt><trkpt lat="46.0508353" lon="9.1180722"><ele>727.0</ele><time>2026-04-09T10:23:48.524Z</time></trkpt><trkpt lat="46.0509161" lon="9.1180144"><ele>730.4000000000001</ele><time>2026-04-09T10:23:49.524Z</time></trkpt><trkpt lat="46.0510089" lon="9.1179523"><ele>733.8000000000001</ele><time>2026-04-09T10:23:50.524Z</time></trkpt><trkpt lat="46.0511" lon="9.1179134"><ele>737.2</ele><time>2026-04-09T10:23:51.524Z</time></trkpt><trkpt lat="46.0511977" lon="9.1178824"><ele>740.6</ele><time>2026-04-09T10:23:52.525Z</time></trkpt><trkpt lat="46.0512981" lon="9.1178606"><ele>744.0</ele><time>2026-04-09T10:23:53.524Z</time></trkpt><trkpt lat="46.0513986" lon="9.1178571"><ele>744.0</ele><time>2026-04-09T10:23:54.525Z</time></trkpt><trkpt lat="46.0515006" lon="9.1178708"><ele>744.0</ele><time>2026-04-09T10:23:55.525Z</time></trkpt><trkpt lat="46.0516002" lon="9.117899"><ele>744.0</ele><time>2026-04-09T10:23:56.524Z</time></trkpt><trkpt lat="46.0516975" lon="9.1179155"><ele>744.0</ele><time>2026-04-09T10:23:57.523Z</time></trkpt><trkpt lat="46.0517903" lon="9.1178886"><ele>744.0</ele><time>2026-04-09T10:23:58.525Z</time></trkpt><trkpt lat="46.0518759" lon="9.1178283"><ele>747.1666666666666</ele><time>2026-04-09T10:23:59.524Z</time></trkpt><trkpt lat="46.0519582" lon="9.1177607"><ele>750.3333333333334</ele><time>2026-04-09T10:24:00.524Z</time></trkpt><trkpt lat="46.0520397" lon="9.1176972"><ele>753.5</ele><time>2026-04-09T10:24:01.523Z</time></trkpt><trkpt lat="46.0521191" lon="9.1176487"><ele>756.6666666666667</ele><time>2026-04-09T10:24:02.524Z</time></trkpt><trkpt lat="46.0521928" lon="9.1176369"><ele>759.8333333333334</ele><time>2026-04-09T10:24:03.524Z</time></trkpt><trkpt lat="46.0522592" lon="9.1176685"><ele>763.0</ele><time>2026-04-09T10:24:04.524Z</time></trkpt><trkpt lat="46.0523112" lon="9.1177366"><ele>763.0</ele><time>2026-04-09T10:24:05.524Z</time></trkpt><trkpt lat="46.0523683" lon="9.1178287"><ele>763.0</ele><time>2026-04-09T10:24:06.525Z</time></trkpt><trkpt lat="46.0524333" lon="9.11793"><ele>763.0</ele><time>2026-04-09T10:24:07.524Z</time></trkpt><trkpt lat="46.0525026" lon="9.1180397"><ele>763.0</ele><time>2026-04-09T10:24:08.524Z</time></trkpt><trkpt lat="46.052574" lon="9.1181596"><ele>763.0</ele><time>2026-04-09T10:24:09.524Z</time></trkpt><trkpt lat="46.0526576" lon="9.1182751"><ele>767.5</ele><time>2026-04-09T10:24:10.524Z</time></trkpt><trkpt lat="46.0527506" lon="9.1183824"><ele>772.0</ele><time>2026-04-09T10:24:11.524Z</time></trkpt><trkpt lat="46.0528492" lon="9.1184889"><ele>776.5</ele><time>2026-04-09T10:24:12.524Z</time></trkpt><trkpt lat="46.0529494" lon="9.118593"><ele>781.0</ele><time>2026-04-09T10:24:13.525Z</time></trkpt><trkpt lat="46.0530564" lon="9.1186839"><ele>781.0</ele><time>2026-04-09T10:24:14.525Z</time></trkpt><trkpt lat="46.0531677" lon="9.1187604"><ele>781.0</ele><time>2026-04-09T10:24:15.524Z</time></trkpt><trkpt lat="46.0532819" lon="9.1188325"><ele>781.0</ele><time>2026-04-09T10:24:16.525Z</time></trkpt><trkpt lat="46.0533873" lon="9.1188981"><ele>781.0</ele><time>2026-04-09T10:24:17.524Z</time></trkpt><trkpt lat="46.053479" lon="9.1189551"><ele>779.9999999999999</ele><time>2026-04-09T10:24:18.524Z</time></trkpt><trkpt lat="46.0535501" lon="9.1190233"><ele>779.0</ele><time>2026-04-09T10:24:19.524Z</time></trkpt><trkpt lat="46.0536024" lon="9.1191115"><ele>778.0</ele><time>2026-04-09T10:24:20.523Z</time></trkpt><trkpt lat="46.0536274" lon="9.1192211"><ele>777.0</ele><time>2026-04-09T10:24:21.524Z</time></trkpt><trkpt lat="46.0536475" lon="9.1193522"><ele>775.9999999999999</ele><time>2026-04-09T10:24:22.523Z</time></trkpt><trkpt lat="46.0536504" lon="9.1194874"><ele>775.0</ele><time>2026-04-09T10:24:23.524Z</time></trkpt><trkpt lat="46.0536627" lon="9.1196355"><ele>779.4</ele><time>2026-04-09T10:24:24.525Z</time></trkpt><trkpt lat="46.0536834" lon="9.1197647"><ele>783.8</ele><time>2026-04-09T10:24:25.525Z</time></trkpt><trkpt lat="46.0537095" lon="9.119888"><ele>788.2</ele><time>2026-04-09T10:24:26.524Z</time></trkpt><trkpt lat="46.0537622" lon="9.1199762"><ele>792.6</ele><time>2026-04-09T10:24:27.524Z</time></trkpt><trkpt lat="46.0538316" lon="9.1200132"><ele>797.0</ele><time>2026-04-09T10:24:28.525Z</time></trkpt><trkpt lat="46.0539654" lon="9.1200024"><ele>795.8</ele><time>2026-04-09T10:24:29.524Z</time></trkpt><trkpt lat="46.0540647" lon="9.119991"><ele>794.6</ele><time>2026-04-09T10:24:30.525Z</time></trkpt><trkpt lat="46.0541665" lon="9.1199648"><ele>793.4</ele><time>2026-04-09T10:24:31.525Z</time></trkpt><trkpt lat="46.0542805" lon="9.1199363"><ele>792.1999999999999</ele><time>2026-04-09T10:24:32.525Z</time></trkpt><trkpt lat="46.054399" lon="9.1198932"><ele>791.0</ele><time>2026-04-09T10:24:33.524Z</time></trkpt><trkpt lat="46.0545247" lon="9.1198508"><ele>791.0</ele><time>2026-04-09T10:24:34.525Z</time></trkpt><trkpt lat="46.0546481" lon="9.1198104"><ele>791.0</ele><time>2026-04-09T10:24:35.525Z</time></trkpt><trkpt lat="46.0547662" lon="9.1197557"><ele>791.0</ele><time>2026-04-09T10:24:36.524Z</time></trkpt><trkpt lat="46.0548752" lon="9.1196857"><ele>791.0</ele><time>2026-04-09T10:24:37.523Z</time></trkpt><trkpt lat="46.0549823" lon="9.1196042"><ele>794.5</ele><time>2026-04-09T10:24:38.525Z</time></trkpt><trkpt lat="46.0550948" lon="9.1195163"><ele>798.0</ele><time>2026-04-09T10:24:39.524Z</time></trkpt><trkpt lat="46.0552119" lon="9.1194366"><ele>801.5</ele><time>2026-04-09T10:24:40.525Z</time></trkpt><trkpt lat="46.0553282" lon="9.1193688"><ele>805.0</ele><time>2026-04-09T10:24:41.524Z</time></trkpt><trkpt lat="46.055425" lon="9.1193133"><ele>804.9999999999999</ele><time>2026-04-09T10:24:42.525Z</time></trkpt><trkpt lat="46.0554943" lon="9.1192728"><ele>805.0</ele><time>2026-04-09T10:24:43.524Z</time></trkpt><trkpt lat="46.0555723" lon="9.1193121"><ele>805.0</ele><time>2026-04-09T10:24:45.524Z</time></trkpt><trkpt lat="46.0555254" lon="9.1193897"><ele>805.0</ele><time>2026-04-09T10:24:47.524Z</time></trkpt><trkpt lat="46.0554564" lon="9.1194188"><ele>804.9999999999999</ele><time>2026-04-09T10:24:48.523Z</time></trkpt><trkpt lat="46.0553709" lon="9.1194624"><ele>805.0</ele><time>2026-04-09T10:24:49.525Z</time></trkpt><trkpt lat="46.0552928" lon="9.1195319"><ele>805.0</ele><time>2026-04-09T10:24:50.524Z</time></trkpt><trkpt lat="46.0552112" lon="9.1196275"><ele>805.0</ele><time>2026-04-09T10:24:51.524Z</time></trkpt><trkpt lat="46.0551277" lon="9.1197462"><ele>805.0</ele><time>2026-04-09T10:24:52.525Z</time></trkpt><trkpt lat="46.0550457" lon="9.1198789"><ele>805.0</ele><time>2026-04-09T10:24:53.525Z</time></trkpt><trkpt lat="46.0549537" lon="9.1200056"><ele>808.25</ele><time>2026-04-09T10:24:54.525Z</time></trkpt><trkpt lat="46.0548546" lon="9.120128"><ele>811.5</ele><time>2026-04-09T10:24:55.524Z</time></trkpt><trkpt lat="46.054752" lon="9.1202418"><ele>814.75</ele><time>2026-04-09T10:24:56.525Z</time></trkpt><trkpt lat="46.0546473" lon="9.1203289"><ele>818.0</ele><time>2026-04-09T10:24:57.524Z</time></trkpt><trkpt lat="46.0545392" lon="9.120399"><ele>818.0000000000001</ele><time>2026-04-09T10:24:58.524Z</time></trkpt><trkpt lat="46.0544409" lon="9.1204639"><ele>818.0</ele><time>2026-04-09T10:24:59.524Z</time></trkpt><trkpt lat="46.0543585" lon="9.1205253"><ele>818.0</ele><time>2026-04-09T10:25:00.525Z</time></trkpt><trkpt lat="46.0542881" lon="9.1205701"><ele>818.0</ele><time>2026-04-09T10:25:01.524Z</time></trkpt><trkpt lat="46.0542307" lon="9.1206213"><ele>818.0000000000001</ele><time>2026-04-09T10:25:02.524Z</time></trkpt><trkpt lat="46.0541804" lon="9.1207365"><ele>818.0</ele><time>2026-04-09T10:25:04.524Z</time></trkpt><trkpt lat="46.0543536" lon="9.1206755"><ele>818.0</ele><time>2026-04-09T10:25:07.524Z</time></trkpt><trkpt lat="46.0544544" lon="9.1206354"><ele>818.0</ele><time>2026-04-09T10:25:08.524Z</time></trkpt><trkpt lat="46.054558" lon="9.1205911"><ele>818.0</ele><time>2026-04-09T10:25:09.525Z</time></trkpt><trkpt lat="46.0546623" lon="9.1205429"><ele>818.0</ele><time>2026-04-09T10:25:10.524Z</time></trkpt><trkpt lat="46.0547766" lon="9.1204868"><ele>818.0</ele><time>2026-04-09T10:25:11.524Z</time></trkpt><trkpt lat="46.0548956" lon="9.1204257"><ele>822.5</ele><time>2026-04-09T10:25:12.524Z</time></trkpt><trkpt lat="46.055014" lon="9.1203595"><ele>827.0</ele><time>2026-04-09T10:25:13.523Z</time></trkpt><trkpt lat="46.0551328" lon="9.1202863"><ele>831.5</ele><time>2026-04-09T10:25:14.524Z</time></trkpt><trkpt lat="46.0552546" lon="9.120213"><ele>836.0</ele><time>2026-04-09T10:25:15.525Z</time></trkpt><trkpt lat="46.0553762" lon="9.1201488"><ele>836.0000000000001</ele><time>2026-04-09T10:25:16.524Z</time></trkpt><trkpt lat="46.0554901" lon="9.120087"><ele>836.0</ele><time>2026-04-09T10:25:17.524Z</time></trkpt><trkpt lat="46.0555818" lon="9.1200343"><ele>836.0</ele><time>2026-04-09T10:25:18.524Z</time></trkpt><trkpt lat="46.0556663" lon="9.1200206"><ele>836.0</ele><time>2026-04-09T10:25:19.523Z</time></trkpt><trkpt lat="46.0557346" lon="9.1200376"><ele>836.0000000000001</ele><time>2026-04-09T10:25:20.523Z</time></trkpt><trkpt lat="46.0558051" lon="9.1200636"><ele>836.0</ele><time>2026-04-09T10:25:21.523Z</time></trkpt><trkpt lat="46.0558765" lon="9.1200351"><ele>835.1999999999999</ele><time>2026-04-09T10:25:22.524Z</time></trkpt><trkpt lat="46.0559464" lon="9.1199742"><ele>834.4</ele><time>2026-04-09T10:25:23.524Z</time></trkpt><trkpt lat="46.0560187" lon="9.1198899"><ele>833.6</ele><time>2026-04-09T10:25:24.524Z</time></trkpt><trkpt lat="46.0560707" lon="9.1197898"><ele>832.8</ele><time>2026-04-09T10:25:25.522Z</time></trkpt><trkpt lat="46.0560972" lon="9.1196888"><ele>832.0</ele><time>2026-04-09T10:25:26.524Z</time></trkpt><trkpt lat="46.0561989" lon="9.1195835"><ele>831.9999999999999</ele><time>2026-04-09T10:25:28.522Z</time></trkpt><trkpt lat="46.0562698" lon="9.1195944"><ele>832.0</ele><time>2026-04-09T10:25:29.523Z</time></trkpt><trkpt lat="46.056349" lon="9.1196274"><ele>832.0</ele><time>2026-04-09T10:25:30.523Z</time></trkpt><trkpt lat="46.0564298" lon="9.1196632"><ele>832.0</ele><time>2026-04-09T10:25:31.524Z</time></trkpt><trkpt lat="46.0565158" lon="9.1196605"><ele>831.9999999999999</ele><time>2026-04-09T10:25:32.523Z</time></trkpt><trkpt lat="46.0566048" lon="9.1196231"><ele>832.0</ele><time>2026-04-09T10:25:33.523Z</time></trkpt><trkpt lat="46.0566967" lon="9.1195903"><ele>835.4000000000001</ele><time>2026-04-09T10:25:34.524Z</time></trkpt><trkpt lat="46.0567915" lon="9.1195937"><ele>838.8000000000001</ele><time>2026-04-09T10:25:35.523Z</time></trkpt><trkpt lat="46.056885" lon="9.1195955"><ele>842.2</ele><time>2026-04-09T10:25:36.523Z</time></trkpt><trkpt lat="46.0569809" lon="9.1195666"><ele>845.6</ele><time>2026-04-09T10:25:37.522Z</time></trkpt><trkpt lat="46.0570746" lon="9.1195269"><ele>849.0</ele><time>2026-04-09T10:25:38.522Z</time></trkpt><trkpt lat="46.0571806" lon="9.1194928"><ele>849.0</ele><time>2026-04-09T10:25:39.524Z</time></trkpt><trkpt lat="46.057286" lon="9.1194499"><ele>849.0</ele><time>2026-04-09T10:25:40.523Z</time></trkpt><trkpt lat="46.0573883" lon="9.1193786"><ele>849.0</ele><time>2026-04-09T10:25:41.523Z</time></trkpt><trkpt lat="46.0574902" lon="9.1192964"><ele>849.0</ele><time>2026-04-09T10:25:42.523Z</time></trkpt><trkpt lat="46.0575969" lon="9.1192096"><ele>848.0</ele><time>2026-04-09T10:25:43.523Z</time></trkpt><trkpt lat="46.0577083" lon="9.1191137"><ele>847.0</ele><time>2026-04-09T10:25:44.524Z</time></trkpt><trkpt lat="46.057821" lon="9.1190171"><ele>846.0</ele><time>2026-04-09T10:25:45.524Z</time></trkpt><trkpt lat="46.0579374" lon="9.1189133"><ele>845.0</ele><time>2026-04-09T10:25:46.524Z</time></trkpt><trkpt lat="46.0580469" lon="9.1188192"><ele>845.0</ele><time>2026-04-09T10:25:47.524Z</time></trkpt><trkpt lat="46.0581599" lon="9.1187464"><ele>845.0</ele><time>2026-04-09T10:25:48.523Z</time></trkpt><trkpt lat="46.0582806" lon="9.1187005"><ele>845.0</ele><time>2026-04-09T10:25:49.523Z</time></trkpt><trkpt lat="46.0584046" lon="9.1186645"><ele>845.0</ele><time>2026-04-09T10:25:50.523Z</time></trkpt><trkpt lat="46.0585296" lon="9.1186321"><ele>852.5</ele><time>2026-04-09T10:25:51.523Z</time></trkpt><trkpt lat="46.058661" lon="9.1186001"><ele>860.0</ele><time>2026-04-09T10:25:52.522Z</time></trkpt><trkpt lat="46.0587918" lon="9.1185627"><ele>867.5</ele><time>2026-04-09T10:25:53.523Z</time></trkpt><trkpt lat="46.058929" lon="9.1185243"><ele>875.0</ele><time>2026-04-09T10:25:54.523Z</time></trkpt><trkpt lat="46.0590662" lon="9.1184864"><ele>878.75</ele><time>2026-04-09T10:25:55.523Z</time></trkpt><trkpt lat="46.0592018" lon="9.1184575"><ele>882.5</ele><time>2026-04-09T10:25:56.523Z</time></trkpt><trkpt lat="46.0593293" lon="9.1184296"><ele>886.25</ele><time>2026-04-09T10:25:57.524Z</time></trkpt><trkpt lat="46.0594457" lon="9.1184041"><ele>890.0</ele><time>2026-04-09T10:25:58.523Z</time></trkpt><trkpt lat="46.0595428" lon="9.1183745"><ele>890.0</ele><time>2026-04-09T10:25:59.524Z</time></trkpt><trkpt lat="46.0596294" lon="9.1183326"><ele>890.0</ele><time>2026-04-09T10:26:00.523Z</time></trkpt><trkpt lat="46.0597208" lon="9.1182723"><ele>890.0</ele><time>2026-04-09T10:26:01.523Z</time></trkpt><trkpt lat="46.0598136" lon="9.1182047"><ele>890.0</ele><time>2026-04-09T10:26:02.523Z</time></trkpt><trkpt lat="46.0599063" lon="9.1181272"><ele>890.0</ele><time>2026-04-09T10:26:03.523Z</time></trkpt><trkpt lat="46.0600039" lon="9.1180502"><ele>888.3333333333334</ele><time>2026-04-09T10:26:04.523Z</time></trkpt><trkpt lat="46.0600995" lon="9.1179841"><ele>886.6666666666667</ele><time>2026-04-09T10:26:05.523Z</time></trkpt><trkpt lat="46.0601877" lon="9.1179452"><ele>885.0</ele><time>2026-04-09T10:26:06.524Z</time></trkpt><trkpt lat="46.0602766" lon="9.1179367"><ele>883.3333333333333</ele><time>2026-04-09T10:26:07.524Z</time></trkpt><trkpt lat="46.0603514" lon="9.1179677"><ele>881.6666666666666</ele><time>2026-04-09T10:26:08.523Z</time></trkpt><trkpt lat="46.0604056" lon="9.1180412"><ele>880.0</ele><time>2026-04-09T10:26:09.523Z</time></trkpt><trkpt lat="46.0604537" lon="9.1181253"><ele>879.9999999999999</ele><time>2026-04-09T10:26:10.523Z</time></trkpt><trkpt lat="46.0605184" lon="9.1181977"><ele>880.0</ele><time>2026-04-09T10:26:11.523Z</time></trkpt><trkpt lat="46.0605988" lon="9.1182102"><ele>880.0</ele><time>2026-04-09T10:26:12.523Z</time></trkpt><trkpt lat="46.0606846" lon="9.1181889"><ele>880.0</ele><time>2026-04-09T10:26:13.523Z</time></trkpt><trkpt lat="46.0607726" lon="9.1181631"><ele>879.9999999999999</ele><time>2026-04-09T10:26:14.524Z</time></trkpt><trkpt lat="46.0608687" lon="9.1181565"><ele>880.0</ele><time>2026-04-09T10:26:15.523Z</time></trkpt><trkpt lat="46.0609634" lon="9.1181409"><ele>881.8</ele><time>2026-04-09T10:26:16.523Z</time></trkpt><trkpt lat="46.0610587" lon="9.1180887"><ele>883.6</ele><time>2026-04-09T10:26:17.523Z</time></trkpt><trkpt lat="46.0611442" lon="9.1179921"><ele>885.4000000000001</ele><time>2026-04-09T10:26:18.524Z</time></trkpt><trkpt lat="46.0612123" lon="9.1178694"><ele>887.2</ele><time>2026-04-09T10:26:19.524Z</time></trkpt><trkpt lat="46.0612971" lon="9.1177764"><ele>889.0</ele><time>2026-04-09T10:26:20.523Z</time></trkpt><trkpt lat="46.0613935" lon="9.1177043"><ele>889.0</ele><time>2026-04-09T10:26:21.523Z</time></trkpt><trkpt lat="46.0614961" lon="9.1176429"><ele>889.0000000000001</ele><time>2026-04-09T10:26:22.523Z</time></trkpt><trkpt lat="46.0615994" lon="9.117589"><ele>889.0000000000001</ele><time>2026-04-09T10:26:23.523Z</time></trkpt><trkpt lat="46.0617041" lon="9.1175362"><ele>889.0</ele><time>2026-04-09T10:26:24.523Z</time></trkpt><trkpt lat="46.0618075" lon="9.117514"><ele>889.0</ele><time>2026-04-09T10:26:25.523Z</time></trkpt><trkpt lat="46.0619144" lon="9.1175264"><ele>892.4000000000001</ele><time>2026-04-09T10:26:26.523Z</time></trkpt><trkpt lat="46.0620235" lon="9.1175445"><ele>895.8000000000001</ele><time>2026-04-09T10:26:27.523Z</time></trkpt><trkpt lat="46.062136" lon="9.1175614"><ele>899.1999999999999</ele><time>2026-04-09T10:26:28.523Z</time></trkpt><trkpt lat="46.0622421" lon="9.1175957"><ele>902.5999999999999</ele><time>2026-04-09T10:26:29.524Z</time></trkpt><trkpt lat="46.0623207" lon="9.1176471"><ele>906.0</ele><time>2026-04-09T10:26:30.522Z</time></trkpt><trkpt lat="46.0623765" lon="9.1177277"><ele>906.0</ele><time>2026-04-09T10:26:31.524Z</time></trkpt><trkpt lat="46.0624097" lon="9.1178494"><ele>905.9999999999999</ele><time>2026-04-09T10:26:32.522Z</time></trkpt><trkpt lat="46.0624163" lon="9.1179815"><ele>905.9999999999999</ele><time>2026-04-09T10:26:33.523Z</time></trkpt><trkpt lat="46.0624035" lon="9.1181348"><ele>906.0</ele><time>2026-04-09T10:26:34.523Z</time></trkpt><trkpt lat="46.0623834" lon="9.1182933"><ele>906.0</ele><time>2026-04-09T10:26:35.524Z</time></trkpt><trkpt lat="46.0623591" lon="9.1184575"><ele>911.8</ele><time>2026-04-09T10:26:36.523Z</time></trkpt><trkpt lat="46.0623315" lon="9.1186185"><ele>917.5999999999999</ele><time>2026-04-09T10:26:37.522Z</time></trkpt><trkpt lat="46.0623192" lon="9.1187711"><ele>923.4</ele><time>2026-04-09T10:26:38.523Z</time></trkpt><trkpt lat="46.0623317" lon="9.1188994"><ele>929.2</ele><time>2026-04-09T10:26:39.524Z</time></trkpt><trkpt lat="46.0623795" lon="9.1190165"><ele>935.0</ele><time>2026-04-09T10:26:40.523Z</time></trkpt><trkpt lat="46.0624539" lon="9.1191103"><ele>935.0</ele><time>2026-04-09T10:26:41.523Z</time></trkpt><trkpt lat="46.0625386" lon="9.1191945"><ele>935.0</ele><time>2026-04-09T10:26:42.524Z</time></trkpt><trkpt lat="46.0626303" lon="9.1192884"><ele>935.0</ele><time>2026-04-09T10:26:43.524Z</time></trkpt><trkpt lat="46.062703" lon="9.1193956"><ele>935.0</ele><time>2026-04-09T10:26:44.523Z</time></trkpt><trkpt lat="46.0627482" lon="9.1195283"><ele>935.0</ele><time>2026-04-09T10:26:45.523Z</time></trkpt><trkpt lat="46.0627864" lon="9.1196751"><ele>935.0</ele><time>2026-04-09T10:26:46.523Z</time></trkpt><trkpt lat="46.0628246" lon="9.1198275"><ele>935.0</ele><time>2026-04-09T10:26:47.522Z</time></trkpt><trkpt lat="46.0628637" lon="9.1199868"><ele>935.0</ele><time>2026-04-09T10:26:48.522Z</time></trkpt><trkpt lat="46.0628976" lon="9.1201413"><ele>935.0</ele><time>2026-04-09T10:26:49.522Z</time></trkpt><trkpt lat="46.0629309" lon="9.1202712"><ele>935.0</ele><time>2026-04-09T10:26:50.523Z</time></trkpt><trkpt lat="46.062976" lon="9.1203758"><ele>940.8</ele><time>2026-04-09T10:26:51.523Z</time></trkpt><trkpt lat="46.0630326" lon="9.1204417"><ele>946.6</ele><time>2026-04-09T10:26:52.524Z</time></trkpt><trkpt lat="46.0630876" lon="9.120507"><ele>952.4000000000001</ele><time>2026-04-09T10:26:53.523Z</time></trkpt><trkpt lat="46.0631851" lon="9.1204981"><ele>958.2</ele><time>2026-04-09T10:26:54.523Z</time></trkpt><trkpt lat="46.0632153" lon="9.1202865"><ele>964.0</ele><time>2026-04-09T10:26:55.523Z</time></trkpt><trkpt lat="46.063246" lon="9.1201699"><ele>964.0</ele><time>2026-04-09T10:26:56.523Z</time></trkpt><trkpt lat="46.0632617" lon="9.1200248"><ele>964.0</ele><time>2026-04-09T10:26:57.523Z</time></trkpt><trkpt lat="46.0632741" lon="9.1198638"><ele>964.0</ele><time>2026-04-09T10:26:58.523Z</time></trkpt><trkpt lat="46.063291" lon="9.1196953"><ele>964.0</ele><time>2026-04-09T10:26:59.523Z</time></trkpt><trkpt lat="46.0633081" lon="9.1195248"><ele>958.8000000000001</ele><time>2026-04-09T10:27:00.523Z</time></trkpt><trkpt lat="46.06334" lon="9.1193707"><ele>953.6000000000001</ele><time>2026-04-09T10:27:01.524Z</time></trkpt><trkpt lat="46.0633823" lon="9.1192382"><ele>948.4</ele><time>2026-04-09T10:27:02.522Z</time></trkpt><trkpt lat="46.0634362" lon="9.1191171"><ele>943.2</ele><time>2026-04-09T10:27:03.522Z</time></trkpt><trkpt lat="46.0635308" lon="9.1190417"><ele>938.0</ele><time>2026-04-09T10:27:04.523Z</time></trkpt><trkpt lat="46.063615" lon="9.1189582"><ele>933.0</ele><time>2026-04-09T10:27:05.522Z</time></trkpt><trkpt lat="46.0637062" lon="9.1188739"><ele>928.0</ele><time>2026-04-09T10:27:06.523Z</time></trkpt><trkpt lat="46.0638104" lon="9.1187884"><ele>923.0</ele><time>2026-04-09T10:27:07.523Z</time></trkpt><trkpt lat="46.0639084" lon="9.1187064"><ele>918.0</ele><time>2026-04-09T10:27:08.523Z</time></trkpt><trkpt lat="46.0639878" lon="9.1186054"><ele>913.0</ele><time>2026-04-09T10:27:09.523Z</time></trkpt><trkpt lat="46.0640408" lon="9.1184787"><ele>913.0</ele><time>2026-04-09T10:27:10.523Z</time></trkpt><trkpt lat="46.0640926" lon="9.1183535"><ele>913.0</ele><time>2026-04-09T10:27:11.523Z</time></trkpt><trkpt lat="46.0641615" lon="9.1182626"><ele>913.0</ele><time>2026-04-09T10:27:12.522Z</time></trkpt><trkpt lat="46.0642502" lon="9.1182366"><ele>913.0</ele><time>2026-04-09T10:27:13.523Z</time></trkpt><trkpt lat="46.0643438" lon="9.1182209"><ele>913.0</ele><time>2026-04-09T10:27:14.523Z</time></trkpt><trkpt lat="46.064444" lon="9.1182046"><ele>914.0</ele><time>2026-04-09T10:27:15.522Z</time></trkpt><trkpt lat="46.0645511" lon="9.118182"><ele>915.0</ele><time>2026-04-09T10:27:16.523Z</time></trkpt><trkpt lat="46.0646577" lon="9.1181537"><ele>916.0</ele><time>2026-04-09T10:27:17.523Z</time></trkpt><trkpt lat="46.0647636" lon="9.1181385"><ele>917.0</ele><time>2026-04-09T10:27:18.521Z</time></trkpt><trkpt lat="46.0648659" lon="9.1181073"><ele>918.0</ele><time>2026-04-09T10:27:19.522Z</time></trkpt><trkpt lat="46.0649613" lon="9.118052"><ele>924.2</ele><time>2026-04-09T10:27:20.522Z</time></trkpt><trkpt lat="46.0650566" lon="9.1179971"><ele>930.4</ele><time>2026-04-09T10:27:21.523Z</time></trkpt><trkpt lat="46.0651575" lon="9.1179585"><ele>936.6000000000001</ele><time>2026-04-09T10:27:22.522Z</time></trkpt><trkpt lat="46.0652508" lon="9.1179367"><ele>942.8000000000001</ele><time>2026-04-09T10:27:23.523Z</time></trkpt><trkpt lat="46.0653312" lon="9.1179454"><ele>949.0</ele><time>2026-04-09T10:27:24.522Z</time></trkpt><trkpt lat="46.0653997" lon="9.1179799"><ele>948.9999999999999</ele><time>2026-04-09T10:27:25.523Z</time></trkpt><trkpt lat="46.0654675" lon="9.1179878"><ele>949.0</ele><time>2026-04-09T10:27:26.522Z</time></trkpt><trkpt lat="46.0655361" lon="9.1179926"><ele>949.0</ele><time>2026-04-09T10:27:27.522Z</time></trkpt><trkpt lat="46.0655722" lon="9.1178691"><ele>949.0</ele><time>2026-04-09T10:27:28.523Z</time></trkpt><trkpt lat="46.0656072" lon="9.1177672"><ele>948.9999999999999</ele><time>2026-04-09T10:27:29.522Z</time></trkpt><trkpt lat="46.0656608" lon="9.117673"><ele>949.0</ele><time>2026-04-09T10:27:30.523Z</time></trkpt><trkpt lat="46.0657331" lon="9.1176171"><ele>952.3333333333333</ele><time>2026-04-09T10:27:31.523Z</time></trkpt><trkpt lat="46.065804" lon="9.1176214"><ele>955.6666666666666</ele><time>2026-04-09T10:27:32.523Z</time></trkpt><trkpt lat="46.0658683" lon="9.1176421"><ele>959.0</ele><time>2026-04-09T10:27:33.522Z</time></trkpt><trkpt lat="46.0659319" lon="9.1178138"><ele>962.3333333333333</ele><time>2026-04-09T10:27:35.522Z</time></trkpt><trkpt lat="46.0659682" lon="9.1179052"><ele>965.6666666666666</ele><time>2026-04-09T10:27:36.522Z</time></trkpt><trkpt lat="46.0660164" lon="9.1179709"><ele>969.0</ele><time>2026-04-09T10:27:37.522Z</time></trkpt><trkpt lat="46.066062" lon="9.1180375"><ele>969.0</ele><time>2026-04-09T10:27:38.523Z</time></trkpt><trkpt lat="46.0661837" lon="9.117877"><ele>969.0000000000001</ele><time>2026-04-09T10:27:40.521Z</time></trkpt><trkpt lat="46.0662531" lon="9.1177828"><ele>969.0000000000001</ele><time>2026-04-09T10:27:41.523Z</time></trkpt><trkpt lat="46.0663285" lon="9.1177107"><ele>969.0</ele><time>2026-04-09T10:27:42.522Z</time></trkpt><trkpt lat="46.0663902" lon="9.1176191"><ele>969.0</ele><time>2026-04-09T10:27:43.522Z</time></trkpt><trkpt lat="46.0664208" lon="9.1175128"><ele>969.0</ele><time>2026-04-09T10:27:44.522Z</time></trkpt><trkpt lat="46.0664369" lon="9.1174034"><ele>969.0</ele><time>2026-04-09T10:27:45.523Z</time></trkpt><trkpt lat="46.0664759" lon="9.117308"><ele>969.0</ele><time>2026-04-09T10:27:46.521Z</time></trkpt><trkpt lat="46.06653" lon="9.1172189"><ele>969.0</ele><time>2026-04-09T10:27:47.522Z</time></trkpt><trkpt lat="46.066593" lon="9.1171264"><ele>969.0</ele><time>2026-04-09T10:27:48.521Z</time></trkpt><trkpt lat="46.0666651" lon="9.1170346"><ele>969.0</ele><time>2026-04-09T10:27:49.522Z</time></trkpt><trkpt lat="46.0667364" lon="9.1169424"><ele>969.6</ele><time>2026-04-09T10:27:50.522Z</time></trkpt><trkpt lat="46.066809" lon="9.1168555"><ele>970.2</ele><time>2026-04-09T10:27:51.523Z</time></trkpt><trkpt lat="46.0668783" lon="9.1167811"><ele>970.8000000000001</ele><time>2026-04-09T10:27:52.522Z</time></trkpt><trkpt lat="46.0669449" lon="9.1167418"><ele>971.4000000000001</ele><time>2026-04-09T10:27:53.522Z</time></trkpt><trkpt lat="46.0670583" lon="9.1167676"><ele>972.0</ele><time>2026-04-09T10:27:55.522Z</time></trkpt><trkpt lat="46.0671637" lon="9.1167753"><ele>972.0</ele><time>2026-04-09T10:27:57.521Z</time></trkpt><trkpt lat="46.0672241" lon="9.1167074"><ele>972.0</ele><time>2026-04-09T10:27:58.522Z</time></trkpt><trkpt lat="46.0672814" lon="9.116629"><ele>972.0</ele><time>2026-04-09T10:27:59.522Z</time></trkpt><trkpt lat="46.0673445" lon="9.1165385"><ele>972.0</ele><time>2026-04-09T10:28:00.522Z</time></trkpt><trkpt lat="46.0674173" lon="9.1164576"><ele>972.0</ele><time>2026-04-09T10:28:01.522Z</time></trkpt><trkpt lat="46.0674845" lon="9.1163628"><ele>972.0</ele><time>2026-04-09T10:28:02.522Z</time></trkpt><trkpt lat="46.0675337" lon="9.1162476"><ele>973.3333333333334</ele><time>2026-04-09T10:28:03.522Z</time></trkpt><trkpt lat="46.0675812" lon="9.1161451"><ele>974.6666666666667</ele><time>2026-04-09T10:28:04.523Z</time></trkpt><trkpt lat="46.0676477" lon="9.1160575"><ele>976.0</ele><time>2026-04-09T10:28:05.522Z</time></trkpt><trkpt lat="46.0677234" lon="9.1159943"><ele>977.3333333333334</ele><time>2026-04-09T10:28:06.523Z</time></trkpt><trkpt lat="46.0678067" lon="9.1159552"><ele>978.6666666666667</ele><time>2026-04-09T10:28:07.521Z</time></trkpt><trkpt lat="46.0678946" lon="9.1159282"><ele>980.0</ele><time>2026-04-09T10:28:08.522Z</time></trkpt><trkpt lat="46.0679937" lon="9.1159101"><ele>980.0000000000001</ele><time>2026-04-09T10:28:09.523Z</time></trkpt><trkpt lat="46.0680905" lon="9.1159021"><ele>980.0</ele><time>2026-04-09T10:28:10.523Z</time></trkpt><trkpt lat="46.0681709" lon="9.1158966"><ele>980.0</ele><time>2026-04-09T10:28:11.523Z</time></trkpt><trkpt lat="46.0682401" lon="9.1158613"><ele>980.0</ele><time>2026-04-09T10:28:12.523Z</time></trkpt><trkpt lat="46.0682945" lon="9.1157913"><ele>980.0000000000001</ele><time>2026-04-09T10:28:13.521Z</time></trkpt><trkpt lat="46.0683159" lon="9.1156923"><ele>980.0</ele><time>2026-04-09T10:28:14.521Z</time></trkpt><trkpt lat="46.0683136" lon="9.1155709"><ele>982.0000000000001</ele><time>2026-04-09T10:28:15.521Z</time></trkpt><trkpt lat="46.0683463" lon="9.1154642"><ele>984.0</ele><time>2026-04-09T10:28:16.521Z</time></trkpt><trkpt lat="46.0683942" lon="9.1153614"><ele>986.0</ele><time>2026-04-09T10:28:17.522Z</time></trkpt><trkpt lat="46.0684586" lon="9.115275"><ele>988.0</ele><time>2026-04-09T10:28:18.521Z</time></trkpt><trkpt lat="46.0685341" lon="9.1152161"><ele>990.0000000000001</ele><time>2026-04-09T10:28:19.522Z</time></trkpt><trkpt lat="46.0686173" lon="9.1151901"><ele>992.0</ele><time>2026-04-09T10:28:20.521Z</time></trkpt><trkpt lat="46.0686995" lon="9.11517"><ele>992.0</ele><time>2026-04-09T10:28:21.523Z</time></trkpt><trkpt lat="46.0687834" lon="9.1151193"><ele>992.0</ele><time>2026-04-09T10:28:22.523Z</time></trkpt><trkpt lat="46.0688609" lon="9.1150376"><ele>992.0</ele><time>2026-04-09T10:28:23.522Z</time></trkpt><trkpt lat="46.0689225" lon="9.1149433"><ele>992.0</ele><time>2026-04-09T10:28:24.522Z</time></trkpt><trkpt lat="46.0689837" lon="9.114818"><ele>992.0</ele><time>2026-04-09T10:28:25.522Z</time></trkpt><trkpt lat="46.0690585" lon="9.1147035"><ele>992.2</ele><time>2026-04-09T10:28:26.522Z</time></trkpt><trkpt lat="46.069131" lon="9.114583"><ele>992.4000000000001</ele><time>2026-04-09T10:28:27.522Z</time></trkpt><trkpt lat="46.0691887" lon="9.114445"><ele>992.5999999999999</ele><time>2026-04-09T10:28:28.522Z</time></trkpt><trkpt lat="46.0692282" lon="9.1143006"><ele>992.8</ele><time>2026-04-09T10:28:29.522Z</time></trkpt><trkpt lat="46.0692694" lon="9.1141682"><ele>993.0</ele><time>2026-04-09T10:28:30.522Z</time></trkpt><trkpt lat="46.0693325" lon="9.1140674"><ele>993.0</ele><time>2026-04-09T10:28:31.522Z</time></trkpt><trkpt lat="46.0694084" lon="9.1139996"><ele>993.0</ele><time>2026-04-09T10:28:32.522Z</time></trkpt><trkpt lat="46.0694796" lon="9.1139313"><ele>993.0</ele><time>2026-04-09T10:28:33.522Z</time></trkpt><trkpt lat="46.0695401" lon="9.1138341"><ele>993.0</ele><time>2026-04-09T10:28:34.523Z</time></trkpt><trkpt lat="46.0695775" lon="9.1137094"><ele>993.0</ele><time>2026-04-09T10:28:35.522Z</time></trkpt><trkpt lat="46.0696123" lon="9.1135801"><ele>993.0</ele><time>2026-04-09T10:28:36.523Z</time></trkpt><trkpt lat="46.0696542" lon="9.1134483"><ele>993.0</ele><time>2026-04-09T10:28:37.522Z</time></trkpt><trkpt lat="46.0697114" lon="9.113315"><ele>993.0</ele><time>2026-04-09T10:28:38.522Z</time></trkpt><trkpt lat="46.069782" lon="9.1131801"><ele>993.0</ele><time>2026-04-09T10:28:39.522Z</time></trkpt><trkpt lat="46.0698562" lon="9.1130448"><ele>993.0</ele><time>2026-04-09T10:28:40.521Z</time></trkpt><trkpt lat="46.06993" lon="9.1129135"><ele>996.5999999999999</ele><time>2026-04-09T10:28:41.523Z</time></trkpt><trkpt lat="46.0700031" lon="9.1127914"><ele>1000.1999999999999</ele><time>2026-04-09T10:28:42.522Z</time></trkpt><trkpt lat="46.0700768" lon="9.1126895"><ele>1003.8</ele><time>2026-04-09T10:28:43.522Z</time></trkpt><trkpt lat="46.0701511" lon="9.1126224"><ele>1007.4</ele><time>2026-04-09T10:28:44.522Z</time></trkpt><trkpt lat="46.0702236" lon="9.112584"><ele>1011.0</ele><time>2026-04-09T10:28:45.522Z</time></trkpt><trkpt lat="46.0703026" lon="9.1125707"><ele>1011.0</ele><time>2026-04-09T10:28:46.522Z</time></trkpt><trkpt lat="46.0703839" lon="9.1125791"><ele>1011.0</ele><time>2026-04-09T10:28:47.521Z</time></trkpt><trkpt lat="46.0704664" lon="9.1126021"><ele>1011.0</ele><time>2026-04-09T10:28:48.523Z</time></trkpt><trkpt lat="46.0705495" lon="9.1126254"><ele>1011.0</ele><time>2026-04-09T10:28:49.523Z</time></trkpt><trkpt lat="46.0706277" lon="9.1126497"><ele>1011.0</ele><time>2026-04-09T10:28:50.522Z</time></trkpt><trkpt lat="46.070692" lon="9.1126737"><ele>1011.0</ele><time>2026-04-09T10:28:51.521Z</time></trkpt><trkpt lat="46.0707602" lon="9.1126385"><ele>1012.4</ele><time>2026-04-09T10:28:52.523Z</time></trkpt><trkpt lat="46.0708794" lon="9.1125367"><ele>1013.8</ele><time>2026-04-09T10:28:54.523Z</time></trkpt><trkpt lat="46.0708767" lon="9.1123697"><ele>1015.1999999999999</ele><time>2026-04-09T10:28:55.522Z</time></trkpt><trkpt lat="46.0709214" lon="9.1122587"><ele>1016.5999999999999</ele><time>2026-04-09T10:28:56.521Z</time></trkpt><trkpt lat="46.0709689" lon="9.1121551"><ele>1018.0</ele><time>2026-04-09T10:28:57.521Z</time></trkpt><trkpt lat="46.0710338" lon="9.1120382"><ele>1018.0</ele><time>2026-04-09T10:28:58.522Z</time></trkpt><trkpt lat="46.0710869" lon="9.1119328"><ele>1018.0</ele><time>2026-04-09T10:28:59.522Z</time></trkpt><trkpt lat="46.0711318" lon="9.1118148"><ele>1018.0</ele><time>2026-04-09T10:29:00.522Z</time></trkpt><trkpt lat="46.0711591" lon="9.1116877"><ele>1018.0</ele><time>2026-04-09T10:29:01.522Z</time></trkpt><trkpt lat="46.0711765" lon="9.111559"><ele>1018.0</ele><time>2026-04-09T10:29:02.523Z</time></trkpt><trkpt lat="46.0712049" lon="9.1114451"><ele>1015.1666666666666</ele><time>2026-04-09T10:29:03.522Z</time></trkpt><trkpt lat="46.07124" lon="9.111341"><ele>1012.3333333333333</ele><time>2026-04-09T10:29:04.522Z</time></trkpt><trkpt lat="46.0713161" lon="9.1112359"><ele>1009.5</ele><time>2026-04-09T10:29:06.523Z</time></trkpt><trkpt lat="46.0713732" lon="9.1111651"><ele>1006.6666666666667</ele><time>2026-04-09T10:29:24.521Z</time></trkpt><trkpt lat="46.0714476" lon="9.1110665"><ele>1003.8333333333334</ele><time>2026-04-09T10:29:26.52Z</time></trkpt><trkpt lat="46.0714933" lon="9.1110017"><ele>1001.0</ele><time>2026-04-09T10:29:27.522Z</time></trkpt><trkpt lat="46.0715425" lon="9.1109346"><ele>1001.0000000000001</ele><time>2026-04-09T10:29:28.52Z</time></trkpt><trkpt lat="46.0716011" lon="9.1108771"><ele>1001.0</ele><time>2026-04-09T10:29:29.522Z</time></trkpt><trkpt lat="46.071664" lon="9.1108295"><ele>1001.0</ele><time>2026-04-09T10:29:30.521Z</time></trkpt><trkpt lat="46.0717284" lon="9.1107889"><ele>1001.0</ele><time>2026-04-09T10:29:31.522Z</time></trkpt><trkpt lat="46.0717942" lon="9.1107672"><ele>1001.0000000000001</ele><time>2026-04-09T10:29:32.521Z</time></trkpt><trkpt lat="46.0718883" lon="9.110796"><ele>1001.0</ele><time>2026-04-09T10:29:34.522Z</time></trkpt><trkpt lat="46.0718839" lon="9.1109055"><ele>1009.4</ele><time>2026-04-09T10:29:36.52Z</time></trkpt><trkpt lat="46.0717817" lon="9.111007"><ele>1017.8</ele><time>2026-04-09T10:29:38.521Z</time></trkpt><trkpt lat="46.0717365" lon="9.1110884"><ele>1026.1999999999998</ele><time>2026-04-09T10:29:39.521Z</time></trkpt><trkpt lat="46.0716985" lon="9.1111902"><ele>1034.6</ele><time>2026-04-09T10:29:40.521Z</time></trkpt><trkpt lat="46.0716617" lon="9.1113024"><ele>1043.0</ele><time>2026-04-09T10:29:41.522Z</time></trkpt><trkpt lat="46.0716262" lon="9.111425"><ele>1038.0</ele><time>2026-04-09T10:29:42.522Z</time></trkpt><trkpt lat="46.0715969" lon="9.1115545"><ele>1033.0</ele><time>2026-04-09T10:29:43.52Z</time></trkpt><trkpt lat="46.0715718" lon="9.1116906"><ele>1028.0</ele><time>2026-04-09T10:29:44.522Z</time></trkpt><trkpt lat="46.0715501" lon="9.1118349"><ele>1023.0</ele><time>2026-04-09T10:29:45.522Z</time></trkpt><trkpt lat="46.0715356" lon="9.1119779"><ele>1018.0</ele><time>2026-04-09T10:29:46.522Z</time></trkpt><trkpt lat="46.0715256" lon="9.1121098"><ele>1017.9999999999999</ele><time>2026-04-09T10:29:47.521Z</time></trkpt><trkpt lat="46.0715008" lon="9.112224"><ele>1018.0</ele><time>2026-04-09T10:29:48.521Z</time></trkpt><trkpt lat="46.0714524" lon="9.1123206"><ele>1018.0</ele><time>2026-04-09T10:29:49.521Z</time></trkpt><trkpt lat="46.0713991" lon="9.1123992"><ele>1018.0</ele><time>2026-04-09T10:29:50.521Z</time></trkpt><trkpt lat="46.0713561" lon="9.1124699"><ele>1017.9999999999999</ele><time>2026-04-09T10:29:51.52Z</time></trkpt><trkpt lat="46.0713532" lon="9.1125989"><ele>1018.0</ele><time>2026-04-09T10:29:53.522Z</time></trkpt><trkpt lat="46.0714443" lon="9.1126052"><ele>1021.3333333333333</ele><time>2026-04-09T10:29:55.52Z</time></trkpt><trkpt lat="46.0714959" lon="9.1125389"><ele>1024.6666666666665</ele><time>2026-04-09T10:29:56.52Z</time></trkpt><trkpt lat="46.0715544" lon="9.1124561"><ele>1028.0</ele><time>2026-04-09T10:29:57.52Z</time></trkpt><trkpt lat="46.0716113" lon="9.1123691"><ele>1031.3333333333333</ele><time>2026-04-09T10:29:58.521Z</time></trkpt><trkpt lat="46.0716718" lon="9.1122851"><ele>1034.6666666666667</ele><time>2026-04-09T10:29:59.521Z</time></trkpt><trkpt lat="46.0717402" lon="9.11218"><ele>1038.0</ele><time>2026-04-09T10:30:00.521Z</time></trkpt><trkpt lat="46.0718041" lon="9.1120772"><ele>1042.6</ele><time>2026-04-09T10:30:01.522Z</time></trkpt><trkpt lat="46.0718764" lon="9.1119694"><ele>1047.1999999999998</ele><time>2026-04-09T10:30:02.521Z</time></trkpt><trkpt lat="46.0719391" lon="9.1118747"><ele>1051.8</ele><time>2026-04-09T10:30:03.521Z</time></trkpt><trkpt lat="46.0719942" lon="9.1117958"><ele>1056.3999999999999</ele><time>2026-04-09T10:30:04.522Z</time></trkpt><trkpt lat="46.0720815" lon="9.1117177"><ele>1061.0</ele><time>2026-04-09T10:30:06.521Z</time></trkpt><trkpt lat="46.0721023" lon="9.1118389"><ele>1061.0</ele><time>2026-04-09T10:30:09.521Z</time></trkpt><trkpt lat="46.0720505" lon="9.1120053"><ele>1061.0</ele><time>2026-04-09T10:30:11.521Z</time></trkpt><trkpt lat="46.0720391" lon="9.11211"><ele>1061.0</ele><time>2026-04-09T10:30:12.521Z</time></trkpt><trkpt lat="46.072027" lon="9.1122129"><ele>1061.0</ele><time>2026-04-09T10:30:13.521Z</time></trkpt><trkpt lat="46.0720121" lon="9.1123199"><ele>1061.0</ele><time>2026-04-09T10:30:14.522Z</time></trkpt><trkpt lat="46.072005" lon="9.1124282"><ele>1061.0</ele><time>2026-04-09T10:30:15.521Z</time></trkpt><trkpt lat="46.0719882" lon="9.1125439"><ele>1063.5</ele><time>2026-04-09T10:30:16.521Z</time></trkpt><trkpt lat="46.0719673" lon="9.1126611"><ele>1066.0</ele><time>2026-04-09T10:30:17.522Z</time></trkpt><trkpt lat="46.0719428" lon="9.1127777"><ele>1068.5</ele><time>2026-04-09T10:30:18.52Z</time></trkpt><trkpt lat="46.0719202" lon="9.1128826"><ele>1071.0</ele><time>2026-04-09T10:30:19.522Z</time></trkpt><trkpt lat="46.0719144" lon="9.1130239"><ele>1073.5</ele><time>2026-04-09T10:30:21.52Z</time></trkpt><trkpt lat="46.0719855" lon="9.1130548"><ele>1076.0</ele><time>2026-04-09T10:30:23.521Z</time></trkpt><trkpt lat="46.0720638" lon="9.1129343"><ele>1076.0</ele><time>2026-04-09T10:30:25.521Z</time></trkpt><trkpt lat="46.0721008" lon="9.1128375"><ele>1076.0</ele><time>2026-04-09T10:30:26.521Z</time></trkpt><trkpt lat="46.0721426" lon="9.1127248"><ele>1076.0</ele><time>2026-04-09T10:30:27.521Z</time></trkpt><trkpt lat="46.0721934" lon="9.1126051"><ele>1076.0</ele><time>2026-04-09T10:30:28.522Z</time></trkpt><trkpt lat="46.0722415" lon="9.1124918"><ele>1076.0</ele><time>2026-04-09T10:30:29.52Z</time></trkpt><trkpt lat="46.072294" lon="9.1124017"><ele>1076.0</ele><time>2026-04-09T10:30:30.521Z</time></trkpt><trkpt lat="46.0723457" lon="9.11233"><ele>1073.5</ele><time>2026-04-09T10:30:31.521Z</time></trkpt><trkpt lat="46.0724052" lon="9.1122484"><ele>1071.0</ele><time>2026-04-09T10:30:32.522Z</time></trkpt><trkpt lat="46.0724702" lon="9.1121698"><ele>1068.5</ele><time>2026-04-09T10:30:33.521Z</time></trkpt><trkpt lat="46.0725357" lon="9.1120852"><ele>1066.0</ele><time>2026-04-09T10:30:34.521Z</time></trkpt><trkpt lat="46.0725878" lon="9.1120133"><ele>1063.5</ele><time>2026-04-09T10:30:35.521Z</time></trkpt><trkpt lat="46.0726392" lon="9.1119385"><ele>1061.0</ele><time>2026-04-09T10:30:36.521Z</time></trkpt><trkpt lat="46.0727396" lon="9.111873"><ele>1067.2</ele><time>2026-04-09T10:30:38.521Z</time></trkpt><trkpt lat="46.0728449" lon="9.1119097"><ele>1073.3999999999999</ele><time>2026-04-09T10:30:40.521Z</time></trkpt><trkpt lat="46.0729874" lon="9.1119333"><ele>1079.6</ele><time>2026-04-09T10:30:42.521Z</time></trkpt><trkpt lat="46.0730741" lon="9.1119025"><ele>1085.8</ele><time>2026-04-09T10:30:43.521Z</time></trkpt><trkpt lat="46.0731514" lon="9.1118653"><ele>1092.0</ele><time>2026-04-09T10:30:44.521Z</time></trkpt><trkpt lat="46.0732471" lon="9.111788"><ele>1092.2</ele><time>2026-04-09T10:30:45.522Z</time></trkpt><trkpt lat="46.0733324" lon="9.1116913"><ele>1092.4</ele><time>2026-04-09T10:30:46.521Z</time></trkpt><trkpt lat="46.07341" lon="9.1115906"><ele>1092.6</ele><time>2026-04-09T10:30:47.52Z</time></trkpt><trkpt lat="46.0734896" lon="9.1115267"><ele>1092.8</ele><time>2026-04-09T10:30:48.521Z</time></trkpt><trkpt lat="46.073576" lon="9.1114897"><ele>1093.0</ele><time>2026-04-09T10:30:49.521Z</time></trkpt><trkpt lat="46.0736519" lon="9.1114653"><ele>1093.0</ele><time>2026-04-09T10:30:50.521Z</time></trkpt><trkpt lat="46.0737323" lon="9.1114315"><ele>1093.0</ele><time>2026-04-09T10:30:51.521Z</time></trkpt><trkpt lat="46.0738193" lon="9.1113885"><ele>1093.0</ele><time>2026-04-09T10:30:52.521Z</time></trkpt><trkpt lat="46.0739176" lon="9.1113406"><ele>1093.0</ele><time>2026-04-09T10:30:53.521Z</time></trkpt><trkpt lat="46.0740088" lon="9.1112915"><ele>1093.0</ele><time>2026-04-09T10:30:54.52Z</time></trkpt><trkpt lat="46.0740983" lon="9.1112484"><ele>1096.5</ele><time>2026-04-09T10:30:55.521Z</time></trkpt><trkpt lat="46.0741892" lon="9.1112142"><ele>1100.0</ele><time>2026-04-09T10:30:56.52Z</time></trkpt><trkpt lat="46.0742752" lon="9.1111946"><ele>1103.5</ele><time>2026-04-09T10:30:57.521Z</time></trkpt><trkpt lat="46.0743605" lon="9.1111878"><ele>1107.0</ele><time>2026-04-09T10:30:58.522Z</time></trkpt><trkpt lat="46.0744452" lon="9.1112011"><ele>1110.5</ele><time>2026-04-09T10:30:59.521Z</time></trkpt><trkpt lat="46.0745173" lon="9.1112225"><ele>1114.0</ele><time>2026-04-09T10:31:00.52Z</time></trkpt><trkpt lat="46.0746092" lon="9.1112656"><ele>1114.0</ele><time>2026-04-09T10:31:02.521Z</time></trkpt><trkpt lat="46.0746641" lon="9.1113193"><ele>1114.0</ele><time>2026-04-09T10:31:04.521Z</time></trkpt><trkpt lat="46.0747226" lon="9.1114033"><ele>1114.0</ele><time>2026-04-09T10:31:06.521Z</time></trkpt><trkpt lat="46.0747846" lon="9.1114572"><ele>1114.0</ele><time>2026-04-09T10:31:08.52Z</time></trkpt><trkpt lat="46.0748192" lon="9.1113524"><ele>1114.0</ele><time>2026-04-09T10:31:11.521Z</time></trkpt><trkpt lat="46.0747898" lon="9.1112569"><ele>1114.0</ele><time>2026-04-09T10:31:13.52Z</time></trkpt><trkpt lat="46.0747895" lon="9.1111612"><ele>1114.0</ele><time>2026-04-09T10:31:23.52Z</time></trkpt><trkpt lat="46.0775987" lon="9.1091997"><ele>1137.0</ele><time>2026-04-09T10:45:29.512Z</time></trkpt><trkpt lat="46.0776379" lon="9.1090808"><ele>1160.0</ele><time>2026-04-09T10:45:31.512Z</time></trkpt><trkpt lat="46.0777162" lon="9.1087453"><ele>1183.0</ele><time>2026-04-09T10:45:35.512Z</time></trkpt><trkpt lat="46.0777559" lon="9.1086485"><ele>1206.0</ele><time>2026-04-09T10:45:36.513Z</time></trkpt><trkpt lat="46.0777772" lon="9.1085575"><ele>1206.0</ele><time>2026-04-09T10:45:37.512Z</time></trkpt><trkpt lat="46.077811" lon="9.108474"><ele>1206.0</ele><time>2026-04-09T10:45:38.513Z</time></trkpt><trkpt lat="46.0778975" lon="9.108349"><ele>1206.0</ele><time>2026-04-09T10:45:40.512Z</time></trkpt><trkpt lat="46.0779785" lon="9.1082485"><ele>1206.0</ele><time>2026-04-09T10:45:42.513Z</time></trkpt><trkpt lat="46.0780837" lon="9.1081436"><ele>1206.0</ele><time>2026-04-09T10:45:44.513Z</time></trkpt><trkpt lat="46.0781376" lon="9.1080931"><ele>1204.3999999999999</ele><time>2026-04-09T10:45:45.512Z</time></trkpt><trkpt lat="46.0781878" lon="9.108034"><ele>1202.8</ele><time>2026-04-09T10:45:46.512Z</time></trkpt><trkpt lat="46.0782853" lon="9.1079237"><ele>1201.1999999999998</ele><time>2026-04-09T10:45:48.512Z</time></trkpt><trkpt lat="46.0783539" lon="9.1078414"><ele>1199.6</ele><time>2026-04-09T10:45:50.512Z</time></trkpt><trkpt lat="46.0784504" lon="9.1077578"><ele>1198.0</ele><time>2026-04-09T10:45:52.511Z</time></trkpt><trkpt lat="46.0786311" lon="9.107599"><ele>1202.6</ele><time>2026-04-09T10:45:56.511Z</time></trkpt><trkpt lat="46.0787218" lon="9.1074082"><ele>1207.1999999999998</ele><time>2026-04-09T10:45:58.512Z</time></trkpt><trkpt lat="46.0786925" lon="9.1072977"><ele>1211.8</ele><time>2026-04-09T10:45:59.512Z</time></trkpt><trkpt lat="46.0786914" lon="9.1072058"><ele>1216.3999999999999</ele><time>2026-04-09T10:46:00.513Z</time></trkpt><trkpt lat="46.0786932" lon="9.1070848"><ele>1221.0</ele><time>2026-04-09T10:46:01.513Z</time></trkpt><trkpt lat="46.0787118" lon="9.1069506"><ele>1221.0</ele><time>2026-04-09T10:46:03.512Z</time></trkpt><trkpt lat="46.0788027" lon="9.1069414"><ele>1221.0</ele><time>2026-04-09T10:46:05.512Z</time></trkpt><trkpt lat="46.0788644" lon="9.1070312"><ele>1221.0</ele><time>2026-04-09T10:46:07.512Z</time></trkpt><trkpt lat="46.0789481" lon="9.107087"><ele>1221.0</ele><time>2026-04-09T10:46:10.512Z</time></trkpt><trkpt lat="46.0789676" lon="9.1069021"><ele>1221.0</ele><time>2026-04-09T10:46:12.512Z</time></trkpt><trkpt lat="46.0790334" lon="9.1067595"><ele>1221.0</ele><time>2026-04-09T10:46:14.512Z</time></trkpt><trkpt lat="46.0790588" lon="9.1065372"><ele>1221.0</ele><time>2026-04-09T10:46:16.512Z</time></trkpt><trkpt lat="46.0790807" lon="9.106429"><ele>1221.0</ele><time>2026-04-09T10:46:17.511Z</time></trkpt><trkpt lat="46.0791076" lon="9.1063249"><ele>1221.0</ele><time>2026-04-09T10:46:18.512Z</time></trkpt><trkpt lat="46.0791401" lon="9.1062235"><ele>1221.0</ele><time>2026-04-09T10:46:19.512Z</time></trkpt><trkpt lat="46.0791733" lon="9.1061094"><ele>1227.8333333333333</ele><time>2026-04-09T10:46:20.511Z</time></trkpt><trkpt lat="46.079198" lon="9.1060019"><ele>1234.6666666666667</ele><time>2026-04-09T10:46:21.512Z</time></trkpt><trkpt lat="46.0792242" lon="9.1058977"><ele>1241.5</ele><time>2026-04-09T10:46:22.511Z</time></trkpt><trkpt lat="46.0792493" lon="9.1058018"><ele>1248.3333333333335</ele><time>2026-04-09T10:46:23.512Z</time></trkpt><trkpt lat="46.0792838" lon="9.1056759"><ele>1255.1666666666667</ele><time>2026-04-09T10:46:25.513Z</time></trkpt><trkpt lat="46.0793046" lon="9.1055783"><ele>1262.0</ele><time>2026-04-09T10:46:40.512Z</time></trkpt><trkpt lat="46.079339" lon="9.1053082"><ele>1262.0</ele><time>2026-04-09T10:46:43.512Z</time></trkpt><trkpt lat="46.0794027" lon="9.1051338"><ele>1262.0</ele><time>2026-04-09T10:46:45.512Z</time></trkpt><trkpt lat="46.0794551" lon="9.1050379"><ele>1262.0</ele><time>2026-04-09T10:46:46.512Z</time></trkpt><trkpt lat="46.0795204" lon="9.1049217"><ele>1262.0</ele><time>2026-04-09T10:46:47.512Z</time></trkpt><trkpt lat="46.0795793" lon="9.1048159"><ele>1262.0</ele><time>2026-04-09T10:46:48.512Z</time></trkpt><trkpt lat="46.0796333" lon="9.1047141"><ele>1261.8333333333335</ele><time>2026-04-09T10:46:49.512Z</time></trkpt><trkpt lat="46.0796768" lon="9.1046097"><ele>1261.6666666666667</ele><time>2026-04-09T10:46:50.512Z</time></trkpt><trkpt lat="46.0797106" lon="9.1044981"><ele>1261.5</ele><time>2026-04-09T10:46:51.513Z</time></trkpt><trkpt lat="46.0797283" lon="9.1043755"><ele>1261.3333333333333</ele><time>2026-04-09T10:46:52.512Z</time></trkpt><trkpt lat="46.0797219" lon="9.1042532"><ele>1261.1666666666665</ele><time>2026-04-09T10:46:53.513Z</time></trkpt><trkpt lat="46.0797109" lon="9.104131"><ele>1261.0</ele><time>2026-04-09T10:46:54.513Z</time></trkpt><trkpt lat="46.0797106" lon="9.1040261"><ele>1260.6666666666665</ele><time>2026-04-09T10:46:55.512Z</time></trkpt><trkpt lat="46.0797303" lon="9.1039215"><ele>1260.3333333333333</ele><time>2026-04-09T10:46:56.513Z</time></trkpt><trkpt lat="46.0797674" lon="9.1038088"><ele>1260.0</ele><time>2026-04-09T10:46:57.512Z</time></trkpt><trkpt lat="46.0798105" lon="9.1036945"><ele>1259.6666666666667</ele><time>2026-04-09T10:46:58.512Z</time></trkpt><trkpt lat="46.0798522" lon="9.1035736"><ele>1259.3333333333335</ele><time>2026-04-09T10:46:59.511Z</time></trkpt><trkpt lat="46.0798716" lon="9.1034672"><ele>1259.0</ele><time>2026-04-09T10:47:00.512Z</time></trkpt><trkpt lat="46.079905" lon="9.1033212"><ele>1270.0</ele><time>2026-04-09T10:47:02.513Z</time></trkpt><trkpt lat="46.0799628" lon="9.103492"><ele>1281.0</ele><time>2026-04-09T10:47:07.512Z</time></trkpt><trkpt lat="46.0799777" lon="9.103657"><ele>1292.0</ele><time>2026-04-09T10:47:09.513Z</time></trkpt><trkpt lat="46.0800114" lon="9.1038266"><ele>1303.0</ele><time>2026-04-09T10:47:11.513Z</time></trkpt><trkpt lat="46.0800208" lon="9.1040048"><ele>1302.1666666666665</ele><time>2026-04-09T10:47:13.512Z</time></trkpt><trkpt lat="46.0800088" lon="9.1041072"><ele>1301.3333333333333</ele><time>2026-04-09T10:47:14.512Z</time></trkpt><trkpt lat="46.0800273" lon="9.1042824"><ele>1300.5</ele><time>2026-04-09T10:47:16.512Z</time></trkpt><trkpt lat="46.0800499" lon="9.1043697"><ele>1299.6666666666667</ele><time>2026-04-09T10:47:17.511Z</time></trkpt><trkpt lat="46.0800783" lon="9.1044635"><ele>1298.8333333333335</ele><time>2026-04-09T10:47:18.511Z</time></trkpt><trkpt lat="46.080105" lon="9.104567"><ele>1298.0</ele><time>2026-04-09T10:47:19.512Z</time></trkpt><trkpt lat="46.0801215" lon="9.1046588"><ele>1298.0</ele><time>2026-04-09T10:47:20.512Z</time></trkpt><trkpt lat="46.080128" lon="9.1047661"><ele>1298.0</ele><time>2026-04-09T10:47:21.512Z</time></trkpt><trkpt lat="46.0801283" lon="9.1048822"><ele>1298.0</ele><time>2026-04-09T10:47:22.512Z</time></trkpt><trkpt lat="46.0801272" lon="9.1050049"><ele>1298.0</ele><time>2026-04-09T10:47:23.512Z</time></trkpt><trkpt lat="46.080142" lon="9.1052611"><ele>1298.0</ele><time>2026-04-09T10:47:25.511Z</time></trkpt><trkpt lat="46.080144" lon="9.1053566"><ele>1298.6000000000001</ele><time>2026-04-09T10:47:26.511Z</time></trkpt><trkpt lat="46.0801581" lon="9.1054946"><ele>1299.2</ele><time>2026-04-09T10:47:28.51Z</time></trkpt><trkpt lat="46.0802298" lon="9.1054195"><ele>1299.8</ele><time>2026-04-09T10:47:32.511Z</time></trkpt><trkpt lat="46.0802517" lon="9.1052517"><ele>1300.4</ele><time>2026-04-09T10:47:34.511Z</time></trkpt><trkpt lat="46.0802702" lon="9.105153"><ele>1301.0</ele><time>2026-04-09T10:47:35.511Z</time></trkpt><trkpt lat="46.0802933" lon="9.1050484"><ele>1300.5</ele><time>2026-04-09T10:47:36.511Z</time></trkpt><trkpt lat="46.0803209" lon="9.1048734"><ele>1300.0</ele><time>2026-04-09T10:47:38.511Z</time></trkpt><trkpt lat="46.080323" lon="9.1046959"><ele>1299.5</ele><time>2026-04-09T10:47:40.511Z</time></trkpt><trkpt lat="46.0803128" lon="9.1045989"><ele>1299.0</ele><time>2026-04-09T10:47:41.511Z</time></trkpt><trkpt lat="46.0803051" lon="9.1045007"><ele>1298.5</ele><time>2026-04-09T10:47:42.51Z</time></trkpt><trkpt lat="46.0803038" lon="9.1044077"><ele>1298.0</ele><time>2026-04-09T10:47:43.512Z</time></trkpt><trkpt lat="46.0803087" lon="9.1043166"><ele>1299.0</ele><time>2026-04-09T10:47:44.511Z</time></trkpt><trkpt lat="46.0803816" lon="9.1040729"><ele>1300.0</ele><time>2026-04-09T10:47:47.512Z</time></trkpt><trkpt lat="46.0804158" lon="9.1039825"><ele>1301.0</ele><time>2026-04-09T10:47:48.512Z</time></trkpt><trkpt lat="46.0804498" lon="9.1038847"><ele>1302.0</ele><time>2026-04-09T10:47:49.512Z</time></trkpt><trkpt lat="46.0804796" lon="9.1037876"><ele>1303.0</ele><time>2026-04-09T10:47:50.511Z</time></trkpt><trkpt lat="46.0804999" lon="9.1036801"><ele>1303.0</ele><time>2026-04-09T10:47:51.511Z</time></trkpt><trkpt lat="46.0805129" lon="9.1035758"><ele>1303.0</ele><time>2026-04-09T10:47:52.512Z</time></trkpt><trkpt lat="46.080522" lon="9.1034664"><ele>1303.0</ele><time>2026-04-09T10:47:53.511Z</time></trkpt><trkpt lat="46.0805393" lon="9.1033549"><ele>1303.0</ele><time>2026-04-09T10:47:54.51Z</time></trkpt><trkpt lat="46.0805548" lon="9.1032382"><ele>1303.0</ele><time>2026-04-09T10:47:55.512Z</time></trkpt><trkpt lat="46.0805823" lon="9.1031313"><ele>1303.0</ele><time>2026-04-09T10:47:57.512Z</time></trkpt><trkpt lat="46.0805971" lon="9.102954"><ele>1303.6000000000001</ele><time>2026-04-09T10:47:59.512Z</time></trkpt><trkpt lat="46.0806044" lon="9.1028446"><ele>1304.2</ele><time>2026-04-09T10:48:00.511Z</time></trkpt><trkpt lat="46.0806013" lon="9.1027398"><ele>1304.8</ele><time>2026-04-09T10:48:01.511Z</time></trkpt><trkpt lat="46.0806047" lon="9.1025723"><ele>1305.4</ele><time>2026-04-09T10:48:03.512Z</time></trkpt><trkpt lat="46.0806191" lon="9.1024381"><ele>1306.0</ele><time>2026-04-09T10:48:05.511Z</time></trkpt><trkpt lat="46.0806872" lon="9.102197"><ele>1306.0</ele><time>2026-04-09T10:48:09.511Z</time></trkpt><trkpt lat="46.0807515" lon="9.1020518"><ele>1306.0</ele><time>2026-04-09T10:48:11.512Z</time></trkpt><trkpt lat="46.0807911" lon="9.1019736"><ele>1306.0</ele><time>2026-04-09T10:48:12.511Z</time></trkpt><trkpt lat="46.080828" lon="9.1018964"><ele>1306.0</ele><time>2026-04-09T10:48:13.511Z</time></trkpt><trkpt lat="46.0808629" lon="9.1018103"><ele>1306.0</ele><time>2026-04-09T10:48:14.511Z</time></trkpt><trkpt lat="46.0808959" lon="9.1017185"><ele>1306.0</ele><time>2026-04-09T10:48:15.511Z</time></trkpt><trkpt lat="46.0809184" lon="9.1016239"><ele>1312.3333333333333</ele><time>2026-04-09T10:48:16.511Z</time></trkpt><trkpt lat="46.0809315" lon="9.1015259"><ele>1318.6666666666665</ele><time>2026-04-09T10:48:17.512Z</time></trkpt><trkpt lat="46.0809442" lon="9.1014316"><ele>1325.0</ele><time>2026-04-09T10:48:18.511Z</time></trkpt><trkpt lat="46.0809636" lon="9.1012471"><ele>1331.3333333333333</ele><time>2026-04-09T10:48:20.511Z</time></trkpt><trkpt lat="46.0809642" lon="9.1011362"><ele>1337.6666666666667</ele><time>2026-04-09T10:48:21.511Z</time></trkpt><trkpt lat="46.0809582" lon="9.1010073"><ele>1344.0</ele><time>2026-04-09T10:48:22.51Z</time></trkpt><trkpt lat="46.0809547" lon="9.1008725"><ele>1344.0</ele><time>2026-04-09T10:48:23.511Z</time></trkpt><trkpt lat="46.0809605" lon="9.1007237"><ele>1344.0</ele><time>2026-04-09T10:48:24.511Z</time></trkpt><trkpt lat="46.0809915" lon="9.1005716"><ele>1344.0</ele><time>2026-04-09T10:48:25.511Z</time></trkpt><trkpt lat="46.0810164" lon="9.100422"><ele>1344.0</ele><time>2026-04-09T10:48:26.51Z</time></trkpt><trkpt lat="46.0810867" lon="9.10014"><ele>1344.0</ele><time>2026-04-09T10:48:28.512Z</time></trkpt><trkpt lat="46.0811116" lon="9.100039"><ele>1344.0</ele><time>2026-04-09T10:48:29.511Z</time></trkpt><trkpt lat="46.0811302" lon="9.099951"><ele>1344.0</ele><time>2026-04-09T10:48:30.511Z</time></trkpt><trkpt lat="46.0811845" lon="9.0997782"><ele>1344.0</ele><time>2026-04-09T10:48:32.512Z</time></trkpt><trkpt lat="46.0812252" lon="9.0996866"><ele>1344.0</ele><time>2026-04-09T10:48:33.511Z</time></trkpt><trkpt lat="46.0812765" lon="9.0995936"><ele>1344.0</ele><time>2026-04-09T10:48:34.511Z</time></trkpt><trkpt lat="46.0813294" lon="9.0995045"><ele>1343.1666666666667</ele><time>2026-04-09T10:48:35.511Z</time></trkpt><trkpt lat="46.0813878" lon="9.0994199"><ele>1342.3333333333333</ele><time>2026-04-09T10:48:36.511Z</time></trkpt><trkpt lat="46.0814492" lon="9.0993328"><ele>1341.5</ele><time>2026-04-09T10:48:37.511Z</time></trkpt><trkpt lat="46.081509" lon="9.0992463"><ele>1340.6666666666665</ele><time>2026-04-09T10:48:38.511Z</time></trkpt><trkpt lat="46.0815591" lon="9.0991714"><ele>1339.8333333333333</ele><time>2026-04-09T10:48:39.51Z</time></trkpt><trkpt lat="46.0816021" lon="9.0991012"><ele>1339.0</ele><time>2026-04-09T10:48:40.512Z</time></trkpt><trkpt lat="46.081691" lon="9.0989524"><ele>1342.6666666666665</ele><time>2026-04-09T10:48:42.511Z</time></trkpt><trkpt lat="46.0817421" lon="9.0988693"><ele>1346.3333333333333</ele><time>2026-04-09T10:48:43.51Z</time></trkpt><trkpt lat="46.0817946" lon="9.0987836"><ele>1350.0</ele><time>2026-04-09T10:48:44.511Z</time></trkpt><trkpt lat="46.0818501" lon="9.0986961"><ele>1353.6666666666667</ele><time>2026-04-09T10:48:45.512Z</time></trkpt><trkpt lat="46.0819086" lon="9.0986063"><ele>1357.3333333333335</ele><time>2026-04-09T10:48:46.511Z</time></trkpt><trkpt lat="46.0819666" lon="9.0985212"><ele>1361.0</ele><time>2026-04-09T10:48:47.511Z</time></trkpt><trkpt lat="46.0820734" lon="9.0983726"><ele>1361.0</ele><time>2026-04-09T10:48:49.512Z</time></trkpt><trkpt lat="46.0821184" lon="9.0982858"><ele>1361.0</ele><time>2026-04-09T10:48:50.511Z</time></trkpt><trkpt lat="46.0821616" lon="9.0981722"><ele>1361.0</ele><time>2026-04-09T10:48:51.512Z</time></trkpt><trkpt lat="46.0822024" lon="9.0980595"><ele>1361.0</ele><time>2026-04-09T10:48:52.511Z</time></trkpt><trkpt lat="46.0822407" lon="9.0979703"><ele>1361.0</ele><time>2026-04-09T10:48:53.512Z</time></trkpt><trkpt lat="46.0822933" lon="9.0978776"><ele>1361.0</ele><time>2026-04-09T10:48:54.511Z</time></trkpt><trkpt lat="46.0823529" lon="9.0977788"><ele>1363.8333333333335</ele><time>2026-04-09T10:48:55.511Z</time></trkpt><trkpt lat="46.082433" lon="9.0976974"><ele>1366.6666666666667</ele><time>2026-04-09T10:48:56.512Z</time></trkpt><trkpt lat="46.0824953" lon="9.0976287"><ele>1369.5</ele><time>2026-04-09T10:48:57.512Z</time></trkpt><trkpt lat="46.0825553" lon="9.0975738"><ele>1372.3333333333333</ele><time>2026-04-09T10:48:58.51Z</time></trkpt><trkpt lat="46.0826387" lon="9.0975011"><ele>1375.1666666666665</ele><time>2026-04-09T10:49:00.511Z</time></trkpt><trkpt lat="46.0826906" lon="9.09744"><ele>1378.0</ele><time>2026-04-09T10:49:02.511Z</time></trkpt><trkpt lat="46.082734" lon="9.0973359"><ele>1379.5</ele><time>2026-04-09T10:49:04.51Z</time></trkpt><trkpt lat="46.0827692" lon="9.0971729"><ele>1381.0</ele><time>2026-04-09T10:49:06.51Z</time></trkpt><trkpt lat="46.0827913" lon="9.0970847"><ele>1382.5</ele><time>2026-04-09T10:49:07.51Z</time></trkpt><trkpt lat="46.0828195" lon="9.0969321"><ele>1384.0</ele><time>2026-04-09T10:49:09.51Z</time></trkpt><trkpt lat="46.0828248" lon="9.0966886"><ele>1387.0</ele><time>2026-04-09T10:49:11.511Z</time></trkpt><trkpt lat="46.0828207" lon="9.0965554"><ele>1390.0</ele><time>2026-04-09T10:49:12.51Z</time></trkpt><trkpt lat="46.0828168" lon="9.0964217"><ele>1393.0</ele><time>2026-04-09T10:49:13.51Z</time></trkpt><trkpt lat="46.0828109" lon="9.0963092"><ele>1396.0</ele><time>2026-04-09T10:49:14.51Z</time></trkpt><trkpt lat="46.0827965" lon="9.0962106"><ele>1399.0</ele><time>2026-04-09T10:49:15.51Z</time></trkpt><trkpt lat="46.0827113" lon="9.0960951"><ele>1399.0</ele><time>2026-04-09T10:49:17.51Z</time></trkpt><trkpt lat="46.0826296" lon="9.0960494"><ele>1399.0</ele><time>2026-04-09T10:49:18.511Z</time></trkpt><trkpt lat="46.08254" lon="9.0960024"><ele>1399.0</ele><time>2026-04-09T10:49:19.511Z</time></trkpt><trkpt lat="46.0824529" lon="9.0959553"><ele>1399.0</ele><time>2026-04-09T10:49:20.51Z</time></trkpt><trkpt lat="46.0823731" lon="9.0959042"><ele>1399.0</ele><time>2026-04-09T10:49:21.51Z</time></trkpt><trkpt lat="46.0823384" lon="9.095819"><ele>1399.0</ele><time>2026-04-09T10:49:22.51Z</time></trkpt><trkpt lat="46.082316" lon="9.095671"><ele>1400.0</ele><time>2026-04-09T10:49:24.51Z</time></trkpt><trkpt lat="46.0823836" lon="9.0955043"><ele>1401.0</ele><time>2026-04-09T10:49:26.511Z</time></trkpt><trkpt lat="46.0824288" lon="9.09541"><ele>1402.0</ele><time>2026-04-09T10:49:27.51Z</time></trkpt><trkpt lat="46.0824757" lon="9.0953173"><ele>1403.0</ele><time>2026-04-09T10:49:28.51Z</time></trkpt><trkpt lat="46.0825192" lon="9.0952261"><ele>1404.0</ele><time>2026-04-09T10:49:29.509Z</time></trkpt><trkpt lat="46.0825727" lon="9.0951345"><ele>1405.0</ele><time>2026-04-09T10:49:30.51Z</time></trkpt><trkpt lat="46.0826919" lon="9.0949144"><ele>1406.0</ele><time>2026-04-09T10:49:32.509Z</time></trkpt><trkpt lat="46.0827384" lon="9.094823"><ele>1407.0</ele><time>2026-04-09T10:49:33.51Z</time></trkpt><trkpt lat="46.0827816" lon="9.0947219"><ele>1408.0</ele><time>2026-04-09T10:49:34.511Z</time></trkpt><trkpt lat="46.0828207" lon="9.094602"><ele>1409.0</ele><time>2026-04-09T10:49:35.51Z</time></trkpt><trkpt lat="46.0828513" lon="9.0944791"><ele>1409.0</ele><time>2026-04-09T10:49:36.51Z</time></trkpt><trkpt lat="46.0828787" lon="9.0943461"><ele>1409.0</ele><time>2026-04-09T10:49:37.51Z</time></trkpt><trkpt lat="46.0828972" lon="9.0942203"><ele>1409.0</ele><time>2026-04-09T10:49:38.511Z</time></trkpt><trkpt lat="46.082908" lon="9.0941148"><ele>1409.0</ele><time>2026-04-09T10:49:39.511Z</time></trkpt><trkpt lat="46.0829056" lon="9.0939941"><ele>1409.0</ele><time>2026-04-09T10:49:40.51Z</time></trkpt><trkpt lat="46.0828976" lon="9.0938935"><ele>1409.0</ele><time>2026-04-09T10:49:41.51Z</time></trkpt><trkpt lat="46.0828897" lon="9.093784"><ele>1409.8333333333335</ele><time>2026-04-09T10:49:42.51Z</time></trkpt><trkpt lat="46.0828733" lon="9.0936729"><ele>1410.6666666666667</ele><time>2026-04-09T10:49:43.51Z</time></trkpt><trkpt lat="46.0828473" lon="9.0935536"><ele>1411.5</ele><time>2026-04-09T10:49:44.509Z</time></trkpt><trkpt lat="46.0828212" lon="9.0934366"><ele>1412.3333333333333</ele><time>2026-04-09T10:49:45.51Z</time></trkpt><trkpt lat="46.0827977" lon="9.0933226"><ele>1413.1666666666665</ele><time>2026-04-09T10:49:46.51Z</time></trkpt><trkpt lat="46.0827825" lon="9.0931937"><ele>1414.0</ele><time>2026-04-09T10:49:47.51Z</time></trkpt><trkpt lat="46.0827761" lon="9.0930725"><ele>1416.25</ele><time>2026-04-09T10:49:48.51Z</time></trkpt><trkpt lat="46.0827683" lon="9.0929438"><ele>1418.5</ele><time>2026-04-09T10:49:49.51Z</time></trkpt><trkpt lat="46.0827593" lon="9.0928411"><ele>1420.75</ele><time>2026-04-09T10:49:50.511Z</time></trkpt><trkpt lat="46.0827284" lon="9.0927059"><ele>1423.0</ele><time>2026-04-09T10:49:52.511Z</time></trkpt><trkpt lat="46.0826844" lon="9.0923825"><ele>1424.0</ele><time>2026-04-09T10:49:55.511Z</time></trkpt><trkpt lat="46.0826866" lon="9.0922266"><ele>1425.0</ele><time>2026-04-09T10:49:56.51Z</time></trkpt><trkpt lat="46.0827061" lon="9.0920492"><ele>1426.0</ele><time>2026-04-09T10:49:57.511Z</time></trkpt><trkpt lat="46.0827249" lon="9.0919018"><ele>1427.0</ele><time>2026-04-09T10:49:58.51Z</time></trkpt><trkpt lat="46.082738" lon="9.0917552"><ele>1428.0</ele><time>2026-04-09T10:49:59.511Z</time></trkpt><trkpt lat="46.0827491" lon="9.091605"><ele>1429.3333333333333</ele><time>2026-04-09T10:50:00.51Z</time></trkpt><trkpt lat="46.0827591" lon="9.0914612"><ele>1430.6666666666667</ele><time>2026-04-09T10:50:01.51Z</time></trkpt><trkpt lat="46.0827744" lon="9.0913425"><ele>1432.0</ele><time>2026-04-09T10:50:02.511Z</time></trkpt><trkpt lat="46.0827932" lon="9.091242"><ele>1433.3333333333335</ele><time>2026-04-09T10:50:03.51Z</time></trkpt><trkpt lat="46.0828247" lon="9.0910912"><ele>1434.6666666666667</ele><time>2026-04-09T10:50:05.509Z</time></trkpt><trkpt lat="46.0828347" lon="9.0909808"><ele>1436.0</ele><time>2026-04-09T10:50:07.51Z</time></trkpt><trkpt lat="46.0828577" lon="9.0908376"><ele>1439.75</ele><time>2026-04-09T10:50:09.51Z</time></trkpt><trkpt lat="46.0828978" lon="9.0906744"><ele>1443.5</ele><time>2026-04-09T10:50:11.51Z</time></trkpt><trkpt lat="46.0828997" lon="9.0905271"><ele>1447.25</ele><time>2026-04-09T10:50:13.51Z</time></trkpt><trkpt lat="46.0828936" lon="9.0902518"><ele>1451.0</ele><time>2026-04-09T10:50:16.511Z</time></trkpt><trkpt lat="46.0828791" lon="9.0900956"><ele>1451.0</ele><time>2026-04-09T10:50:18.511Z</time></trkpt><trkpt lat="46.0828307" lon="9.0899629"><ele>1451.0</ele><time>2026-04-09T10:50:20.51Z</time></trkpt><trkpt lat="46.0827784" lon="9.0898341"><ele>1451.0</ele><time>2026-04-09T10:50:22.511Z</time></trkpt><trkpt lat="46.0826881" lon="9.0896734"><ele>1451.0</ele><time>2026-04-09T10:50:24.509Z</time></trkpt><trkpt lat="46.0826336" lon="9.0896064"><ele>1451.0</ele><time>2026-04-09T10:50:25.511Z</time></trkpt><trkpt lat="46.0825819" lon="9.0895413"><ele>1450.4285714285716</ele><time>2026-04-09T10:50:26.51Z</time></trkpt><trkpt lat="46.0825322" lon="9.0894587"><ele>1449.8571428571427</ele><time>2026-04-09T10:50:27.509Z</time></trkpt><trkpt lat="46.0824836" lon="9.0893596"><ele>1449.2857142857142</ele><time>2026-04-09T10:50:28.51Z</time></trkpt><trkpt lat="46.0824423" lon="9.0892638"><ele>1448.7142857142858</ele><time>2026-04-09T10:50:29.51Z</time></trkpt><trkpt lat="46.0824064" lon="9.089187"><ele>1448.1428571428573</ele><time>2026-04-09T10:50:30.511Z</time></trkpt><trkpt lat="46.0823703" lon="9.0891016"><ele>1447.5714285714284</ele><time>2026-04-09T10:50:31.511Z</time></trkpt><trkpt lat="46.0823312" lon="9.0890224"><ele>1447.0</ele><time>2026-04-09T10:50:32.51Z</time></trkpt><trkpt lat="46.0822927" lon="9.088928"><ele>1450.3999999999999</ele><time>2026-04-09T10:50:33.51Z</time></trkpt><trkpt lat="46.0822377" lon="9.0888462"><ele>1453.8</ele><time>2026-04-09T10:50:34.51Z</time></trkpt><trkpt lat="46.0821328" lon="9.0886802"><ele>1457.2</ele><time>2026-04-09T10:50:36.511Z</time></trkpt><trkpt lat="46.0820807" lon="9.0886063"><ele>1460.6</ele><time>2026-04-09T10:50:37.511Z</time></trkpt><trkpt lat="46.0820246" lon="9.0885319"><ele>1464.0</ele><time>2026-04-09T10:50:38.51Z</time></trkpt><trkpt lat="46.0819711" lon="9.0884518"><ele>1464.0</ele><time>2026-04-09T10:50:39.511Z</time></trkpt><trkpt lat="46.0819232" lon="9.0883753"><ele>1464.0</ele><time>2026-04-09T10:50:40.51Z</time></trkpt><trkpt lat="46.0818692" lon="9.0882692"><ele>1464.0</ele><time>2026-04-09T10:50:42.51Z</time></trkpt><trkpt lat="46.0818273" lon="9.0881613"><ele>1464.0</ele><time>2026-04-09T10:50:45.51Z</time></trkpt><trkpt lat="46.0818994" lon="9.0881598"><ele>1464.0</ele><time>2026-04-09T10:51:04.509Z</time></trkpt><trkpt lat="46.0820613" lon="9.0883196"><ele>1464.0</ele><time>2026-04-09T10:51:07.509Z</time></trkpt><trkpt lat="46.0821442" lon="9.0883754"><ele>1464.0</ele><time>2026-04-09T10:51:08.51Z</time></trkpt><trkpt lat="46.0822217" lon="9.0884285"><ele>1464.0</ele><time>2026-04-09T10:51:09.509Z</time></trkpt><trkpt lat="46.0822893" lon="9.0884882"><ele>1464.0</ele><time>2026-04-09T10:51:10.509Z</time></trkpt><trkpt lat="46.0823575" lon="9.0885564"><ele>1464.0</ele><time>2026-04-09T10:51:11.509Z</time></trkpt><trkpt lat="46.0824259" lon="9.088633"><ele>1464.0</ele><time>2026-04-09T10:51:12.51Z</time></trkpt><trkpt lat="46.0824809" lon="9.0887166"><ele>1465.4</ele><time>2026-04-09T10:51:13.509Z</time></trkpt><trkpt lat="46.0825528" lon="9.0888046"><ele>1466.8000000000002</ele><time>2026-04-09T10:51:14.509Z</time></trkpt><trkpt lat="46.0826223" lon="9.0888727"><ele>1468.1999999999998</ele><time>2026-04-09T10:51:15.509Z</time></trkpt><trkpt lat="46.0827025" lon="9.0889434"><ele>1469.6</ele><time>2026-04-09T10:51:16.508Z</time></trkpt><trkpt lat="46.0827711" lon="9.0890158"><ele>1471.0</ele><time>2026-04-09T10:51:17.51Z</time></trkpt><trkpt lat="46.0828531" lon="9.0890931"><ele>1471.0</ele><time>2026-04-09T10:51:18.509Z</time></trkpt><trkpt lat="46.0829607" lon="9.0891765"><ele>1471.0</ele><time>2026-04-09T10:51:19.509Z</time></trkpt><trkpt lat="46.0830338" lon="9.089242"><ele>1471.0</ele><time>2026-04-09T10:51:20.509Z</time></trkpt><trkpt lat="46.0831032" lon="9.0893248"><ele>1471.0</ele><time>2026-04-09T10:51:21.509Z</time></trkpt><trkpt lat="46.0831962" lon="9.0894184"><ele>1471.0</ele><time>2026-04-09T10:51:22.509Z</time></trkpt><trkpt lat="46.0832834" lon="9.0895137"><ele>1474.5</ele><time>2026-04-09T10:51:23.509Z</time></trkpt><trkpt lat="46.0833751" lon="9.0896132"><ele>1478.0</ele><time>2026-04-09T10:51:24.509Z</time></trkpt><trkpt lat="46.0834656" lon="9.0897262"><ele>1481.5</ele><time>2026-04-09T10:51:25.51Z</time></trkpt><trkpt lat="46.0835954" lon="9.0898729"><ele>1485.0</ele><time>2026-04-09T10:51:27.509Z</time></trkpt><trkpt lat="46.0836458" lon="9.0899457"><ele>1485.0</ele><time>2026-04-09T10:51:28.51Z</time></trkpt><trkpt lat="46.0836935" lon="9.0900406"><ele>1485.0</ele><time>2026-04-09T10:51:29.509Z</time></trkpt><trkpt lat="46.0837496" lon="9.0901469"><ele>1485.0</ele><time>2026-04-09T10:51:30.51Z</time></trkpt><trkpt lat="46.083807" lon="9.0902095"><ele>1485.0</ele><time>2026-04-09T10:51:31.51Z</time></trkpt><trkpt lat="46.0838723" lon="9.0902664"><ele>1485.0</ele><time>2026-04-09T10:51:32.509Z</time></trkpt><trkpt lat="46.0839715" lon="9.0903745"><ele>1485.0</ele><time>2026-04-09T10:51:34.509Z</time></trkpt><trkpt lat="46.0840305" lon="9.0904172"><ele>1493.75</ele><time>2026-04-09T10:51:35.509Z</time></trkpt><trkpt lat="46.0841237" lon="9.0904575"><ele>1502.5</ele><time>2026-04-09T10:51:37.51Z</time></trkpt><trkpt lat="46.0841955" lon="9.0904651"><ele>1511.25</ele><time>2026-04-09T10:51:46.51Z</time></trkpt><trkpt lat="46.0843971" lon="9.0906107"><ele>1520.0</ele><time>2026-04-09T10:51:50.51Z</time></trkpt><trkpt lat="46.0845098" lon="9.0906674"><ele>1520.8333333333335</ele><time>2026-04-09T10:51:52.509Z</time></trkpt><trkpt lat="46.0846204" lon="9.0907603"><ele>1521.6666666666667</ele><time>2026-04-09T10:51:54.51Z</time></trkpt><trkpt lat="46.0846798" lon="9.0908007"><ele>1522.5</ele><time>2026-04-09T10:51:55.51Z</time></trkpt><trkpt lat="46.0847531" lon="9.0908596"><ele>1523.3333333333333</ele><time>2026-04-09T10:51:57.509Z</time></trkpt><trkpt lat="46.0848055" lon="9.0909169"><ele>1524.1666666666665</ele><time>2026-04-09T10:51:59.51Z</time></trkpt><trkpt lat="46.0848968" lon="9.0909874"><ele>1525.0</ele><time>2026-04-09T10:52:01.509Z</time></trkpt><trkpt lat="46.0850021" lon="9.0909957"><ele>1525.0</ele><time>2026-04-09T10:52:03.508Z</time></trkpt><trkpt lat="46.0851013" lon="9.0909432"><ele>1525.0</ele><time>2026-04-09T10:52:05.508Z</time></trkpt><trkpt lat="46.0851795" lon="9.0908254"><ele>1525.0</ele><time>2026-04-09T10:52:07.509Z</time></trkpt><trkpt lat="46.0852999" lon="9.0905895"><ele>1525.0</ele><time>2026-04-09T10:52:10.509Z</time></trkpt><trkpt lat="46.0853426" lon="9.0905109"><ele>1527.3333333333333</ele><time>2026-04-09T10:52:11.508Z</time></trkpt><trkpt lat="46.0854226" lon="9.0903899"><ele>1529.6666666666665</ele><time>2026-04-09T10:52:13.509Z</time></trkpt><trkpt lat="46.0854707" lon="9.0903191"><ele>1532.0</ele><time>2026-04-09T10:52:14.509Z</time></trkpt><trkpt lat="46.0855145" lon="9.0902447"><ele>1534.3333333333333</ele><time>2026-04-09T10:52:15.509Z</time></trkpt><trkpt lat="46.0855667" lon="9.0901826"><ele>1536.6666666666667</ele><time>2026-04-09T10:52:16.509Z</time></trkpt><trkpt lat="46.0856251" lon="9.090122"><ele>1539.0</ele><time>2026-04-09T10:52:17.509Z</time></trkpt><trkpt lat="46.0856878" lon="9.0900674"><ele>1539.0</ele><time>2026-04-09T10:52:18.509Z</time></trkpt><trkpt lat="46.0857511" lon="9.0900094"><ele>1539.0</ele><time>2026-04-09T10:52:19.509Z</time></trkpt><trkpt lat="46.0858517" lon="9.0899454"><ele>1539.0</ele><time>2026-04-09T10:52:21.509Z</time></trkpt><trkpt lat="46.0859481" lon="9.0899443"><ele>1539.0</ele><time>2026-04-09T10:52:23.509Z</time></trkpt><trkpt lat="46.0860295" lon="9.0899682"><ele>1539.0</ele><time>2026-04-09T10:52:25.508Z</time></trkpt><trkpt lat="46.0861125" lon="9.0899532"><ele>1539.0</ele><time>2026-04-09T10:52:27.509Z</time></trkpt><trkpt lat="46.0861769" lon="9.0898758"><ele>1538.6</ele><time>2026-04-09T10:52:30.508Z</time></trkpt><trkpt lat="46.086239" lon="9.0897037"><ele>1538.2</ele><time>2026-04-09T10:52:44.507Z</time></trkpt><trkpt lat="46.0863007" lon="9.0896737"><ele>1537.8</ele><time>2026-04-09T10:52:46.508Z</time></trkpt><trkpt lat="46.0863939" lon="9.0897187"><ele>1537.3999999999999</ele><time>2026-04-09T10:52:48.508Z</time></trkpt><trkpt lat="46.0865055" lon="9.0897783"><ele>1537.0</ele><time>2026-04-09T10:52:50.508Z</time></trkpt><trkpt lat="46.0866015" lon="9.0897991"><ele>1537.0000000000002</ele><time>2026-04-09T10:52:52.508Z</time></trkpt><trkpt lat="46.0866998" lon="9.0896888"><ele>1537.0</ele><time>2026-04-09T10:53:03.509Z</time></trkpt><trkpt lat="46.0866743" lon="9.0896057"><ele>1537.0</ele><time>2026-04-09T10:53:05.508Z</time></trkpt><trkpt lat="46.0866536" lon="9.0895139"><ele>1537.0</ele><time>2026-04-09T10:57:08.505Z</time></trkpt><trkpt lat="46.0866659" lon="9.0896803"><ele>1537.0000000000002</ele><time>2026-04-09T11:01:16.505Z</time></trkpt><trkpt lat="46.0867101" lon="9.089752"><ele>1537.0</ele><time>2026-04-09T11:01:20.505Z</time></trkpt><trkpt lat="46.0867445" lon="9.0898616"><ele>1537.0</ele><time>2026-04-09T11:01:23.505Z</time></trkpt><trkpt lat="46.0868401" lon="9.0899212"><ele>1537.0</ele><time>2026-04-09T11:01:25.504Z</time></trkpt><trkpt lat="46.0869477" lon="9.0899731"><ele>1537.0</ele><time>2026-04-09T11:01:27.505Z</time></trkpt><trkpt lat="46.0870548" lon="9.0900006"><ele>1537.0</ele><time>2026-04-09T11:01:29.503Z</time></trkpt><trkpt lat="46.0871723" lon="9.0899966"><ele>1537.0</ele><time>2026-04-09T11:01:31.504Z</time></trkpt><trkpt lat="46.0873373" lon="9.0899476"><ele>1538.6</ele><time>2026-04-09T11:01:34.503Z</time></trkpt><trkpt lat="46.0874375" lon="9.0899244"><ele>1540.1999999999998</ele><time>2026-04-09T11:01:36.505Z</time></trkpt><trkpt lat="46.087527" lon="9.0899892"><ele>1541.8</ele><time>2026-04-09T11:01:38.503Z</time></trkpt><trkpt lat="46.0875814" lon="9.0901289"><ele>1543.4</ele><time>2026-04-09T11:01:40.505Z</time></trkpt><trkpt lat="46.0876339" lon="9.0902295"><ele>1545.0</ele><time>2026-04-09T11:01:42.504Z</time></trkpt><trkpt lat="46.0877317" lon="9.0902697"><ele>1546.6</ele><time>2026-04-09T11:01:44.505Z</time></trkpt><trkpt lat="46.0878547" lon="9.0902713"><ele>1548.2</ele><time>2026-04-09T11:01:46.504Z</time></trkpt><trkpt lat="46.0879507" lon="9.0902692"><ele>1549.8000000000002</ele><time>2026-04-09T11:01:48.505Z</time></trkpt><trkpt lat="46.0880161" lon="9.0902758"><ele>1551.4</ele><time>2026-04-09T11:01:49.504Z</time></trkpt><trkpt lat="46.0881319" lon="9.0902885"><ele>1553.0</ele><time>2026-04-09T11:01:51.504Z</time></trkpt><trkpt lat="46.0882455" lon="9.0903257"><ele>1555.0</ele><time>2026-04-09T11:01:53.504Z</time></trkpt><trkpt lat="46.0884358" lon="9.0903326"><ele>1557.0</ele><time>2026-04-09T11:01:56.504Z</time></trkpt><trkpt lat="46.0885034" lon="9.0903286"><ele>1559.0</ele><time>2026-04-09T11:01:57.504Z</time></trkpt><trkpt lat="46.0885723" lon="9.0903195"><ele>1561.0</ele><time>2026-04-09T11:01:58.504Z</time></trkpt><trkpt lat="46.088645" lon="9.0903027"><ele>1563.0</ele><time>2026-04-09T11:01:59.504Z</time></trkpt><trkpt lat="46.0887124" lon="9.0902838"><ele>1563.0</ele><time>2026-04-09T11:02:00.503Z</time></trkpt><trkpt lat="46.088782" lon="9.0902685"><ele>1563.0</ele><time>2026-04-09T11:02:01.504Z</time></trkpt><trkpt lat="46.0888574" lon="9.0902565"><ele>1563.0</ele><time>2026-04-09T11:02:02.505Z</time></trkpt><trkpt lat="46.0889304" lon="9.09026"><ele>1563.0</ele><time>2026-04-09T11:02:03.505Z</time></trkpt><trkpt lat="46.0889969" lon="9.0902675"><ele>1563.0</ele><time>2026-04-09T11:02:04.505Z</time></trkpt><trkpt lat="46.0891235" lon="9.0902403"><ele>1563.0</ele><time>2026-04-09T11:02:06.504Z</time></trkpt><trkpt lat="46.0891971" lon="9.0902269"><ele>1564.3333333333333</ele><time>2026-04-09T11:02:07.504Z</time></trkpt><trkpt lat="46.0892697" lon="9.0902254"><ele>1565.6666666666665</ele><time>2026-04-09T11:02:08.505Z</time></trkpt><trkpt lat="46.0893373" lon="9.0902332"><ele>1567.0</ele><time>2026-04-09T11:02:09.504Z</time></trkpt><trkpt lat="46.0894053" lon="9.0902544"><ele>1568.3333333333333</ele><time>2026-04-09T11:02:10.505Z</time></trkpt><trkpt lat="46.0894697" lon="9.0902687"><ele>1569.6666666666665</ele><time>2026-04-09T11:02:11.503Z</time></trkpt><trkpt lat="46.0895841" lon="9.0902573"><ele>1571.0</ele><time>2026-04-09T11:02:13.505Z</time></trkpt><trkpt lat="46.0896982" lon="9.0901886"><ele>1571.0</ele><time>2026-04-09T11:02:15.505Z</time></trkpt><trkpt lat="46.0898172" lon="9.09004"><ele>1571.0</ele><time>2026-04-09T11:02:18.505Z</time></trkpt><trkpt lat="46.0898687" lon="9.0899587"><ele>1571.0</ele><time>2026-04-09T11:02:19.505Z</time></trkpt><trkpt lat="46.089921" lon="9.08988"><ele>1571.0</ele><time>2026-04-09T11:02:20.503Z</time></trkpt><trkpt lat="46.0899744" lon="9.0897995"><ele>1571.0</ele><time>2026-04-09T11:02:21.504Z</time></trkpt><trkpt lat="46.0900241" lon="9.0897208"><ele>1573.3333333333333</ele><time>2026-04-09T11:02:22.505Z</time></trkpt><trkpt lat="46.0900801" lon="9.0896396"><ele>1575.6666666666665</ele><time>2026-04-09T11:02:23.504Z</time></trkpt><trkpt lat="46.0901393" lon="9.089563"><ele>1578.0</ele><time>2026-04-09T11:02:24.505Z</time></trkpt><trkpt lat="46.0901927" lon="9.0894973"><ele>1580.3333333333335</ele><time>2026-04-09T11:02:25.504Z</time></trkpt><trkpt lat="46.0902436" lon="9.0894288"><ele>1582.6666666666667</ele><time>2026-04-09T11:02:26.504Z</time></trkpt><trkpt lat="46.0903141" lon="9.0893313"><ele>1585.0</ele><time>2026-04-09T11:02:28.503Z</time></trkpt><trkpt lat="46.0903814" lon="9.0892455"><ele>1585.0</ele><time>2026-04-09T11:02:30.503Z</time></trkpt><trkpt lat="46.090454" lon="9.0891753"><ele>1585.0</ele><time>2026-04-09T11:02:32.505Z</time></trkpt><trkpt lat="46.0905171" lon="9.0891223"><ele>1585.0</ele><time>2026-04-09T11:02:34.505Z</time></trkpt><trkpt lat="46.0906126" lon="9.0890744"><ele>1585.0</ele><time>2026-04-09T11:02:36.505Z</time></trkpt><trkpt lat="46.0908065" lon="9.0890548"><ele>1586.1666666666667</ele><time>2026-04-09T11:02:40.503Z</time></trkpt><trkpt lat="46.0908896" lon="9.0890161"><ele>1587.3333333333335</ele><time>2026-04-09T11:02:42.504Z</time></trkpt><trkpt lat="46.0909947" lon="9.0889518"><ele>1588.5</ele><time>2026-04-09T11:02:44.503Z</time></trkpt><trkpt lat="46.0910542" lon="9.0889119"><ele>1589.6666666666665</ele><time>2026-04-09T11:02:45.505Z</time></trkpt><trkpt lat="46.0911134" lon="9.0888706"><ele>1590.8333333333333</ele><time>2026-04-09T11:02:46.504Z</time></trkpt><trkpt lat="46.0911704" lon="9.0888255"><ele>1592.0</ele><time>2026-04-09T11:02:47.505Z</time></trkpt><trkpt lat="46.0912665" lon="9.0887346"><ele>1592.0</ele><time>2026-04-09T11:02:49.505Z</time></trkpt><trkpt lat="46.0913456" lon="9.0886496"><ele>1592.0</ele><time>2026-04-09T11:02:51.504Z</time></trkpt><trkpt lat="46.0914384" lon="9.0885974"><ele>1592.0</ele><time>2026-04-09T11:02:53.504Z</time></trkpt><trkpt lat="46.0915168" lon="9.0885426"><ele>1592.0</ele><time>2026-04-09T11:02:55.505Z</time></trkpt><trkpt lat="46.0916039" lon="9.0884792"><ele>1592.0</ele><time>2026-04-09T11:02:57.504Z</time></trkpt><trkpt lat="46.0917573" lon="9.0883602"><ele>1592.8</ele><time>2026-04-09T11:03:00.504Z</time></trkpt><trkpt lat="46.0918373" lon="9.0882892"><ele>1593.6</ele><time>2026-04-09T11:03:02.504Z</time></trkpt><trkpt lat="46.0919422" lon="9.0882334"><ele>1594.3999999999999</ele><time>2026-04-09T11:03:04.504Z</time></trkpt><trkpt lat="46.0920523" lon="9.0882309"><ele>1595.1999999999998</ele><time>2026-04-09T11:03:06.504Z</time></trkpt><trkpt lat="46.0921666" lon="9.0882636"><ele>1596.0</ele><time>2026-04-09T11:03:08.505Z</time></trkpt><trkpt lat="46.0922907" lon="9.0882564"><ele>1597.1666666666667</ele><time>2026-04-09T11:03:10.504Z</time></trkpt><trkpt lat="46.0923989" lon="9.0882346"><ele>1598.3333333333335</ele><time>2026-04-09T11:03:12.504Z</time></trkpt><trkpt lat="46.0925267" lon="9.0882173"><ele>1599.5</ele><time>2026-04-09T11:03:14.505Z</time></trkpt><trkpt lat="46.0925947" lon="9.0882079"><ele>1600.6666666666667</ele><time>2026-04-09T11:03:15.504Z</time></trkpt><trkpt lat="46.092659" lon="9.0882067"><ele>1601.8333333333335</ele><time>2026-04-09T11:03:16.504Z</time></trkpt><trkpt lat="46.0927256" lon="9.0882063"><ele>1603.0</ele><time>2026-04-09T11:03:17.505Z</time></trkpt><trkpt lat="46.092797" lon="9.0881987"><ele>1605.6000000000001</ele><time>2026-04-09T11:03:18.505Z</time></trkpt><trkpt lat="46.0929888" lon="9.0881724"><ele>1608.2</ele><time>2026-04-09T11:03:21.505Z</time></trkpt><trkpt lat="46.0930561" lon="9.0881709"><ele>1610.8</ele><time>2026-04-09T11:03:22.504Z</time></trkpt><trkpt lat="46.0931232" lon="9.0881767"><ele>1613.4</ele><time>2026-04-09T11:03:23.504Z</time></trkpt><trkpt lat="46.0931887" lon="9.088181"><ele>1616.0</ele><time>2026-04-09T11:03:24.505Z</time></trkpt><trkpt lat="46.0932532" lon="9.0881791"><ele>1617.6666666666665</ele><time>2026-04-09T11:03:25.503Z</time></trkpt><trkpt lat="46.0933198" lon="9.0881761"><ele>1619.3333333333333</ele><time>2026-04-09T11:03:26.505Z</time></trkpt><trkpt lat="46.0933898" lon="9.0881781"><ele>1621.0</ele><time>2026-04-09T11:03:27.504Z</time></trkpt><trkpt lat="46.0934624" lon="9.0881817"><ele>1622.6666666666665</ele><time>2026-04-09T11:03:28.503Z</time></trkpt><trkpt lat="46.0935335" lon="9.0881827"><ele>1624.3333333333333</ele><time>2026-04-09T11:03:29.504Z</time></trkpt><trkpt lat="46.0936491" lon="9.0881882"><ele>1626.0</ele><time>2026-04-09T11:03:31.505Z</time></trkpt><trkpt lat="46.0937309" lon="9.0881785"><ele>1626.0</ele><time>2026-04-09T11:03:33.504Z</time></trkpt><trkpt lat="46.093823" lon="9.0881606"><ele>1626.0</ele><time>2026-04-09T11:03:35.504Z</time></trkpt><trkpt lat="46.0939031" lon="9.088134"><ele>1626.0</ele><time>2026-04-09T11:03:38.504Z</time></trkpt><trkpt lat="46.0939672" lon="9.0880959"><ele>1626.0</ele><time>2026-04-09T11:03:41.504Z</time></trkpt><trkpt lat="46.0941349" lon="9.0880192"><ele>1626.0</ele><time>2026-04-09T11:03:45.504Z</time></trkpt><trkpt lat="46.0942063" lon="9.0879858"><ele>1625.1666666666667</ele><time>2026-04-09T11:03:48.504Z</time></trkpt><trkpt lat="46.0942774" lon="9.0879493"><ele>1624.3333333333335</ele><time>2026-04-09T11:03:50.504Z</time></trkpt><trkpt lat="46.0943549" lon="9.0879087"><ele>1623.5</ele><time>2026-04-09T11:03:52.504Z</time></trkpt><trkpt lat="46.0944469" lon="9.0878753"><ele>1622.6666666666667</ele><time>2026-04-09T11:03:54.504Z</time></trkpt><trkpt lat="46.0945329" lon="9.0879006"><ele>1621.8333333333335</ele><time>2026-04-09T11:03:56.503Z</time></trkpt><trkpt lat="46.0946165" lon="9.0879699"><ele>1621.0</ele><time>2026-04-09T11:03:58.503Z</time></trkpt><trkpt lat="46.0947096" lon="9.0880303"><ele>1621.0</ele><time>2026-04-09T11:04:00.503Z</time></trkpt><trkpt lat="46.0948273" lon="9.0880904"><ele>1621.0</ele><time>2026-04-09T11:04:02.504Z</time></trkpt><trkpt lat="46.0949577" lon="9.088144"><ele>1621.0</ele><time>2026-04-09T11:04:04.502Z</time></trkpt><trkpt lat="46.0950246" lon="9.0881697"><ele>1621.0</ele><time>2026-04-09T11:04:05.503Z</time></trkpt><trkpt lat="46.0950875" lon="9.0881831"><ele>1621.0</ele><time>2026-04-09T11:04:06.503Z</time></trkpt><trkpt lat="46.0952022" lon="9.0882019"><ele>1622.0</ele><time>2026-04-09T11:04:08.503Z</time></trkpt><trkpt lat="46.0953221" lon="9.0882123"><ele>1623.0</ele><time>2026-04-09T11:04:10.502Z</time></trkpt><trkpt lat="46.0954259" lon="9.0882082"><ele>1624.0</ele><time>2026-04-09T11:04:12.502Z</time></trkpt><trkpt lat="46.0955197" lon="9.0882448"><ele>1625.0</ele><time>2026-04-09T11:04:14.504Z</time></trkpt><trkpt lat="46.095613" lon="9.0883252"><ele>1626.0</ele><time>2026-04-09T11:04:16.503Z</time></trkpt><trkpt lat="46.0957211" lon="9.0884001"><ele>1621.25</ele><time>2026-04-09T11:04:18.504Z</time></trkpt><trkpt lat="46.0958349" lon="9.0884387"><ele>1616.5</ele><time>2026-04-09T11:04:20.503Z</time></trkpt><trkpt lat="46.0959414" lon="9.0884421"><ele>1611.75</ele><time>2026-04-09T11:04:22.503Z</time></trkpt><trkpt lat="46.0960554" lon="9.0884796"><ele>1607.0</ele><time>2026-04-09T11:04:24.503Z</time></trkpt><trkpt lat="46.0962712" lon="9.0885031"><ele>1607.0</ele><time>2026-04-09T11:04:28.503Z</time></trkpt><trkpt lat="46.0963752" lon="9.0885242"><ele>1607.0</ele><time>2026-04-09T11:04:30.504Z</time></trkpt><trkpt lat="46.0964466" lon="9.0885639"><ele>1607.0</ele><time>2026-04-09T11:04:32.503Z</time></trkpt><trkpt lat="46.096542" lon="9.0886146"><ele>1607.0</ele><time>2026-04-09T11:04:34.504Z</time></trkpt><trkpt lat="46.096603" lon="9.088648"><ele>1607.0</ele><time>2026-04-09T11:04:35.503Z</time></trkpt><trkpt lat="46.0966948" lon="9.0887149"><ele>1610.0</ele><time>2026-04-09T11:04:37.503Z</time></trkpt><trkpt lat="46.096791" lon="9.0887755"><ele>1613.0</ele><time>2026-04-09T11:04:39.504Z</time></trkpt><trkpt lat="46.0968964" lon="9.0888413"><ele>1616.0</ele><time>2026-04-09T11:04:41.504Z</time></trkpt><trkpt lat="46.0969986" lon="9.088928"><ele>1619.0</ele><time>2026-04-09T11:04:43.503Z</time></trkpt><trkpt lat="46.0970561" lon="9.088983"><ele>1622.0</ele><time>2026-04-09T11:04:44.504Z</time></trkpt><trkpt lat="46.0971531" lon="9.0890884"><ele>1619.3333333333333</ele><time>2026-04-09T11:04:46.503Z</time></trkpt><trkpt lat="46.0973569" lon="9.089245"><ele>1616.6666666666665</ele><time>2026-04-09T11:04:50.503Z</time></trkpt><trkpt lat="46.0974608" lon="9.0892806"><ele>1614.0</ele><time>2026-04-09T11:04:52.503Z</time></trkpt><trkpt lat="46.0975835" lon="9.0892969"><ele>1614.0</ele><time>2026-04-09T11:04:54.504Z</time></trkpt><trkpt lat="46.0976494" lon="9.0893024"><ele>1614.0</ele><time>2026-04-09T11:04:55.504Z</time></trkpt><trkpt lat="46.0977611" lon="9.0893004"><ele>1614.0</ele><time>2026-04-09T11:04:57.502Z</time></trkpt><trkpt lat="46.0978752" lon="9.0892853"><ele>1614.0</ele><time>2026-04-09T11:04:59.504Z</time></trkpt><trkpt lat="46.0979874" lon="9.0892599"><ele>1614.0</ele><time>2026-04-09T11:05:01.503Z</time></trkpt><trkpt lat="46.0980563" lon="9.0892595"><ele>1614.0</ele><time>2026-04-09T11:05:02.503Z</time></trkpt><trkpt lat="46.0981238" lon="9.0892623"><ele>1614.0</ele><time>2026-04-09T11:05:03.502Z</time></trkpt><trkpt lat="46.0982261" lon="9.0892679"><ele>1614.0</ele><time>2026-04-09T11:05:05.504Z</time></trkpt><trkpt lat="46.0983105" lon="9.0892441"><ele>1614.0</ele><time>2026-04-09T11:05:07.503Z</time></trkpt><trkpt lat="46.0982346" lon="9.0890164"><ele>1614.0</ele><time>2026-04-09T11:05:12.503Z</time></trkpt><trkpt lat="46.0982634" lon="9.088876"><ele>1620.4</ele><time>2026-04-09T11:05:15.503Z</time></trkpt><trkpt lat="46.0983618" lon="9.0887907"><ele>1626.8000000000002</ele><time>2026-04-09T11:05:17.503Z</time></trkpt><trkpt lat="46.0984641" lon="9.0887058"><ele>1633.1999999999998</ele><time>2026-04-09T11:05:19.502Z</time></trkpt><trkpt lat="46.0985445" lon="9.088603"><ele>1639.6</ele><time>2026-04-09T11:05:21.503Z</time></trkpt><trkpt lat="46.0985938" lon="9.088471"><ele>1646.0</ele><time>2026-04-09T11:05:23.503Z</time></trkpt><trkpt lat="46.0986468" lon="9.0883616"><ele>1646.0</ele><time>2026-04-09T11:05:25.503Z</time></trkpt><trkpt lat="46.0986951" lon="9.0882945"><ele>1646.0</ele><time>2026-04-09T11:05:28.503Z</time></trkpt><trkpt lat="46.0988257" lon="9.0881627"><ele>1646.0</ele><time>2026-04-09T11:05:33.504Z</time></trkpt><trkpt lat="46.0988923" lon="9.0881067"><ele>1646.0</ele><time>2026-04-09T11:05:35.503Z</time></trkpt><trkpt lat="46.0989955" lon="9.0881122"><ele>1646.0</ele><time>2026-04-09T11:05:38.503Z</time></trkpt><trkpt lat="46.0990916" lon="9.0880748"><ele>1649.1999999999998</ele><time>2026-04-09T11:05:40.503Z</time></trkpt><trkpt lat="46.0991787" lon="9.0880227"><ele>1652.3999999999999</ele><time>2026-04-09T11:05:42.503Z</time></trkpt><trkpt lat="46.0992593" lon="9.087981"><ele>1655.6</ele><time>2026-04-09T11:05:44.504Z</time></trkpt><trkpt lat="46.0993473" lon="9.0879684"><ele>1658.8</ele><time>2026-04-09T11:05:46.502Z</time></trkpt><trkpt lat="46.0994422" lon="9.087964"><ele>1662.0</ele><time>2026-04-09T11:05:48.503Z</time></trkpt><trkpt lat="46.0995462" lon="9.08793"><ele>1662.0</ele><time>2026-04-09T11:05:50.502Z</time></trkpt><trkpt lat="46.0997122" lon="9.0877997"><ele>1662.0</ele><time>2026-04-09T11:05:54.504Z</time></trkpt><trkpt lat="46.0997889" lon="9.0877204"><ele>1662.0</ele><time>2026-04-09T11:05:56.503Z</time></trkpt><trkpt lat="46.0998577" lon="9.0876334"><ele>1662.0</ele><time>2026-04-09T11:05:58.504Z</time></trkpt><trkpt lat="46.0999207" lon="9.0875399"><ele>1662.9999999999998</ele><time>2026-04-09T11:06:00.502Z</time></trkpt><trkpt lat="46.0999628" lon="9.0874118"><ele>1664.0</ele><time>2026-04-09T11:06:02.504Z</time></trkpt><trkpt lat="46.099996" lon="9.087308"><ele>1665.0</ele><time>2026-04-09T11:06:04.503Z</time></trkpt><trkpt lat="46.1000323" lon="9.0871941"><ele>1666.0</ele><time>2026-04-09T11:06:06.503Z</time></trkpt><trkpt lat="46.100083" lon="9.0871025"><ele>1667.0</ele><time>2026-04-09T11:06:08.502Z</time></trkpt><trkpt lat="46.1001099" lon="9.0869933"><ele>1667.9999999999998</ele><time>2026-04-09T11:06:22.502Z</time></trkpt><trkpt lat="46.100093" lon="9.0869916"><ele>1669.0</ele><time>2026-04-09T11:07:58.502Z</time></trkpt><trkpt lat="46.1000082" lon="9.0873282"><ele>1667.8333333333335</ele><time>2026-04-09T11:10:48.501Z</time></trkpt><trkpt lat="46.0999902" lon="9.0874289"><ele>1666.6666666666667</ele><time>2026-04-09T11:10:50.501Z</time></trkpt><trkpt lat="46.0999264" lon="9.08755"><ele>1665.5</ele><time>2026-04-09T11:10:52.501Z</time></trkpt><trkpt lat="46.0998636" lon="9.0876509"><ele>1664.3333333333335</ele><time>2026-04-09T11:10:54.502Z</time></trkpt><trkpt lat="46.0997928" lon="9.0877357"><ele>1663.1666666666667</ele><time>2026-04-09T11:10:56.502Z</time></trkpt><trkpt lat="46.0997287" lon="9.0878087"><ele>1662.0</ele><time>2026-04-09T11:10:58.501Z</time></trkpt><trkpt lat="46.0996374" lon="9.0878844"><ele>1662.0</ele><time>2026-04-09T11:11:00.501Z</time></trkpt><trkpt lat="46.0995584" lon="9.0879397"><ele>1662.0</ele><time>2026-04-09T11:11:02.502Z</time></trkpt><trkpt lat="46.0994816" lon="9.0879723"><ele>1662.0</ele><time>2026-04-09T11:11:04.501Z</time></trkpt><trkpt lat="46.099311" lon="9.0879892"><ele>1662.0</ele><time>2026-04-09T11:11:08.501Z</time></trkpt><trkpt lat="46.099234" lon="9.0879993"><ele>1662.0</ele><time>2026-04-09T11:11:10.501Z</time></trkpt><trkpt lat="46.0991535" lon="9.0880504"><ele>1663.5</ele><time>2026-04-09T11:11:12.501Z</time></trkpt><trkpt lat="46.0990582" lon="9.0880993"><ele>1665.0</ele><time>2026-04-09T11:11:14.502Z</time></trkpt><trkpt lat="46.0989794" lon="9.0881161"><ele>1666.5</ele><time>2026-04-09T11:11:16.501Z</time></trkpt><trkpt lat="46.0989064" lon="9.088113"><ele>1668.0</ele><time>2026-04-09T11:11:18.501Z</time></trkpt><trkpt lat="46.0988449" lon="9.0881526"><ele>1669.5</ele><time>2026-04-09T11:11:20.502Z</time></trkpt><trkpt lat="46.0987699" lon="9.0882339"><ele>1671.0</ele><time>2026-04-09T11:11:22.499Z</time></trkpt><trkpt lat="46.0987014" lon="9.0882874"><ele>1666.0</ele><time>2026-04-09T11:11:24.5Z</time></trkpt><trkpt lat="46.098652" lon="9.0883615"><ele>1661.0</ele><time>2026-04-09T11:11:26.501Z</time></trkpt><trkpt lat="46.0985634" lon="9.0885766"><ele>1656.0</ele><time>2026-04-09T11:11:30.5Z</time></trkpt><trkpt lat="46.0985065" lon="9.0886698"><ele>1651.0</ele><time>2026-04-09T11:11:32.5Z</time></trkpt><trkpt lat="46.098438" lon="9.0887422"><ele>1646.0</ele><time>2026-04-09T11:11:34.5Z</time></trkpt><trkpt lat="46.0983604" lon="9.0888008"><ele>1646.0</ele><time>2026-04-09T11:11:36.499Z</time></trkpt><trkpt lat="46.0982838" lon="9.088853"><ele>1646.0</ele><time>2026-04-09T11:11:38.501Z</time></trkpt><trkpt lat="46.0982293" lon="9.0889248"><ele>1646.0</ele><time>2026-04-09T11:11:40.5Z</time></trkpt><trkpt lat="46.0982208" lon="9.0890195"><ele>1646.0</ele><time>2026-04-09T11:11:42.492Z</time></trkpt><trkpt lat="46.0982739" lon="9.0890867"><ele>1646.0</ele><time>2026-04-09T11:11:44.5Z</time></trkpt><trkpt lat="46.0983429" lon="9.0891281"><ele>1646.0</ele><time>2026-04-09T11:11:46.472Z</time></trkpt><trkpt lat="46.0983869" lon="9.0892162"><ele>1646.0</ele><time>2026-04-09T11:11:48.434Z</time></trkpt><trkpt lat="46.0981955" lon="9.0892782"><ele>1639.6</ele><time>2026-04-09T11:11:52.5Z</time></trkpt><trkpt lat="46.098088" lon="9.0892679"><ele>1633.1999999999998</ele><time>2026-04-09T11:11:54.5Z</time></trkpt><trkpt lat="46.0979825" lon="9.0892748"><ele>1626.8000000000002</ele><time>2026-04-09T11:11:56.501Z</time></trkpt><trkpt lat="46.0978758" lon="9.0892987"><ele>1620.4</ele><time>2026-04-09T11:11:58.501Z</time></trkpt><trkpt lat="46.0977676" lon="9.0893079"><ele>1614.0</ele><time>2026-04-09T11:12:00.501Z</time></trkpt><trkpt lat="46.0976616" lon="9.0893062"><ele>1614.0</ele><time>2026-04-09T11:12:02.5Z</time></trkpt><trkpt lat="46.0975553" lon="9.0893072"><ele>1614.0</ele><time>2026-04-09T11:12:04.501Z</time></trkpt><trkpt lat="46.097451" lon="9.0892807"><ele>1614.0</ele><time>2026-04-09T11:12:06.5Z</time></trkpt><trkpt lat="46.0973524" lon="9.0892351"><ele>1614.0</ele><time>2026-04-09T11:12:08.5Z</time></trkpt><trkpt lat="46.0972537" lon="9.0891608"><ele>1614.0</ele><time>2026-04-09T11:12:10.5Z</time></trkpt><trkpt lat="46.0970584" lon="9.0889856"><ele>1616.0</ele><time>2026-04-09T11:12:14.5Z</time></trkpt><trkpt lat="46.0969689" lon="9.0889011"><ele>1618.0</ele><time>2026-04-09T11:12:16.501Z</time></trkpt><trkpt lat="46.096871" lon="9.0888372"><ele>1620.0</ele><time>2026-04-09T11:12:18.499Z</time></trkpt><trkpt lat="46.0967641" lon="9.0887727"><ele>1622.0</ele><time>2026-04-09T11:12:20.5Z</time></trkpt><trkpt lat="46.0966563" lon="9.088697"><ele>1619.0</ele><time>2026-04-09T11:12:22.501Z</time></trkpt><trkpt lat="46.0965657" lon="9.0886375"><ele>1616.0</ele><time>2026-04-09T11:12:24.5Z</time></trkpt><trkpt lat="46.0964818" lon="9.08859"><ele>1613.0</ele><time>2026-04-09T11:12:26.501Z</time></trkpt><trkpt lat="46.0963989" lon="9.0885468"><ele>1610.0</ele><time>2026-04-09T11:12:28.501Z</time></trkpt><trkpt lat="46.0963118" lon="9.0885146"><ele>1607.0</ele><time>2026-04-09T11:12:30.501Z</time></trkpt><trkpt lat="46.0962029" lon="9.0885115"><ele>1607.0</ele><time>2026-04-09T11:12:32.501Z</time></trkpt><trkpt lat="46.0959711" lon="9.0884665"><ele>1607.0</ele><time>2026-04-09T11:12:36.5Z</time></trkpt><trkpt lat="46.0958633" lon="9.0884601"><ele>1607.0</ele><time>2026-04-09T11:12:38.501Z</time></trkpt><trkpt lat="46.0957595" lon="9.0884381"><ele>1607.0</ele><time>2026-04-09T11:12:40.5Z</time></trkpt><trkpt lat="46.0956655" lon="9.0883732"><ele>1603.3999999999999</ele><time>2026-04-09T11:12:42.501Z</time></trkpt><trkpt lat="46.095569" lon="9.0882819"><ele>1599.8</ele><time>2026-04-09T11:12:44.5Z</time></trkpt><trkpt lat="46.095478" lon="9.0882123"><ele>1596.2</ele><time>2026-04-09T11:12:46.501Z</time></trkpt><trkpt lat="46.0953557" lon="9.0882155"><ele>1592.6</ele><time>2026-04-09T11:12:48.5Z</time></trkpt><trkpt lat="46.0952909" lon="9.0882189"><ele>1589.0</ele><time>2026-04-09T11:12:49.5Z</time></trkpt><trkpt lat="46.0951755" lon="9.0882103"><ele>1595.4</ele><time>2026-04-09T11:12:51.5Z</time></trkpt><trkpt lat="46.0951115" lon="9.0881967"><ele>1601.8000000000002</ele><time>2026-04-09T11:12:52.5Z</time></trkpt><trkpt lat="46.0950064" lon="9.0881675"><ele>1608.1999999999998</ele><time>2026-04-09T11:12:54.501Z</time></trkpt><trkpt lat="46.0948166" lon="9.0881045"><ele>1614.6</ele><time>2026-04-09T11:12:57.5Z</time></trkpt><trkpt lat="46.0947549" lon="9.0880848"><ele>1621.0</ele><time>2026-04-09T11:12:58.5Z</time></trkpt><trkpt lat="46.0946385" lon="9.0880039"><ele>1621.0000000000002</ele><time>2026-04-09T11:13:00.5Z</time></trkpt><trkpt lat="46.0945493" lon="9.0879146"><ele>1621.0</ele><time>2026-04-09T11:13:02.501Z</time></trkpt><trkpt lat="46.0944546" lon="9.087881"><ele>1621.0</ele><time>2026-04-09T11:13:04.5Z</time></trkpt><trkpt lat="46.0943523" lon="9.0879399"><ele>1621.0</ele><time>2026-04-09T11:13:06.501Z</time></trkpt><trkpt lat="46.0942898" lon="9.0879689"><ele>1621.0000000000002</ele><time>2026-04-09T11:13:07.501Z</time></trkpt><trkpt lat="46.0942249" lon="9.087996"><ele>1621.0</ele><time>2026-04-09T11:13:08.501Z</time></trkpt><trkpt lat="46.0941533" lon="9.0880301"><ele>1621.0</ele><time>2026-04-09T11:13:09.499Z</time></trkpt><trkpt lat="46.0940923" lon="9.0880625"><ele>1621.0</ele><time>2026-04-09T11:13:10.499Z</time></trkpt><trkpt lat="46.0939869" lon="9.0881156"><ele>1621.0</ele><time>2026-04-09T11:13:12.501Z</time></trkpt><trkpt lat="46.0938911" lon="9.0881606"><ele>1621.0</ele><time>2026-04-09T11:13:14.501Z</time></trkpt><trkpt lat="46.0937939" lon="9.0881942"><ele>1621.0</ele><time>2026-04-09T11:13:16.501Z</time></trkpt><trkpt lat="46.0936068" lon="9.0881942"><ele>1621.7142857142858</ele><time>2026-04-09T11:13:21.499Z</time></trkpt><trkpt lat="46.0935425" lon="9.0881928"><ele>1622.4285714285716</ele><time>2026-04-09T11:13:22.5Z</time></trkpt><trkpt lat="46.0934758" lon="9.0881912"><ele>1623.1428571428573</ele><time>2026-04-09T11:13:23.499Z</time></trkpt><trkpt lat="46.0934015" lon="9.088186"><ele>1623.857142857143</ele><time>2026-04-09T11:13:24.5Z</time></trkpt><trkpt lat="46.0933271" lon="9.0881831"><ele>1624.5714285714284</ele><time>2026-04-09T11:13:25.499Z</time></trkpt><trkpt lat="46.0932582" lon="9.0881841"><ele>1625.2857142857144</ele><time>2026-04-09T11:13:26.501Z</time></trkpt><trkpt lat="46.0931868" lon="9.0881851"><ele>1626.0</ele><time>2026-04-09T11:13:27.501Z</time></trkpt><trkpt lat="46.0931229" lon="9.0881863"><ele>1624.0</ele><time>2026-04-09T11:13:28.5Z</time></trkpt><trkpt lat="46.0929968" lon="9.0881812"><ele>1622.0</ele><time>2026-04-09T11:13:30.501Z</time></trkpt><trkpt lat="46.0928696" lon="9.0881986"><ele>1620.0</ele><time>2026-04-09T11:13:32.501Z</time></trkpt><trkpt lat="46.0927967" lon="9.0882091"><ele>1618.0</ele><time>2026-04-09T11:13:33.5Z</time></trkpt><trkpt lat="46.0927193" lon="9.0882167"><ele>1616.0</ele><time>2026-04-09T11:13:34.501Z</time></trkpt><trkpt lat="46.0926422" lon="9.0882158"><ele>1616.0</ele><time>2026-04-09T11:13:35.501Z</time></trkpt><trkpt lat="46.0925615" lon="9.0882186"><ele>1616.0</ele><time>2026-04-09T11:13:36.501Z</time></trkpt><trkpt lat="46.0924773" lon="9.0882276"><ele>1616.0</ele><time>2026-04-09T11:13:37.501Z</time></trkpt><trkpt lat="46.0923226" lon="9.0882473"><ele>1616.0</ele><time>2026-04-09T11:13:39.501Z</time></trkpt><trkpt lat="46.0922021" lon="9.0882677"><ele>1616.0</ele><time>2026-04-09T11:13:41.499Z</time></trkpt><trkpt lat="46.0920967" lon="9.0882331"><ele>1613.4</ele><time>2026-04-09T11:13:43.501Z</time></trkpt><trkpt lat="46.0919967" lon="9.0882079"><ele>1610.8</ele><time>2026-04-09T11:13:45.5Z</time></trkpt><trkpt lat="46.0918992" lon="9.088248"><ele>1608.2</ele><time>2026-04-09T11:13:47.499Z</time></trkpt><trkpt lat="46.0918066" lon="9.0883306"><ele>1605.6000000000001</ele><time>2026-04-09T11:13:49.499Z</time></trkpt><trkpt lat="46.0917207" lon="9.0884111"><ele>1603.0</ele><time>2026-04-09T11:13:51.5Z</time></trkpt><trkpt lat="46.0916318" lon="9.0884842"><ele>1600.25</ele><time>2026-04-09T11:13:53.5Z</time></trkpt><trkpt lat="46.0915422" lon="9.0885398"><ele>1597.5</ele><time>2026-04-09T11:13:55.5Z</time></trkpt><trkpt lat="46.0914396" lon="9.0886013"><ele>1594.75</ele><time>2026-04-09T11:13:57.499Z</time></trkpt><trkpt lat="46.0913699" lon="9.0886421"><ele>1592.0</ele><time>2026-04-09T11:13:59.499Z</time></trkpt><trkpt lat="46.0911779" lon="9.0889172"><ele>1591.9999999999998</ele><time>2026-04-09T11:14:27.499Z</time></trkpt><trkpt lat="46.0911333" lon="9.0889929"><ele>1592.0</ele><time>2026-04-09T11:14:28.5Z</time></trkpt><trkpt lat="46.0910884" lon="9.0890714"><ele>1592.0</ele><time>2026-04-09T11:14:29.499Z</time></trkpt><trkpt lat="46.0910471" lon="9.0891425"><ele>1592.0</ele><time>2026-04-09T11:14:30.5Z</time></trkpt><trkpt lat="46.0910051" lon="9.0892152"><ele>1591.9999999999998</ele><time>2026-04-09T11:14:31.499Z</time></trkpt><trkpt lat="46.0909386" lon="9.0893387"><ele>1592.0</ele><time>2026-04-09T11:14:33.499Z</time></trkpt><trkpt lat="46.0909247" lon="9.0894843"><ele>1591.8333333333333</ele><time>2026-04-09T11:14:36.499Z</time></trkpt><trkpt lat="46.0908959" lon="9.0895975"><ele>1591.6666666666665</ele><time>2026-04-09T11:14:38.5Z</time></trkpt><trkpt lat="46.0908311" lon="9.0896404"><ele>1591.5</ele><time>2026-04-09T11:14:42.499Z</time></trkpt><trkpt lat="46.0907599" lon="9.0896138"><ele>1591.3333333333335</ele><time>2026-04-09T11:14:50.499Z</time></trkpt><trkpt lat="46.0906544" lon="9.0894723"><ele>1591.1666666666667</ele><time>2026-04-09T11:14:55.499Z</time></trkpt><trkpt lat="46.0905866" lon="9.0894304"><ele>1591.0</ele><time>2026-04-09T11:14:57.498Z</time></trkpt><trkpt lat="46.0905226" lon="9.0894037"><ele>1590.0000000000002</ele><time>2026-04-09T11:14:59.5Z</time></trkpt><trkpt lat="46.0904345" lon="9.0893734"><ele>1589.0</ele><time>2026-04-09T11:15:02.499Z</time></trkpt><trkpt lat="46.0903519" lon="9.0893658"><ele>1588.0</ele><time>2026-04-09T11:15:05.5Z</time></trkpt><trkpt lat="46.0902804" lon="9.0894018"><ele>1587.0</ele><time>2026-04-09T11:15:07.499Z</time></trkpt><trkpt lat="46.0902069" lon="9.0894761"><ele>1586.0000000000002</ele><time>2026-04-09T11:15:09.499Z</time></trkpt><trkpt lat="46.090134" lon="9.0895807"><ele>1585.0</ele><time>2026-04-09T11:15:11.499Z</time></trkpt><trkpt lat="46.0899625" lon="9.0898274"><ele>1582.6666666666667</ele><time>2026-04-09T11:15:15.499Z</time></trkpt><trkpt lat="46.0899201" lon="9.0898968"><ele>1580.3333333333335</ele><time>2026-04-09T11:15:16.499Z</time></trkpt><trkpt lat="46.089876" lon="9.0899666"><ele>1578.0</ele><time>2026-04-09T11:15:17.499Z</time></trkpt><trkpt lat="46.0898315" lon="9.0900368"><ele>1575.6666666666665</ele><time>2026-04-09T11:15:18.5Z</time></trkpt><trkpt lat="46.0897375" lon="9.0901515"><ele>1573.3333333333333</ele><time>2026-04-09T11:15:20.499Z</time></trkpt><trkpt lat="46.089648" lon="9.0902305"><ele>1571.0</ele><time>2026-04-09T11:15:22.499Z</time></trkpt><trkpt lat="46.0895566" lon="9.0902725"><ele>1570.9999999999998</ele><time>2026-04-09T11:15:24.499Z</time></trkpt><trkpt lat="46.0894443" lon="9.090273"><ele>1571.0</ele><time>2026-04-09T11:15:26.499Z</time></trkpt><trkpt lat="46.0893739" lon="9.0902566"><ele>1571.0</ele><time>2026-04-09T11:15:27.499Z</time></trkpt><trkpt lat="46.089273" lon="9.090231"><ele>1571.0</ele><time>2026-04-09T11:15:28.498Z</time></trkpt><trkpt lat="46.0891965" lon="9.0902345"><ele>1570.9999999999998</ele><time>2026-04-09T11:15:29.498Z</time></trkpt><trkpt lat="46.0891283" lon="9.0902459"><ele>1571.0</ele><time>2026-04-09T11:15:30.499Z</time></trkpt><trkpt lat="46.0890092" lon="9.0902584"><ele>1569.4</ele><time>2026-04-09T11:15:32.499Z</time></trkpt><trkpt lat="46.088876" lon="9.0902598"><ele>1567.8</ele><time>2026-04-09T11:15:34.499Z</time></trkpt><trkpt lat="46.0888103" lon="9.0902644"><ele>1566.2</ele><time>2026-04-09T11:15:35.5Z</time></trkpt><trkpt lat="46.0887478" lon="9.0902758"><ele>1564.6000000000001</ele><time>2026-04-09T11:15:36.499Z</time></trkpt><trkpt lat="46.0886261" lon="9.0903008"><ele>1563.0</ele><time>2026-04-09T11:15:38.499Z</time></trkpt><trkpt lat="46.0885074" lon="9.0903217"><ele>1563.0</ele><time>2026-04-09T11:15:40.5Z</time></trkpt><trkpt lat="46.0884381" lon="9.0903248"><ele>1563.0</ele><time>2026-04-09T11:15:41.499Z</time></trkpt><trkpt lat="46.0883695" lon="9.090328"><ele>1563.0</ele><time>2026-04-09T11:15:42.498Z</time></trkpt><trkpt lat="46.0883055" lon="9.0903315"><ele>1563.0</ele><time>2026-04-09T11:15:43.499Z</time></trkpt><trkpt lat="46.0882367" lon="9.0903267"><ele>1563.0</ele><time>2026-04-09T11:15:44.5Z</time></trkpt><trkpt lat="46.0881586" lon="9.090312"><ele>1563.0</ele><time>2026-04-09T11:15:45.499Z</time></trkpt><trkpt lat="46.0880842" lon="9.0902943"><ele>1563.0</ele><time>2026-04-09T11:15:46.499Z</time></trkpt><trkpt lat="46.0880064" lon="9.0902822"><ele>1561.0</ele><time>2026-04-09T11:15:47.499Z</time></trkpt><trkpt lat="46.0879193" lon="9.0902747"><ele>1559.0</ele><time>2026-04-09T11:15:48.5Z</time></trkpt><trkpt lat="46.0878356" lon="9.0902646"><ele>1557.0</ele><time>2026-04-09T11:15:49.499Z</time></trkpt><trkpt lat="46.0877137" lon="9.0902665"><ele>1555.0</ele><time>2026-04-09T11:15:51.5Z</time></trkpt><trkpt lat="46.087616" lon="9.0902112"><ele>1553.0</ele><time>2026-04-09T11:15:53.499Z</time></trkpt><trkpt lat="46.0875342" lon="9.0900052"><ele>1552.9999999999998</ele><time>2026-04-09T11:15:57.499Z</time></trkpt><trkpt lat="46.0874774" lon="9.0899391"><ele>1553.0</ele><time>2026-04-09T11:15:59.499Z</time></trkpt><trkpt lat="46.0874059" lon="9.0899211"><ele>1553.0</ele><time>2026-04-09T11:16:01.499Z</time></trkpt><trkpt lat="46.0873263" lon="9.0899633"><ele>1553.0</ele><time>2026-04-09T11:16:03.5Z</time></trkpt><trkpt lat="46.0872416" lon="9.0900065"><ele>1552.9999999999998</ele><time>2026-04-09T11:16:05.499Z</time></trkpt><trkpt lat="46.0871475" lon="9.0900242"><ele>1553.0</ele><time>2026-04-09T11:16:07.499Z</time></trkpt><trkpt lat="46.0870804" lon="9.0900199"><ele>1541.0</ele><time>2026-04-09T11:16:08.498Z</time></trkpt><trkpt lat="46.0870152" lon="9.0900064"><ele>1541.0</ele><time>2026-04-09T11:16:09.498Z</time></trkpt><trkpt lat="46.0869055" lon="9.0899658"><ele>1541.0</ele><time>2026-04-09T11:16:11.499Z</time></trkpt><trkpt lat="46.0868164" lon="9.0899136"><ele>1537.0</ele><time>2026-04-09T11:16:13.499Z</time></trkpt><trkpt lat="46.0867444" lon="9.0898569"><ele>1537.0</ele><time>2026-04-09T11:16:15.498Z</time></trkpt></trkseg></trk></gpx>